<?xml version="1.0" encoding="UTF-8" standalone="no" ?>
<gpx xmlns="http://www.topografix.com/GPX/1/1" xmlns:xsi="http://www.w3.org/2001/XMLSchema-instance" xsi:schemaLocation="http://www.topografix.com/GPX/1/1 http://www.topografix.com/GPX/1/1/gpx.xsd" version="1.1" creator="VisuGPX - https://www.visugpx.com">
  <metadata>
    <name>ESPAGNE - PEDESTRE - Vertice Anayet - Aller-retour depuis le corral de las Mulas</name>
    <desc><![CDATA[rrrrrrrrrrrr]]></desc>
  </metadata>
  <wpt lat="42.77925" lon="-0.45795">
    <ele>-0.1143798828125</ele>
    <name><![CDATA[Col 2410m]]></name>
    <desc><![CDATA[Col 2410m]]></desc>
    <cmt><![CDATA[Col 2410m]]></cmt>
  </wpt>
  <wpt lat="42.78584" lon="-0.39253">
    <ele>1630</ele>
    <name><![CDATA[Départ/Arrivée 1625m]]></name>
    <desc><![CDATA[11-AOU-15 10:13:24]]></desc>
    <cmt><![CDATA[11-AOU-15 10:13:24]]></cmt>
  </wpt>
  <wpt lat="42.77798" lon="-0.44397">
    <ele>-0.1143798828125</ele>
    <name><![CDATA[Lac d'Anayet]]></name>
    <desc><![CDATA[Lac d'Anayet 2230m]]></desc>
    <cmt><![CDATA[Lac d'Anayet 2230m]]></cmt>
  </wpt>
  <wpt lat="42.77901" lon="-0.41349">
    <ele>1743.3</ele>
    <name><![CDATA[Parking Station ski]]></name>
    <desc><![CDATA[Parking Station de ski 1750m]]></desc>
    <cmt><![CDATA[Parking Station de ski 1750m]]></cmt>
  </wpt>
  <wpt lat="42.78162" lon="-0.45441">
    <ele>-0.1143798828125</ele>
    <name><![CDATA[Pic Anayet]]></name>
    <desc><![CDATA[Pic d'Anayet 2545m]]></desc>
    <cmt><![CDATA[Pic d'Anayet 2545m]]></cmt>
  </wpt>
  <wpt lat="42.77497" lon="-0.4608">
    <ele>-0.1143798828125</ele>
    <name><![CDATA[Vertice Anayet]]></name>
    <desc><![CDATA[Vertice Anayet 2559m]]></desc>
    <cmt><![CDATA[Vertice Anayet 2559m]]></cmt>
  </wpt>
  <trk>
    <name><![CDATA[ACTIVE LOG 001]]></name>
    <trkseg>
      <trkpt lat="42.78585" lon="-0.39266">
        <ele>1629.5720214844</ele>
        <time>2015-08-11T08:13:45Z</time>
      </trkpt>
      <trkpt lat="42.78585" lon="-0.39267">
        <ele>1629.5720214844</ele>
        <time>2015-08-11T08:13:47Z</time>
      </trkpt>
      <trkpt lat="42.78585" lon="-0.39267">
        <ele>1629.5720214844</ele>
        <time>2015-08-11T08:13:48Z</time>
      </trkpt>
      <trkpt lat="42.78584" lon="-0.39274">
        <ele>1629.0913085938</ele>
        <time>2015-08-11T08:13:56Z</time>
      </trkpt>
      <trkpt lat="42.78586" lon="-0.39284">
        <ele>1628.6108398438</ele>
        <time>2015-08-11T08:14:08Z</time>
      </trkpt>
      <trkpt lat="42.78581" lon="-0.39284">
        <ele>1628.6108398438</ele>
        <time>2015-08-11T08:14:13Z</time>
      </trkpt>
      <trkpt lat="42.78579" lon="-0.39285">
        <ele>1629.0913085938</ele>
        <time>2015-08-11T08:14:26Z</time>
      </trkpt>
      <trkpt lat="42.78578" lon="-0.39311">
        <ele>1628.1301269531</ele>
        <time>2015-08-11T08:14:44Z</time>
      </trkpt>
      <trkpt lat="42.78578" lon="-0.39326">
        <ele>1626.6879882812</ele>
        <time>2015-08-11T08:14:55Z</time>
      </trkpt>
      <trkpt lat="42.78578" lon="-0.39353">
        <ele>1626.6879882812</ele>
        <time>2015-08-11T08:15:13Z</time>
      </trkpt>
      <trkpt lat="42.78575" lon="-0.39391">
        <ele>1623.3234863281</ele>
        <time>2015-08-11T08:15:37Z</time>
      </trkpt>
      <trkpt lat="42.78576" lon="-0.39435">
        <ele>1621.8813476562</ele>
        <time>2015-08-11T08:16:04Z</time>
      </trkpt>
      <trkpt lat="42.7858" lon="-0.39473">
        <ele>1618.9975585938</ele>
        <time>2015-08-11T08:16:28Z</time>
      </trkpt>
      <trkpt lat="42.78585" lon="-0.39513">
        <ele>1617.5554199219</ele>
        <time>2015-08-11T08:16:52Z</time>
      </trkpt>
      <trkpt lat="42.78596" lon="-0.39551">
        <ele>1615.6330566406</ele>
        <time>2015-08-11T08:17:16Z</time>
      </trkpt>
      <trkpt lat="42.78613" lon="-0.3959">
        <ele>1614.1909179688</ele>
        <time>2015-08-11T08:17:43Z</time>
      </trkpt>
      <trkpt lat="42.78639" lon="-0.39614">
        <ele>1612.2683105469</ele>
        <time>2015-08-11T08:18:09Z</time>
      </trkpt>
      <trkpt lat="42.78665" lon="-0.39634">
        <ele>1609.8647460938</ele>
        <time>2015-08-11T08:18:32Z</time>
      </trkpt>
      <trkpt lat="42.7869" lon="-0.39664">
        <ele>1608.4228515625</ele>
        <time>2015-08-11T08:18:57Z</time>
      </trkpt>
      <trkpt lat="42.78701" lon="-0.39708">
        <ele>1606.9809570312</ele>
        <time>2015-08-11T08:19:23Z</time>
      </trkpt>
      <trkpt lat="42.78703" lon="-0.39747">
        <ele>1606.9809570312</ele>
        <time>2015-08-11T08:19:46Z</time>
      </trkpt>
      <trkpt lat="42.78689" lon="-0.3978">
        <ele>1607.9423828125</ele>
        <time>2015-08-11T08:20:08Z</time>
      </trkpt>
      <trkpt lat="42.78671" lon="-0.39799">
        <ele>1608.9035644531</ele>
        <time>2015-08-11T08:20:27Z</time>
      </trkpt>
      <trkpt lat="42.78649" lon="-0.39823">
        <ele>1609.8647460938</ele>
        <time>2015-08-11T08:20:47Z</time>
      </trkpt>
      <trkpt lat="42.78628" lon="-0.39859">
        <ele>1610.3454589844</ele>
        <time>2015-08-11T08:21:13Z</time>
      </trkpt>
      <trkpt lat="42.78609" lon="-0.39896">
        <ele>1612.2683105469</ele>
        <time>2015-08-11T08:21:38Z</time>
      </trkpt>
      <trkpt lat="42.78585" lon="-0.3993">
        <ele>1611.7875976562</ele>
        <time>2015-08-11T08:22:04Z</time>
      </trkpt>
      <trkpt lat="42.7856" lon="-0.3995">
        <ele>1613.2297363281</ele>
        <time>2015-08-11T08:22:27Z</time>
      </trkpt>
      <trkpt lat="42.78538" lon="-0.39964">
        <ele>1614.1909179688</ele>
        <time>2015-08-11T08:22:47Z</time>
      </trkpt>
      <trkpt lat="42.78514" lon="-0.39986">
        <ele>1616.1135253906</ele>
        <time>2015-08-11T08:23:10Z</time>
      </trkpt>
      <trkpt lat="42.78501" lon="-0.40025">
        <ele>1618.9975585938</ele>
        <time>2015-08-11T08:23:35Z</time>
      </trkpt>
      <trkpt lat="42.78501" lon="-0.40056">
        <ele>1620.439453125</ele>
        <time>2015-08-11T08:23:53Z</time>
      </trkpt>
      <trkpt lat="42.78495" lon="-0.40091">
        <ele>1623.3234863281</ele>
        <time>2015-08-11T08:24:14Z</time>
      </trkpt>
      <trkpt lat="42.78483" lon="-0.40117">
        <ele>1624.2846679688</ele>
        <time>2015-08-11T08:24:32Z</time>
      </trkpt>
      <trkpt lat="42.7847" lon="-0.40143">
        <ele>1626.6879882812</ele>
        <time>2015-08-11T08:24:50Z</time>
      </trkpt>
      <trkpt lat="42.78457" lon="-0.4017">
        <ele>1629.0913085938</ele>
        <time>2015-08-11T08:25:09Z</time>
      </trkpt>
      <trkpt lat="42.78445" lon="-0.40197">
        <ele>1630.5334472656</ele>
        <time>2015-08-11T08:25:28Z</time>
      </trkpt>
      <trkpt lat="42.78439" lon="-0.40226">
        <ele>1631.9753417969</ele>
        <time>2015-08-11T08:25:46Z</time>
      </trkpt>
      <trkpt lat="42.78434" lon="-0.40254">
        <ele>1634.859375</ele>
        <time>2015-08-11T08:26:04Z</time>
      </trkpt>
      <trkpt lat="42.78431" lon="-0.40273">
        <ele>1638.2238769531</ele>
        <time>2015-08-11T08:26:16Z</time>
      </trkpt>
      <trkpt lat="42.78418" lon="-0.403">
        <ele>1640.626953125</ele>
        <time>2015-08-11T08:26:36Z</time>
      </trkpt>
      <trkpt lat="42.78404" lon="-0.40321">
        <ele>1642.0690917969</ele>
        <time>2015-08-11T08:26:54Z</time>
      </trkpt>
      <trkpt lat="42.78386" lon="-0.40341">
        <ele>1644.953125</ele>
        <time>2015-08-11T08:27:13Z</time>
      </trkpt>
      <trkpt lat="42.78369" lon="-0.40363">
        <ele>1648.3176269531</ele>
        <time>2015-08-11T08:27:33Z</time>
      </trkpt>
      <trkpt lat="42.78358" lon="-0.40389">
        <ele>1651.6823730469</ele>
        <time>2015-08-11T08:27:52Z</time>
      </trkpt>
      <trkpt lat="42.7835" lon="-0.4042">
        <ele>1654.0856933594</ele>
        <time>2015-08-11T08:28:11Z</time>
      </trkpt>
      <trkpt lat="42.78351" lon="-0.40454">
        <ele>1657.4501953125</ele>
        <time>2015-08-11T08:28:32Z</time>
      </trkpt>
      <trkpt lat="42.78356" lon="-0.40478">
        <ele>1660.8149414062</ele>
        <time>2015-08-11T08:28:47Z</time>
      </trkpt>
      <trkpt lat="42.78367" lon="-0.40508">
        <ele>1661.7763671875</ele>
        <time>2015-08-11T08:29:07Z</time>
      </trkpt>
      <trkpt lat="42.7838" lon="-0.40546">
        <ele>1663.6987304688</ele>
        <time>2015-08-11T08:29:31Z</time>
      </trkpt>
      <trkpt lat="42.78383" lon="-0.40571">
        <ele>1665.6215820312</ele>
        <time>2015-08-11T08:29:45Z</time>
      </trkpt>
      <trkpt lat="42.78377" lon="-0.406">
        <ele>1666.5827636719</ele>
        <time>2015-08-11T08:30:02Z</time>
      </trkpt>
      <trkpt lat="42.78361" lon="-0.4063">
        <ele>1669.466796875</ele>
        <time>2015-08-11T08:30:23Z</time>
      </trkpt>
      <trkpt lat="42.78346" lon="-0.40647">
        <ele>1672.3505859375</ele>
        <time>2015-08-11T08:30:39Z</time>
      </trkpt>
      <trkpt lat="42.78326" lon="-0.40655">
        <ele>1674.75390625</ele>
        <time>2015-08-11T08:30:57Z</time>
      </trkpt>
      <trkpt lat="42.78296" lon="-0.40646">
        <ele>1676.1960449219</ele>
        <time>2015-08-11T08:31:19Z</time>
      </trkpt>
      <trkpt lat="42.78267" lon="-0.40633">
        <ele>1677.6379394531</ele>
        <time>2015-08-11T08:31:41Z</time>
      </trkpt>
      <trkpt lat="42.78243" lon="-0.4063">
        <ele>1680.0412597656</ele>
        <time>2015-08-11T08:31:59Z</time>
      </trkpt>
      <trkpt lat="42.78217" lon="-0.40632">
        <ele>1681.9638671875</ele>
        <time>2015-08-11T08:32:19Z</time>
      </trkpt>
      <trkpt lat="42.78192" lon="-0.40644">
        <ele>1683.8864746094</ele>
        <time>2015-08-11T08:32:39Z</time>
      </trkpt>
      <trkpt lat="42.78171" lon="-0.40664">
        <ele>1685.8090820312</ele>
        <time>2015-08-11T08:32:58Z</time>
      </trkpt>
      <trkpt lat="42.78156" lon="-0.4069">
        <ele>1689.1735839844</ele>
        <time>2015-08-11T08:33:17Z</time>
      </trkpt>
      <trkpt lat="42.78145" lon="-0.40722">
        <ele>1690.6154785156</ele>
        <time>2015-08-11T08:33:38Z</time>
      </trkpt>
      <trkpt lat="42.78141" lon="-0.40745">
        <ele>1693.4997558594</ele>
        <time>2015-08-11T08:33:52Z</time>
      </trkpt>
      <trkpt lat="42.7814" lon="-0.40776">
        <ele>1693.98046875</ele>
        <time>2015-08-11T08:34:10Z</time>
      </trkpt>
      <trkpt lat="42.7814" lon="-0.40809">
        <ele>1695.9030761719</ele>
        <time>2015-08-11T08:34:29Z</time>
      </trkpt>
      <trkpt lat="42.7814" lon="-0.40823">
        <ele>1699.267578125</ele>
        <time>2015-08-11T08:34:38Z</time>
      </trkpt>
      <trkpt lat="42.78136" lon="-0.40856">
        <ele>1700.2290039062</ele>
        <time>2015-08-11T08:34:59Z</time>
      </trkpt>
      <trkpt lat="42.78129" lon="-0.40878">
        <ele>1703.5935058594</ele>
        <time>2015-08-11T08:35:14Z</time>
      </trkpt>
      <trkpt lat="42.78127" lon="-0.40881">
        <ele>1703.5935058594</ele>
        <time>2015-08-11T08:35:17Z</time>
      </trkpt>
      <trkpt lat="42.78118" lon="-0.40882">
        <ele>1706.9580078125</ele>
        <time>2015-08-11T08:35:31Z</time>
      </trkpt>
      <trkpt lat="42.78113" lon="-0.40888">
        <ele>1709.3615722656</ele>
        <time>2015-08-11T08:35:45Z</time>
      </trkpt>
      <trkpt lat="42.78108" lon="-0.40891">
        <ele>1710.8034667969</ele>
        <time>2015-08-11T08:36:09Z</time>
      </trkpt>
      <trkpt lat="42.78105" lon="-0.40895">
        <ele>1710.3227539062</ele>
        <time>2015-08-11T08:36:14Z</time>
      </trkpt>
      <trkpt lat="42.78106" lon="-0.40915">
        <ele>1710.8034667969</ele>
        <time>2015-08-11T08:36:27Z</time>
      </trkpt>
      <trkpt lat="42.78118" lon="-0.40938">
        <ele>1713.2067871094</ele>
        <time>2015-08-11T08:36:46Z</time>
      </trkpt>
      <trkpt lat="42.78127" lon="-0.40965">
        <ele>1713.6872558594</ele>
        <time>2015-08-11T08:37:04Z</time>
      </trkpt>
      <trkpt lat="42.78128" lon="-0.4099">
        <ele>1714.6486816406</ele>
        <time>2015-08-11T08:37:20Z</time>
      </trkpt>
      <trkpt lat="42.7812" lon="-0.4102">
        <ele>1715.6101074219</ele>
        <time>2015-08-11T08:37:40Z</time>
      </trkpt>
      <trkpt lat="42.78116" lon="-0.41026">
        <ele>1714.6486816406</ele>
        <time>2015-08-11T08:37:45Z</time>
      </trkpt>
      <trkpt lat="42.78108" lon="-0.41042">
        <ele>1716.0905761719</ele>
        <time>2015-08-11T08:37:57Z</time>
      </trkpt>
      <trkpt lat="42.78097" lon="-0.41066">
        <ele>1718.0131835938</ele>
        <time>2015-08-11T08:38:14Z</time>
      </trkpt>
      <trkpt lat="42.7808" lon="-0.41085">
        <ele>1720.4165039062</ele>
        <time>2015-08-11T08:38:32Z</time>
      </trkpt>
      <trkpt lat="42.78057" lon="-0.41099">
        <ele>1722.3391113281</ele>
        <time>2015-08-11T08:38:53Z</time>
      </trkpt>
      <trkpt lat="42.78042" lon="-0.4111">
        <ele>1725.2231445312</ele>
        <time>2015-08-11T08:39:07Z</time>
      </trkpt>
      <trkpt lat="42.78028" lon="-0.41124">
        <ele>1726.6652832031</ele>
        <time>2015-08-11T08:39:21Z</time>
      </trkpt>
      <trkpt lat="42.78022" lon="-0.41152">
        <ele>1728.587890625</ele>
        <time>2015-08-11T08:39:39Z</time>
      </trkpt>
      <trkpt lat="42.7802" lon="-0.41156">
        <ele>1729.068359375</ele>
        <time>2015-08-11T08:39:42Z</time>
      </trkpt>
      <trkpt lat="42.78019" lon="-0.41169">
        <ele>1729.5490722656</ele>
        <time>2015-08-11T08:39:50Z</time>
      </trkpt>
      <trkpt lat="42.78016" lon="-0.41196">
        <ele>1731.4716796875</ele>
        <time>2015-08-11T08:40:07Z</time>
      </trkpt>
      <trkpt lat="42.78008" lon="-0.41223">
        <ele>1734.8364257812</ele>
        <time>2015-08-11T08:40:24Z</time>
      </trkpt>
      <trkpt lat="42.77998" lon="-0.41247">
        <ele>1735.7976074219</ele>
        <time>2015-08-11T08:40:40Z</time>
      </trkpt>
      <trkpt lat="42.77984" lon="-0.41269">
        <ele>1736.2783203125</ele>
        <time>2015-08-11T08:40:58Z</time>
      </trkpt>
      <trkpt lat="42.77969" lon="-0.41291">
        <ele>1738.2009277344</ele>
        <time>2015-08-11T08:41:15Z</time>
      </trkpt>
      <trkpt lat="42.77954" lon="-0.41304">
        <ele>1740.1237792969</ele>
        <time>2015-08-11T08:41:32Z</time>
      </trkpt>
      <trkpt lat="42.77937" lon="-0.41328">
        <ele>1740.6042480469</ele>
        <time>2015-08-11T08:41:52Z</time>
      </trkpt>
      <trkpt lat="42.77934" lon="-0.41331">
        <ele>1740.1237792969</ele>
        <time>2015-08-11T08:41:55Z</time>
      </trkpt>
      <trkpt lat="42.77923" lon="-0.41358">
        <ele>1741.0849609375</ele>
        <time>2015-08-11T08:42:13Z</time>
      </trkpt>
      <trkpt lat="42.77914" lon="-0.4138">
        <ele>1741.5656738281</ele>
        <time>2015-08-11T08:42:26Z</time>
      </trkpt>
      <trkpt lat="42.77911" lon="-0.41384">
        <ele>1741.5656738281</ele>
        <time>2015-08-11T08:42:30Z</time>
      </trkpt>
      <trkpt lat="42.77907" lon="-0.41416">
        <ele>1741.5656738281</ele>
        <time>2015-08-11T08:42:50Z</time>
      </trkpt>
      <trkpt lat="42.77906" lon="-0.41439">
        <ele>1742.5270996094</ele>
        <time>2015-08-11T08:43:08Z</time>
      </trkpt>
      <trkpt lat="42.77904" lon="-0.4144">
        <ele>1742.5270996094</ele>
        <time>2015-08-11T08:43:24Z</time>
      </trkpt>
      <trkpt lat="42.77905" lon="-0.41444">
        <ele>1743.0075683594</ele>
        <time>2015-08-11T08:43:57Z</time>
      </trkpt>
      <trkpt lat="42.77902" lon="-0.41452">
        <ele>1743.0075683594</ele>
        <time>2015-08-11T08:44:15Z</time>
      </trkpt>
      <trkpt lat="42.77894" lon="-0.41459">
        <ele>1745.4108886719</ele>
        <time>2015-08-11T08:44:28Z</time>
      </trkpt>
      <trkpt lat="42.77884" lon="-0.41474">
        <ele>1749.2561035156</ele>
        <time>2015-08-11T08:44:46Z</time>
      </trkpt>
      <trkpt lat="42.77877" lon="-0.41487">
        <ele>1752.1398925781</ele>
        <time>2015-08-11T08:45:00Z</time>
      </trkpt>
      <trkpt lat="42.77869" lon="-0.41504">
        <ele>1755.0239257812</ele>
        <time>2015-08-11T08:45:20Z</time>
      </trkpt>
      <trkpt lat="42.77867" lon="-0.41507">
        <ele>1755.0239257812</ele>
        <time>2015-08-11T08:45:24Z</time>
      </trkpt>
      <trkpt lat="42.77854" lon="-0.41513">
        <ele>1758.8693847656</ele>
        <time>2015-08-11T08:45:40Z</time>
      </trkpt>
      <trkpt lat="42.77841" lon="-0.41521">
        <ele>1760.7919921875</ele>
        <time>2015-08-11T08:45:56Z</time>
      </trkpt>
      <trkpt lat="42.77833" lon="-0.41522">
        <ele>1761.7534179688</ele>
        <time>2015-08-11T08:46:06Z</time>
      </trkpt>
      <trkpt lat="42.77818" lon="-0.41524">
        <ele>1765.1179199219</ele>
        <time>2015-08-11T08:46:24Z</time>
      </trkpt>
      <trkpt lat="42.77804" lon="-0.41518">
        <ele>1768.0017089844</ele>
        <time>2015-08-11T08:46:41Z</time>
      </trkpt>
      <trkpt lat="42.77798" lon="-0.41519">
        <ele>1769.4438476562</ele>
        <time>2015-08-11T08:46:50Z</time>
      </trkpt>
      <trkpt lat="42.77789" lon="-0.41526">
        <ele>1772.3278808594</ele>
        <time>2015-08-11T08:47:06Z</time>
      </trkpt>
      <trkpt lat="42.77786" lon="-0.41527">
        <ele>1773.7697753906</ele>
        <time>2015-08-11T08:47:10Z</time>
      </trkpt>
      <trkpt lat="42.77775" lon="-0.41531">
        <ele>1777.1345214844</ele>
        <time>2015-08-11T08:47:26Z</time>
      </trkpt>
      <trkpt lat="42.77763" lon="-0.41535">
        <ele>1780.4990234375</ele>
        <time>2015-08-11T08:47:41Z</time>
      </trkpt>
      <trkpt lat="42.7776" lon="-0.41537">
        <ele>1781.4602050781</ele>
        <time>2015-08-11T08:47:47Z</time>
      </trkpt>
      <trkpt lat="42.77746" lon="-0.41541">
        <ele>1782.4216308594</ele>
        <time>2015-08-11T08:48:04Z</time>
      </trkpt>
      <trkpt lat="42.77733" lon="-0.41549">
        <ele>1784.8249511719</ele>
        <time>2015-08-11T08:48:21Z</time>
      </trkpt>
      <trkpt lat="42.77724" lon="-0.4155">
        <ele>1788.1896972656</ele>
        <time>2015-08-11T08:48:33Z</time>
      </trkpt>
      <trkpt lat="42.77713" lon="-0.41559">
        <ele>1789.6315917969</ele>
        <time>2015-08-11T08:48:48Z</time>
      </trkpt>
      <trkpt lat="42.77705" lon="-0.41572">
        <ele>1792.0349121094</ele>
        <time>2015-08-11T08:49:07Z</time>
      </trkpt>
      <trkpt lat="42.77694" lon="-0.41598">
        <ele>1792.515625</ele>
        <time>2015-08-11T08:49:28Z</time>
      </trkpt>
      <trkpt lat="42.77683" lon="-0.4161">
        <ele>1792.0349121094</ele>
        <time>2015-08-11T08:49:42Z</time>
      </trkpt>
      <trkpt lat="42.7767" lon="-0.4163">
        <ele>1791.0734863281</ele>
        <time>2015-08-11T08:49:59Z</time>
      </trkpt>
      <trkpt lat="42.77657" lon="-0.41649">
        <ele>1792.0349121094</ele>
        <time>2015-08-11T08:50:17Z</time>
      </trkpt>
      <trkpt lat="42.77641" lon="-0.41666">
        <ele>1794.9187011719</ele>
        <time>2015-08-11T08:50:36Z</time>
      </trkpt>
      <trkpt lat="42.77615" lon="-0.41672">
        <ele>1794.4379882812</ele>
        <time>2015-08-11T08:50:59Z</time>
      </trkpt>
      <trkpt lat="42.77606" lon="-0.41675">
        <ele>1794.9187011719</ele>
        <time>2015-08-11T08:51:07Z</time>
      </trkpt>
      <trkpt lat="42.77594" lon="-0.41676">
        <ele>1796.3608398438</ele>
        <time>2015-08-11T08:51:24Z</time>
      </trkpt>
      <trkpt lat="42.77581" lon="-0.41675">
        <ele>1796.3608398438</ele>
        <time>2015-08-11T08:51:39Z</time>
      </trkpt>
      <trkpt lat="42.77564" lon="-0.41675">
        <ele>1796.8413085938</ele>
        <time>2015-08-11T08:51:57Z</time>
      </trkpt>
      <trkpt lat="42.7756" lon="-0.41676">
        <ele>1797.802734375</ele>
        <time>2015-08-11T08:52:02Z</time>
      </trkpt>
      <trkpt lat="42.77544" lon="-0.41683">
        <ele>1798.283203125</ele>
        <time>2015-08-11T08:52:21Z</time>
      </trkpt>
      <trkpt lat="42.77524" lon="-0.41688">
        <ele>1797.3220214844</ele>
        <time>2015-08-11T08:52:40Z</time>
      </trkpt>
      <trkpt lat="42.77503" lon="-0.41696">
        <ele>1795.8801269531</ele>
        <time>2015-08-11T08:52:59Z</time>
      </trkpt>
      <trkpt lat="42.77494" lon="-0.41701">
        <ele>1799.7253417969</ele>
        <time>2015-08-11T08:53:11Z</time>
      </trkpt>
      <trkpt lat="42.77483" lon="-0.41708">
        <ele>1799.2446289062</ele>
        <time>2015-08-11T08:53:27Z</time>
      </trkpt>
      <trkpt lat="42.77473" lon="-0.41712">
        <ele>1801.1672363281</ele>
        <time>2015-08-11T08:53:41Z</time>
      </trkpt>
      <trkpt lat="42.77464" lon="-0.41719">
        <ele>1802.1284179688</ele>
        <time>2015-08-11T08:53:58Z</time>
      </trkpt>
      <trkpt lat="42.77458" lon="-0.41723">
        <ele>1804.0515136719</ele>
        <time>2015-08-11T08:54:10Z</time>
      </trkpt>
      <trkpt lat="42.77445" lon="-0.41729">
        <ele>1805.0126953125</ele>
        <time>2015-08-11T08:54:27Z</time>
      </trkpt>
      <trkpt lat="42.77439" lon="-0.41733">
        <ele>1804.5319824219</ele>
        <time>2015-08-11T08:54:36Z</time>
      </trkpt>
      <trkpt lat="42.7743" lon="-0.41736">
        <ele>1806.4545898438</ele>
        <time>2015-08-11T08:54:50Z</time>
      </trkpt>
      <trkpt lat="42.77422" lon="-0.41741">
        <ele>1808.3771972656</ele>
        <time>2015-08-11T08:55:03Z</time>
      </trkpt>
      <trkpt lat="42.77411" lon="-0.41743">
        <ele>1808.8579101562</ele>
        <time>2015-08-11T08:55:14Z</time>
      </trkpt>
      <trkpt lat="42.77402" lon="-0.41741">
        <ele>1808.3771972656</ele>
        <time>2015-08-11T08:55:24Z</time>
      </trkpt>
      <trkpt lat="42.77397" lon="-0.41736">
        <ele>1809.8190917969</ele>
        <time>2015-08-11T08:55:31Z</time>
      </trkpt>
      <trkpt lat="42.77391" lon="-0.41733">
        <ele>1809.3386230469</ele>
        <time>2015-08-11T08:55:38Z</time>
      </trkpt>
      <trkpt lat="42.77382" lon="-0.41743">
        <ele>1808.8579101562</ele>
        <time>2015-08-11T08:55:53Z</time>
      </trkpt>
      <trkpt lat="42.77378" lon="-0.41751">
        <ele>1810.7805175781</ele>
        <time>2015-08-11T08:56:04Z</time>
      </trkpt>
      <trkpt lat="42.77377" lon="-0.41753">
        <ele>1810.7805175781</ele>
        <time>2015-08-11T08:56:06Z</time>
      </trkpt>
      <trkpt lat="42.77369" lon="-0.41762">
        <ele>1811.2612304688</ele>
        <time>2015-08-11T08:56:19Z</time>
      </trkpt>
      <trkpt lat="42.77358" lon="-0.41766">
        <ele>1810.7805175781</ele>
        <time>2015-08-11T08:56:35Z</time>
      </trkpt>
      <trkpt lat="42.77351" lon="-0.41772">
        <ele>1810.2998046875</ele>
        <time>2015-08-11T08:56:48Z</time>
      </trkpt>
      <trkpt lat="42.77342" lon="-0.41781">
        <ele>1811.2612304688</ele>
        <time>2015-08-11T08:57:00Z</time>
      </trkpt>
      <trkpt lat="42.77335" lon="-0.41796">
        <ele>1811.7419433594</ele>
        <time>2015-08-11T08:57:15Z</time>
      </trkpt>
      <trkpt lat="42.77327" lon="-0.41818">
        <ele>1811.7419433594</ele>
        <time>2015-08-11T08:57:32Z</time>
      </trkpt>
      <trkpt lat="42.77326" lon="-0.41821">
        <ele>1811.7419433594</ele>
        <time>2015-08-11T08:57:34Z</time>
      </trkpt>
      <trkpt lat="42.77324" lon="-0.41821">
        <ele>1811.7419433594</ele>
        <time>2015-08-11T08:57:36Z</time>
      </trkpt>
      <trkpt lat="42.77321" lon="-0.41822">
        <ele>1812.2224121094</ele>
        <time>2015-08-11T08:57:39Z</time>
      </trkpt>
      <trkpt lat="42.77321" lon="-0.41829">
        <ele>1811.2612304688</ele>
        <time>2015-08-11T08:57:48Z</time>
      </trkpt>
      <trkpt lat="42.7732" lon="-0.41832">
        <ele>1811.7419433594</ele>
        <time>2015-08-11T08:57:51Z</time>
      </trkpt>
      <trkpt lat="42.77313" lon="-0.41845">
        <ele>1811.7419433594</ele>
        <time>2015-08-11T08:58:06Z</time>
      </trkpt>
      <trkpt lat="42.77311" lon="-0.41858">
        <ele>1811.7419433594</ele>
        <time>2015-08-11T08:58:23Z</time>
      </trkpt>
      <trkpt lat="42.77311" lon="-0.41863">
        <ele>1811.7419433594</ele>
        <time>2015-08-11T08:58:35Z</time>
      </trkpt>
      <trkpt lat="42.7731" lon="-0.41865">
        <ele>1811.7419433594</ele>
        <time>2015-08-11T08:58:42Z</time>
      </trkpt>
      <trkpt lat="42.77308" lon="-0.4187">
        <ele>1813.1838378906</ele>
        <time>2015-08-11T08:58:55Z</time>
      </trkpt>
      <trkpt lat="42.77306" lon="-0.41878">
        <ele>1813.6643066406</ele>
        <time>2015-08-11T08:59:09Z</time>
      </trkpt>
      <trkpt lat="42.77305" lon="-0.41893">
        <ele>1815.1064453125</ele>
        <time>2015-08-11T08:59:24Z</time>
      </trkpt>
      <trkpt lat="42.77304" lon="-0.41897">
        <ele>1815.5871582031</ele>
        <time>2015-08-11T08:59:28Z</time>
      </trkpt>
      <trkpt lat="42.77304" lon="-0.41901">
        <ele>1816.0676269531</ele>
        <time>2015-08-11T08:59:31Z</time>
      </trkpt>
      <trkpt lat="42.77307" lon="-0.41917">
        <ele>1817.0290527344</ele>
        <time>2015-08-11T08:59:46Z</time>
      </trkpt>
      <trkpt lat="42.77311" lon="-0.41927">
        <ele>1818.4709472656</ele>
        <time>2015-08-11T09:00:01Z</time>
      </trkpt>
      <trkpt lat="42.77316" lon="-0.41932">
        <ele>1821.8356933594</ele>
        <time>2015-08-11T09:00:12Z</time>
      </trkpt>
      <trkpt lat="42.77314" lon="-0.41945">
        <ele>1824.2390136719</ele>
        <time>2015-08-11T09:00:28Z</time>
      </trkpt>
      <trkpt lat="42.77316" lon="-0.41954">
        <ele>1825.2001953125</ele>
        <time>2015-08-11T09:00:42Z</time>
      </trkpt>
      <trkpt lat="42.7732" lon="-0.41967">
        <ele>1827.603515625</ele>
        <time>2015-08-11T09:00:59Z</time>
      </trkpt>
      <trkpt lat="42.77324" lon="-0.4198">
        <ele>1829.5261230469</ele>
        <time>2015-08-11T09:01:16Z</time>
      </trkpt>
      <trkpt lat="42.77325" lon="-0.41988">
        <ele>1832.41015625</ele>
        <time>2015-08-11T09:01:39Z</time>
      </trkpt>
      <trkpt lat="42.77326" lon="-0.42004">
        <ele>1833.8520507812</ele>
        <time>2015-08-11T09:01:57Z</time>
      </trkpt>
      <trkpt lat="42.77326" lon="-0.42025">
        <ele>1836.2556152344</ele>
        <time>2015-08-11T09:02:18Z</time>
      </trkpt>
      <trkpt lat="42.77327" lon="-0.42038">
        <ele>1839.1394042969</ele>
        <time>2015-08-11T09:02:30Z</time>
      </trkpt>
      <trkpt lat="42.77328" lon="-0.42052">
        <ele>1840.5812988281</ele>
        <time>2015-08-11T09:02:49Z</time>
      </trkpt>
      <trkpt lat="42.77328" lon="-0.42063">
        <ele>1842.9846191406</ele>
        <time>2015-08-11T09:03:03Z</time>
      </trkpt>
      <trkpt lat="42.77329" lon="-0.42064">
        <ele>1843.4653320312</ele>
        <time>2015-08-11T09:03:04Z</time>
      </trkpt>
      <trkpt lat="42.77329" lon="-0.4208">
        <ele>1845.8686523438</ele>
        <time>2015-08-11T09:03:23Z</time>
      </trkpt>
      <trkpt lat="42.77331" lon="-0.42093">
        <ele>1847.310546875</ele>
        <time>2015-08-11T09:03:38Z</time>
      </trkpt>
      <trkpt lat="42.77332" lon="-0.42107">
        <ele>1849.2331542969</ele>
        <time>2015-08-11T09:03:55Z</time>
      </trkpt>
      <trkpt lat="42.77333" lon="-0.42118">
        <ele>1851.1557617188</ele>
        <time>2015-08-11T09:04:12Z</time>
      </trkpt>
      <trkpt lat="42.77333" lon="-0.4213">
        <ele>1853.0786132812</ele>
        <time>2015-08-11T09:04:28Z</time>
      </trkpt>
      <trkpt lat="42.77335" lon="-0.42141">
        <ele>1854.5205078125</ele>
        <time>2015-08-11T09:04:42Z</time>
      </trkpt>
      <trkpt lat="42.77339" lon="-0.42152">
        <ele>1857.8852539062</ele>
        <time>2015-08-11T09:04:57Z</time>
      </trkpt>
      <trkpt lat="42.77344" lon="-0.42165">
        <ele>1859.8076171875</ele>
        <time>2015-08-11T09:05:14Z</time>
      </trkpt>
      <trkpt lat="42.77351" lon="-0.42175">
        <ele>1862.6916503906</ele>
        <time>2015-08-11T09:05:29Z</time>
      </trkpt>
      <trkpt lat="42.77355" lon="-0.42176">
        <ele>1863.6528320312</ele>
        <time>2015-08-11T09:05:45Z</time>
      </trkpt>
      <trkpt lat="42.77358" lon="-0.42184">
        <ele>1865.5756835938</ele>
        <time>2015-08-11T09:06:00Z</time>
      </trkpt>
      <trkpt lat="42.77356" lon="-0.4219">
        <ele>1867.498046875</ele>
        <time>2015-08-11T09:06:16Z</time>
      </trkpt>
      <trkpt lat="42.77362" lon="-0.42198">
        <ele>1869.9016113281</ele>
        <time>2015-08-11T09:06:33Z</time>
      </trkpt>
      <trkpt lat="42.77366" lon="-0.42208">
        <ele>1872.7856445312</ele>
        <time>2015-08-11T09:06:49Z</time>
      </trkpt>
      <trkpt lat="42.77362" lon="-0.42215">
        <ele>1875.1887207031</ele>
        <time>2015-08-11T09:07:06Z</time>
      </trkpt>
      <trkpt lat="42.77363" lon="-0.42228">
        <ele>1876.630859375</ele>
        <time>2015-08-11T09:07:22Z</time>
      </trkpt>
      <trkpt lat="42.77364" lon="-0.42238">
        <ele>1880.4760742188</ele>
        <time>2015-08-11T09:07:35Z</time>
      </trkpt>
      <trkpt lat="42.77362" lon="-0.42248">
        <ele>1881.91796875</ele>
        <time>2015-08-11T09:07:50Z</time>
      </trkpt>
      <trkpt lat="42.77359" lon="-0.42263">
        <ele>1883.8405761719</ele>
        <time>2015-08-11T09:08:06Z</time>
      </trkpt>
      <trkpt lat="42.77359" lon="-0.42274">
        <ele>1884.3215332031</ele>
        <time>2015-08-11T09:08:20Z</time>
      </trkpt>
      <trkpt lat="42.77356" lon="-0.42282">
        <ele>1885.7634277344</ele>
        <time>2015-08-11T09:08:28Z</time>
      </trkpt>
      <trkpt lat="42.77354" lon="-0.42298">
        <ele>1887.6860351562</ele>
        <time>2015-08-11T09:08:45Z</time>
      </trkpt>
      <trkpt lat="42.77352" lon="-0.42308">
        <ele>1888.1667480469</ele>
        <time>2015-08-11T09:08:55Z</time>
      </trkpt>
      <trkpt lat="42.7735" lon="-0.42313">
        <ele>1887.6860351562</ele>
        <time>2015-08-11T09:09:00Z</time>
      </trkpt>
      <trkpt lat="42.7735" lon="-0.42352">
        <ele>1889.1279296875</ele>
        <time>2015-08-11T09:09:26Z</time>
      </trkpt>
      <trkpt lat="42.77353" lon="-0.42377">
        <ele>1889.6086425781</ele>
        <time>2015-08-11T09:09:44Z</time>
      </trkpt>
      <trkpt lat="42.77351" lon="-0.42406">
        <ele>1891.53125</ele>
        <time>2015-08-11T09:10:05Z</time>
      </trkpt>
      <trkpt lat="42.77339" lon="-0.42431">
        <ele>1892.0119628906</ele>
        <time>2015-08-11T09:10:27Z</time>
      </trkpt>
      <trkpt lat="42.77335" lon="-0.42451">
        <ele>1892.4926757812</ele>
        <time>2015-08-11T09:10:43Z</time>
      </trkpt>
      <trkpt lat="42.77335" lon="-0.42462">
        <ele>1892.9731445312</ele>
        <time>2015-08-11T09:10:58Z</time>
      </trkpt>
      <trkpt lat="42.77337" lon="-0.42467">
        <ele>1892.9731445312</ele>
        <time>2015-08-11T09:11:04Z</time>
      </trkpt>
      <trkpt lat="42.77345" lon="-0.42479">
        <ele>1894.4150390625</ele>
        <time>2015-08-11T09:11:18Z</time>
      </trkpt>
      <trkpt lat="42.77353" lon="-0.42488">
        <ele>1895.8571777344</ele>
        <time>2015-08-11T09:11:33Z</time>
      </trkpt>
      <trkpt lat="42.77355" lon="-0.42498">
        <ele>1895.8571777344</ele>
        <time>2015-08-11T09:11:41Z</time>
      </trkpt>
      <trkpt lat="42.77363" lon="-0.4253">
        <ele>1897.2990722656</ele>
        <time>2015-08-11T09:12:04Z</time>
      </trkpt>
      <trkpt lat="42.77368" lon="-0.42549">
        <ele>1897.7797851562</ele>
        <time>2015-08-11T09:12:21Z</time>
      </trkpt>
      <trkpt lat="42.7737" lon="-0.42562">
        <ele>1898.7409667969</ele>
        <time>2015-08-11T09:12:35Z</time>
      </trkpt>
      <trkpt lat="42.77368" lon="-0.42598">
        <ele>1901.6252441406</ele>
        <time>2015-08-11T09:12:59Z</time>
      </trkpt>
      <trkpt lat="42.77372" lon="-0.42628">
        <ele>1902.1057128906</ele>
        <time>2015-08-11T09:13:19Z</time>
      </trkpt>
      <trkpt lat="42.77375" lon="-0.42653">
        <ele>1903.0671386719</ele>
        <time>2015-08-11T09:13:38Z</time>
      </trkpt>
      <trkpt lat="42.77375" lon="-0.42669">
        <ele>1904.9897460938</ele>
        <time>2015-08-11T09:13:54Z</time>
      </trkpt>
      <trkpt lat="42.77374" lon="-0.42672">
        <ele>1906.431640625</ele>
        <time>2015-08-11T09:13:59Z</time>
      </trkpt>
      <trkpt lat="42.77378" lon="-0.42679">
        <ele>1907.8737792969</ele>
        <time>2015-08-11T09:14:11Z</time>
      </trkpt>
      <trkpt lat="42.77379" lon="-0.42688">
        <ele>1911.23828125</ele>
        <time>2015-08-11T09:14:24Z</time>
      </trkpt>
      <trkpt lat="42.7738" lon="-0.42691">
        <ele>1912.1994628906</ele>
        <time>2015-08-11T09:14:30Z</time>
      </trkpt>
      <trkpt lat="42.77381" lon="-0.42694">
        <ele>1914.1220703125</ele>
        <time>2015-08-11T09:14:37Z</time>
      </trkpt>
      <trkpt lat="42.77387" lon="-0.42702">
        <ele>1916.044921875</ele>
        <time>2015-08-11T09:14:52Z</time>
      </trkpt>
      <trkpt lat="42.77387" lon="-0.42712">
        <ele>1918.9289550781</ele>
        <time>2015-08-11T09:15:04Z</time>
      </trkpt>
      <trkpt lat="42.77392" lon="-0.42717">
        <ele>1921.33203125</ele>
        <time>2015-08-11T09:15:18Z</time>
      </trkpt>
      <trkpt lat="42.77392" lon="-0.42731">
        <ele>1923.7353515625</ele>
        <time>2015-08-11T09:15:37Z</time>
      </trkpt>
      <trkpt lat="42.77395" lon="-0.42739">
        <ele>1925.1772460938</ele>
        <time>2015-08-11T09:15:52Z</time>
      </trkpt>
      <trkpt lat="42.77396" lon="-0.42744">
        <ele>1926.138671875</ele>
        <time>2015-08-11T09:16:07Z</time>
      </trkpt>
      <trkpt lat="42.77397" lon="-0.42758">
        <ele>1928.5419921875</ele>
        <time>2015-08-11T09:16:25Z</time>
      </trkpt>
      <trkpt lat="42.774" lon="-0.42766">
        <ele>1930.9453125</ele>
        <time>2015-08-11T09:16:40Z</time>
      </trkpt>
      <trkpt lat="42.77401" lon="-0.42777">
        <ele>1932.8679199219</ele>
        <time>2015-08-11T09:16:55Z</time>
      </trkpt>
      <trkpt lat="42.77406" lon="-0.42791">
        <ele>1933.8293457031</ele>
        <time>2015-08-11T09:17:14Z</time>
      </trkpt>
      <trkpt lat="42.77408" lon="-0.428">
        <ele>1936.7131347656</ele>
        <time>2015-08-11T09:17:29Z</time>
      </trkpt>
      <trkpt lat="42.7741" lon="-0.42811">
        <ele>1938.6359863281</ele>
        <time>2015-08-11T09:17:44Z</time>
      </trkpt>
      <trkpt lat="42.77417" lon="-0.42823">
        <ele>1942.0004882812</ele>
        <time>2015-08-11T09:18:01Z</time>
      </trkpt>
      <trkpt lat="42.77423" lon="-0.42832">
        <ele>1945.3649902344</ele>
        <time>2015-08-11T09:18:16Z</time>
      </trkpt>
      <trkpt lat="42.77428" lon="-0.42841">
        <ele>1948.7297363281</ele>
        <time>2015-08-11T09:18:30Z</time>
      </trkpt>
      <trkpt lat="42.77432" lon="-0.42857">
        <ele>1950.65234375</ele>
        <time>2015-08-11T09:18:50Z</time>
      </trkpt>
      <trkpt lat="42.77436" lon="-0.42866">
        <ele>1954.0170898438</ele>
        <time>2015-08-11T09:19:04Z</time>
      </trkpt>
      <trkpt lat="42.77439" lon="-0.42875">
        <ele>1957.3815917969</ele>
        <time>2015-08-11T09:19:16Z</time>
      </trkpt>
      <trkpt lat="42.77444" lon="-0.42882">
        <ele>1960.2653808594</ele>
        <time>2015-08-11T09:19:27Z</time>
      </trkpt>
      <trkpt lat="42.77446" lon="-0.42887">
        <ele>1961.2268066406</ele>
        <time>2015-08-11T09:19:37Z</time>
      </trkpt>
      <trkpt lat="42.77452" lon="-0.42899">
        <ele>1963.6298828125</ele>
        <time>2015-08-11T09:19:53Z</time>
      </trkpt>
      <trkpt lat="42.77456" lon="-0.42912">
        <ele>1965.5529785156</ele>
        <time>2015-08-11T09:20:09Z</time>
      </trkpt>
      <trkpt lat="42.77457" lon="-0.42926">
        <ele>1966.0334472656</ele>
        <time>2015-08-11T09:20:25Z</time>
      </trkpt>
      <trkpt lat="42.77461" lon="-0.42947">
        <ele>1967.9560546875</ele>
        <time>2015-08-11T09:20:44Z</time>
      </trkpt>
      <trkpt lat="42.77464" lon="-0.42958">
        <ele>1968.4367675781</ele>
        <time>2015-08-11T09:20:50Z</time>
      </trkpt>
      <trkpt lat="42.77467" lon="-0.42964">
        <ele>1969.3981933594</ele>
        <time>2015-08-11T09:21:00Z</time>
      </trkpt>
      <trkpt lat="42.77473" lon="-0.42976">
        <ele>1969.8786621094</ele>
        <time>2015-08-11T09:21:10Z</time>
      </trkpt>
      <trkpt lat="42.77474" lon="-0.4299">
        <ele>1970.359375</ele>
        <time>2015-08-11T09:21:26Z</time>
      </trkpt>
      <trkpt lat="42.77471" lon="-0.43001">
        <ele>1973.7238769531</ele>
        <time>2015-08-11T09:21:38Z</time>
      </trkpt>
      <trkpt lat="42.77471" lon="-0.43002">
        <ele>1973.7238769531</ele>
        <time>2015-08-11T09:21:39Z</time>
      </trkpt>
      <trkpt lat="42.77472" lon="-0.43019">
        <ele>1976.1271972656</ele>
        <time>2015-08-11T09:21:54Z</time>
      </trkpt>
      <trkpt lat="42.77474" lon="-0.43026">
        <ele>1977.5690917969</ele>
        <time>2015-08-11T09:22:07Z</time>
      </trkpt>
      <trkpt lat="42.77475" lon="-0.43035">
        <ele>1977.5690917969</ele>
        <time>2015-08-11T09:22:38Z</time>
      </trkpt>
      <trkpt lat="42.7748" lon="-0.43054">
        <ele>1978.5305175781</ele>
        <time>2015-08-11T09:22:55Z</time>
      </trkpt>
      <trkpt lat="42.77485" lon="-0.43066">
        <ele>1981.4145507812</ele>
        <time>2015-08-11T09:23:08Z</time>
      </trkpt>
      <trkpt lat="42.77488" lon="-0.43076">
        <ele>1979.4916992188</ele>
        <time>2015-08-11T09:23:21Z</time>
      </trkpt>
      <trkpt lat="42.77495" lon="-0.43087">
        <ele>1982.3759765625</ele>
        <time>2015-08-11T09:23:35Z</time>
      </trkpt>
      <trkpt lat="42.77506" lon="-0.43095">
        <ele>1983.3371582031</ele>
        <time>2015-08-11T09:23:50Z</time>
      </trkpt>
      <trkpt lat="42.77507" lon="-0.431">
        <ele>1983.8178710938</ele>
        <time>2015-08-11T09:23:54Z</time>
      </trkpt>
      <trkpt lat="42.77508" lon="-0.43113">
        <ele>1984.779296875</ele>
        <time>2015-08-11T09:24:09Z</time>
      </trkpt>
      <trkpt lat="42.77505" lon="-0.43124">
        <ele>1987.6630859375</ele>
        <time>2015-08-11T09:24:23Z</time>
      </trkpt>
      <trkpt lat="42.775" lon="-0.43141">
        <ele>1990.06640625</ele>
        <time>2015-08-11T09:24:39Z</time>
      </trkpt>
      <trkpt lat="42.77501" lon="-0.4317">
        <ele>1991.9890136719</ele>
        <time>2015-08-11T09:25:02Z</time>
      </trkpt>
      <trkpt lat="42.775" lon="-0.43194">
        <ele>1994.8728027344</ele>
        <time>2015-08-11T09:25:24Z</time>
      </trkpt>
      <trkpt lat="42.775" lon="-0.43211">
        <ele>1998.2375488281</ele>
        <time>2015-08-11T09:25:40Z</time>
      </trkpt>
      <trkpt lat="42.77496" lon="-0.43229">
        <ele>2001.1215820312</ele>
        <time>2015-08-11T09:26:00Z</time>
      </trkpt>
      <trkpt lat="42.77493" lon="-0.43244">
        <ele>2003.0441894531</ele>
        <time>2015-08-11T09:26:18Z</time>
      </trkpt>
      <trkpt lat="42.77493" lon="-0.43256">
        <ele>2005.4475097656</ele>
        <time>2015-08-11T09:26:33Z</time>
      </trkpt>
      <trkpt lat="42.77494" lon="-0.43266">
        <ele>2008.3312988281</ele>
        <time>2015-08-11T09:26:48Z</time>
      </trkpt>
      <trkpt lat="42.77491" lon="-0.43275">
        <ele>2009.2927246094</ele>
        <time>2015-08-11T09:27:00Z</time>
      </trkpt>
      <trkpt lat="42.77489" lon="-0.43289">
        <ele>2012.1767578125</ele>
        <time>2015-08-11T09:27:19Z</time>
      </trkpt>
      <trkpt lat="42.77485" lon="-0.43295">
        <ele>2015.0607910156</ele>
        <time>2015-08-11T09:27:35Z</time>
      </trkpt>
      <trkpt lat="42.77484" lon="-0.43303">
        <ele>2015.5415039062</ele>
        <time>2015-08-11T09:27:48Z</time>
      </trkpt>
      <trkpt lat="42.77481" lon="-0.43313">
        <ele>2018.9060058594</ele>
        <time>2015-08-11T09:28:01Z</time>
      </trkpt>
      <trkpt lat="42.7748" lon="-0.43324">
        <ele>2019.8671875</ele>
        <time>2015-08-11T09:28:15Z</time>
      </trkpt>
      <trkpt lat="42.77477" lon="-0.43341">
        <ele>2022.2705078125</ele>
        <time>2015-08-11T09:28:33Z</time>
      </trkpt>
      <trkpt lat="42.77474" lon="-0.43354">
        <ele>2025.154296875</ele>
        <time>2015-08-11T09:28:50Z</time>
      </trkpt>
      <trkpt lat="42.77477" lon="-0.43363">
        <ele>2027.5576171875</ele>
        <time>2015-08-11T09:29:05Z</time>
      </trkpt>
      <trkpt lat="42.77478" lon="-0.43364">
        <ele>2028.0385742188</ele>
        <time>2015-08-11T09:29:07Z</time>
      </trkpt>
      <trkpt lat="42.77476" lon="-0.43371">
        <ele>2031.4030761719</ele>
        <time>2015-08-11T09:29:20Z</time>
      </trkpt>
      <trkpt lat="42.7748" lon="-0.43375">
        <ele>2033.3256835938</ele>
        <time>2015-08-11T09:29:32Z</time>
      </trkpt>
      <trkpt lat="42.77479" lon="-0.43382">
        <ele>2034.7678222656</ele>
        <time>2015-08-11T09:29:45Z</time>
      </trkpt>
      <trkpt lat="42.77478" lon="-0.43393">
        <ele>2035.7290039062</ele>
        <time>2015-08-11T09:30:00Z</time>
      </trkpt>
      <trkpt lat="42.77483" lon="-0.43398">
        <ele>2038.1323242188</ele>
        <time>2015-08-11T09:30:12Z</time>
      </trkpt>
      <trkpt lat="42.77476" lon="-0.4341">
        <ele>2038.6130371094</ele>
        <time>2015-08-11T09:30:27Z</time>
      </trkpt>
      <trkpt lat="42.77472" lon="-0.43423">
        <ele>2039.57421875</ele>
        <time>2015-08-11T09:30:43Z</time>
      </trkpt>
      <trkpt lat="42.77473" lon="-0.43444">
        <ele>2041.4968261719</ele>
        <time>2015-08-11T09:31:03Z</time>
      </trkpt>
      <trkpt lat="42.77469" lon="-0.43455">
        <ele>2042.9387207031</ele>
        <time>2015-08-11T09:31:19Z</time>
      </trkpt>
      <trkpt lat="42.77468" lon="-0.43465">
        <ele>2043.9001464844</ele>
        <time>2015-08-11T09:31:32Z</time>
      </trkpt>
      <trkpt lat="42.77467" lon="-0.43479">
        <ele>2045.8229980469</ele>
        <time>2015-08-11T09:31:49Z</time>
      </trkpt>
      <trkpt lat="42.77474" lon="-0.43492">
        <ele>2048.2260742188</ele>
        <time>2015-08-11T09:32:08Z</time>
      </trkpt>
      <trkpt lat="42.77478" lon="-0.43495">
        <ele>2049.6682128906</ele>
        <time>2015-08-11T09:32:15Z</time>
      </trkpt>
      <trkpt lat="42.77482" lon="-0.43503">
        <ele>2050.6293945312</ele>
        <time>2015-08-11T09:32:29Z</time>
      </trkpt>
      <trkpt lat="42.77477" lon="-0.4352">
        <ele>2051.5908203125</ele>
        <time>2015-08-11T09:32:46Z</time>
      </trkpt>
      <trkpt lat="42.7748" lon="-0.43531">
        <ele>2052.0712890625</ele>
        <time>2015-08-11T09:33:01Z</time>
      </trkpt>
      <trkpt lat="42.7748" lon="-0.43539">
        <ele>2053.5134277344</ele>
        <time>2015-08-11T09:33:20Z</time>
      </trkpt>
      <trkpt lat="42.7748" lon="-0.4355">
        <ele>2056.8779296875</ele>
        <time>2015-08-11T09:33:35Z</time>
      </trkpt>
      <trkpt lat="42.7748" lon="-0.43557">
        <ele>2059.76171875</ele>
        <time>2015-08-11T09:33:48Z</time>
      </trkpt>
      <trkpt lat="42.7748" lon="-0.43558">
        <ele>2060.2426757812</ele>
        <time>2015-08-11T09:33:49Z</time>
      </trkpt>
      <trkpt lat="42.77478" lon="-0.43562">
        <ele>2063.1267089844</ele>
        <time>2015-08-11T09:33:56Z</time>
      </trkpt>
      <trkpt lat="42.7748" lon="-0.43571">
        <ele>2065.0493164062</ele>
        <time>2015-08-11T09:34:11Z</time>
      </trkpt>
      <trkpt lat="42.77479" lon="-0.43582">
        <ele>2067.4523925781</ele>
        <time>2015-08-11T09:34:22Z</time>
      </trkpt>
      <trkpt lat="42.77474" lon="-0.4359">
        <ele>2069.3752441406</ele>
        <time>2015-08-11T09:34:35Z</time>
      </trkpt>
      <trkpt lat="42.77472" lon="-0.43594">
        <ele>2069.3752441406</ele>
        <time>2015-08-11T09:34:41Z</time>
      </trkpt>
      <trkpt lat="42.77468" lon="-0.43605">
        <ele>2072.7397460938</ele>
        <time>2015-08-11T09:34:55Z</time>
      </trkpt>
      <trkpt lat="42.77466" lon="-0.43614">
        <ele>2075.6235351562</ele>
        <time>2015-08-11T09:35:06Z</time>
      </trkpt>
      <trkpt lat="42.77467" lon="-0.43628">
        <ele>2078.98828125</ele>
        <time>2015-08-11T09:35:22Z</time>
      </trkpt>
      <trkpt lat="42.77464" lon="-0.43634">
        <ele>2082.3530273438</ele>
        <time>2015-08-11T09:35:36Z</time>
      </trkpt>
      <trkpt lat="42.77463" lon="-0.43643">
        <ele>2085.2368164062</ele>
        <time>2015-08-11T09:35:47Z</time>
      </trkpt>
      <trkpt lat="42.77466" lon="-0.43652">
        <ele>2087.6401367188</ele>
        <time>2015-08-11T09:36:00Z</time>
      </trkpt>
      <trkpt lat="42.77466" lon="-0.43664">
        <ele>2090.0434570312</ele>
        <time>2015-08-11T09:36:15Z</time>
      </trkpt>
      <trkpt lat="42.77467" lon="-0.43665">
        <ele>2091.0046386719</ele>
        <time>2015-08-11T09:36:18Z</time>
      </trkpt>
      <trkpt lat="42.77467" lon="-0.43672">
        <ele>2093.408203125</ele>
        <time>2015-08-11T09:36:34Z</time>
      </trkpt>
      <trkpt lat="42.7747" lon="-0.43676">
        <ele>2094.8500976562</ele>
        <time>2015-08-11T09:36:50Z</time>
      </trkpt>
      <trkpt lat="42.77472" lon="-0.43675">
        <ele>2095.8115234375</ele>
        <time>2015-08-11T09:37:04Z</time>
      </trkpt>
      <trkpt lat="42.77473" lon="-0.43685">
        <ele>2095.8115234375</ele>
        <time>2015-08-11T09:37:32Z</time>
      </trkpt>
      <trkpt lat="42.77473" lon="-0.43687">
        <ele>2096.2922363281</ele>
        <time>2015-08-11T09:37:33Z</time>
      </trkpt>
      <trkpt lat="42.77475" lon="-0.43714">
        <ele>2098.6953125</ele>
        <time>2015-08-11T09:37:52Z</time>
      </trkpt>
      <trkpt lat="42.77476" lon="-0.43724">
        <ele>2100.1374511719</ele>
        <time>2015-08-11T09:37:59Z</time>
      </trkpt>
      <trkpt lat="42.77477" lon="-0.4373">
        <ele>2101.0986328125</ele>
        <time>2015-08-11T09:38:04Z</time>
      </trkpt>
      <trkpt lat="42.77477" lon="-0.4374">
        <ele>2103.9826660156</ele>
        <time>2015-08-11T09:38:18Z</time>
      </trkpt>
      <trkpt lat="42.77475" lon="-0.43747">
        <ele>2107.8278808594</ele>
        <time>2015-08-11T09:38:30Z</time>
      </trkpt>
      <trkpt lat="42.77475" lon="-0.43748">
        <ele>2107.3471679688</ele>
        <time>2015-08-11T09:38:31Z</time>
      </trkpt>
      <trkpt lat="42.77479" lon="-0.43756">
        <ele>2110.7119140625</ele>
        <time>2015-08-11T09:38:46Z</time>
      </trkpt>
      <trkpt lat="42.77485" lon="-0.43749">
        <ele>2112.1538085938</ele>
        <time>2015-08-11T09:39:01Z</time>
      </trkpt>
      <trkpt lat="42.77487" lon="-0.43753">
        <ele>2113.115234375</ele>
        <time>2015-08-11T09:39:16Z</time>
      </trkpt>
      <trkpt lat="42.77489" lon="-0.43761">
        <ele>2114.5571289062</ele>
        <time>2015-08-11T09:39:33Z</time>
      </trkpt>
      <trkpt lat="42.77489" lon="-0.43765">
        <ele>2114.5571289062</ele>
        <time>2015-08-11T09:42:12Z</time>
      </trkpt>
      <trkpt lat="42.7749" lon="-0.4377">
        <ele>2116.4797363281</ele>
        <time>2015-08-11T09:42:26Z</time>
      </trkpt>
      <trkpt lat="42.77492" lon="-0.43783">
        <ele>2117.9216308594</ele>
        <time>2015-08-11T09:42:44Z</time>
      </trkpt>
      <trkpt lat="42.77496" lon="-0.43789">
        <ele>2118.8830566406</ele>
        <time>2015-08-11T09:43:03Z</time>
      </trkpt>
      <trkpt lat="42.77497" lon="-0.4379">
        <ele>2119.8442382812</ele>
        <time>2015-08-11T09:43:05Z</time>
      </trkpt>
      <trkpt lat="42.77501" lon="-0.43793">
        <ele>2123.208984375</ele>
        <time>2015-08-11T09:43:17Z</time>
      </trkpt>
      <trkpt lat="42.77503" lon="-0.43793">
        <ele>2124.1704101562</ele>
        <time>2015-08-11T09:43:21Z</time>
      </trkpt>
      <trkpt lat="42.77509" lon="-0.43796">
        <ele>2125.6123046875</ele>
        <time>2015-08-11T09:43:35Z</time>
      </trkpt>
      <trkpt lat="42.77516" lon="-0.43802">
        <ele>2127.0544433594</ele>
        <time>2015-08-11T09:43:55Z</time>
      </trkpt>
      <trkpt lat="42.77523" lon="-0.438">
        <ele>2129.4575195312</ele>
        <time>2015-08-11T09:44:10Z</time>
      </trkpt>
      <trkpt lat="42.77528" lon="-0.43801">
        <ele>2131.8608398438</ele>
        <time>2015-08-11T09:44:25Z</time>
      </trkpt>
      <trkpt lat="42.77532" lon="-0.43804">
        <ele>2133.302734375</ele>
        <time>2015-08-11T09:44:38Z</time>
      </trkpt>
      <trkpt lat="42.77535" lon="-0.43808">
        <ele>2135.7060546875</ele>
        <time>2015-08-11T09:44:53Z</time>
      </trkpt>
      <trkpt lat="42.77541" lon="-0.4381">
        <ele>2138.109375</ele>
        <time>2015-08-11T09:45:08Z</time>
      </trkpt>
      <trkpt lat="42.77541" lon="-0.43822">
        <ele>2140.5126953125</ele>
        <time>2015-08-11T09:45:27Z</time>
      </trkpt>
      <trkpt lat="42.77543" lon="-0.43832">
        <ele>2142.916015625</ele>
        <time>2015-08-11T09:45:43Z</time>
      </trkpt>
      <trkpt lat="42.77546" lon="-0.43841">
        <ele>2145.8000488281</ele>
        <time>2015-08-11T09:45:58Z</time>
      </trkpt>
      <trkpt lat="42.77549" lon="-0.43849">
        <ele>2147.2419433594</ele>
        <time>2015-08-11T09:46:12Z</time>
      </trkpt>
      <trkpt lat="42.77554" lon="-0.43854">
        <ele>2147.72265625</ele>
        <time>2015-08-11T09:46:21Z</time>
      </trkpt>
      <trkpt lat="42.77555" lon="-0.43865">
        <ele>2148.203125</ele>
        <time>2015-08-11T09:46:35Z</time>
      </trkpt>
      <trkpt lat="42.77556" lon="-0.43877">
        <ele>2150.6064453125</ele>
        <time>2015-08-11T09:46:51Z</time>
      </trkpt>
      <trkpt lat="42.7756" lon="-0.43882">
        <ele>2153.9711914062</ele>
        <time>2015-08-11T09:47:04Z</time>
      </trkpt>
      <trkpt lat="42.77564" lon="-0.43892">
        <ele>2155.4130859375</ele>
        <time>2015-08-11T09:47:22Z</time>
      </trkpt>
      <trkpt lat="42.77565" lon="-0.43899">
        <ele>2158.2971191406</ele>
        <time>2015-08-11T09:47:37Z</time>
      </trkpt>
      <trkpt lat="42.77568" lon="-0.43908">
        <ele>2161.1811523438</ele>
        <time>2015-08-11T09:47:53Z</time>
      </trkpt>
      <trkpt lat="42.77569" lon="-0.43918">
        <ele>2164.0649414062</ele>
        <time>2015-08-11T09:48:08Z</time>
      </trkpt>
      <trkpt lat="42.77571" lon="-0.43925">
        <ele>2165.0263671875</ele>
        <time>2015-08-11T09:48:35Z</time>
      </trkpt>
      <trkpt lat="42.77575" lon="-0.43931">
        <ele>2166.9489746094</ele>
        <time>2015-08-11T09:48:51Z</time>
      </trkpt>
      <trkpt lat="42.77577" lon="-0.4394">
        <ele>2169.8327636719</ele>
        <time>2015-08-11T09:49:11Z</time>
      </trkpt>
      <trkpt lat="42.77576" lon="-0.43948">
        <ele>2172.7170410156</ele>
        <time>2015-08-11T09:49:24Z</time>
      </trkpt>
      <trkpt lat="42.77575" lon="-0.43953">
        <ele>2175.1201171875</ele>
        <time>2015-08-11T09:49:32Z</time>
      </trkpt>
      <trkpt lat="42.7758" lon="-0.4395">
        <ele>2176.5622558594</ele>
        <time>2015-08-11T09:49:45Z</time>
      </trkpt>
      <trkpt lat="42.77582" lon="-0.43956">
        <ele>2177.5234375</ele>
        <time>2015-08-11T09:49:57Z</time>
      </trkpt>
      <trkpt lat="42.77582" lon="-0.43962">
        <ele>2179.4460449219</ele>
        <time>2015-08-11T09:50:11Z</time>
      </trkpt>
      <trkpt lat="42.7759" lon="-0.43961">
        <ele>2183.2912597656</ele>
        <time>2015-08-11T09:50:28Z</time>
      </trkpt>
      <trkpt lat="42.77591" lon="-0.43965">
        <ele>2185.6945800781</ele>
        <time>2015-08-11T09:50:43Z</time>
      </trkpt>
      <trkpt lat="42.77588" lon="-0.43975">
        <ele>2187.6171875</ele>
        <time>2015-08-11T09:50:59Z</time>
      </trkpt>
      <trkpt lat="42.77593" lon="-0.43975">
        <ele>2190.5012207031</ele>
        <time>2015-08-11T09:51:13Z</time>
      </trkpt>
      <trkpt lat="42.77594" lon="-0.43973">
        <ele>2191.4626464844</ele>
        <time>2015-08-11T09:51:27Z</time>
      </trkpt>
      <trkpt lat="42.77593" lon="-0.43972">
        <ele>2190.5012207031</ele>
        <time>2015-08-11T09:52:13Z</time>
      </trkpt>
      <trkpt lat="42.77594" lon="-0.43972">
        <ele>2191.4626464844</ele>
        <time>2015-08-11T09:52:44Z</time>
      </trkpt>
      <trkpt lat="42.77596" lon="-0.43981">
        <ele>2192.9045410156</ele>
        <time>2015-08-11T09:52:56Z</time>
      </trkpt>
      <trkpt lat="42.77595" lon="-0.43992">
        <ele>2195.7885742188</ele>
        <time>2015-08-11T09:53:11Z</time>
      </trkpt>
      <trkpt lat="42.77587" lon="-0.44002">
        <ele>2197.7111816406</ele>
        <time>2015-08-11T09:53:28Z</time>
      </trkpt>
      <trkpt lat="42.77585" lon="-0.44007">
        <ele>2200.1145019531</ele>
        <time>2015-08-11T09:53:38Z</time>
      </trkpt>
      <trkpt lat="42.77582" lon="-0.44017">
        <ele>2203.4790039062</ele>
        <time>2015-08-11T09:53:51Z</time>
      </trkpt>
      <trkpt lat="42.77576" lon="-0.44027">
        <ele>2203.4790039062</ele>
        <time>2015-08-11T09:54:06Z</time>
      </trkpt>
      <trkpt lat="42.77569" lon="-0.44046">
        <ele>2205.8823242188</ele>
        <time>2015-08-11T09:54:27Z</time>
      </trkpt>
      <trkpt lat="42.77567" lon="-0.44063">
        <ele>2207.8051757812</ele>
        <time>2015-08-11T09:54:41Z</time>
      </trkpt>
      <trkpt lat="42.77565" lon="-0.4409">
        <ele>2211.650390625</ele>
        <time>2015-08-11T09:55:01Z</time>
      </trkpt>
      <trkpt lat="42.77568" lon="-0.44111">
        <ele>2214.5341796875</ele>
        <time>2015-08-11T09:55:20Z</time>
      </trkpt>
      <trkpt lat="42.77571" lon="-0.44121">
        <ele>2217.41796875</ele>
        <time>2015-08-11T09:55:32Z</time>
      </trkpt>
      <trkpt lat="42.77571" lon="-0.44121">
        <ele>2217.8986816406</ele>
        <time>2015-08-11T09:55:33Z</time>
      </trkpt>
      <trkpt lat="42.77575" lon="-0.44127">
        <ele>2219.3408203125</ele>
        <time>2015-08-11T09:55:49Z</time>
      </trkpt>
      <trkpt lat="42.77587" lon="-0.44134">
        <ele>2220.7829589844</ele>
        <time>2015-08-11T09:56:08Z</time>
      </trkpt>
      <trkpt lat="42.77591" lon="-0.44144">
        <ele>2220.7829589844</ele>
        <time>2015-08-11T09:56:30Z</time>
      </trkpt>
      <trkpt lat="42.77599" lon="-0.44154">
        <ele>2221.2634277344</ele>
        <time>2015-08-11T09:56:42Z</time>
      </trkpt>
      <trkpt lat="42.77612" lon="-0.44172">
        <ele>2222.2248535156</ele>
        <time>2015-08-11T09:57:02Z</time>
      </trkpt>
      <trkpt lat="42.77623" lon="-0.44188">
        <ele>2223.6667480469</ele>
        <time>2015-08-11T09:57:19Z</time>
      </trkpt>
      <trkpt lat="42.77624" lon="-0.44191">
        <ele>2223.6667480469</ele>
        <time>2015-08-11T09:57:35Z</time>
      </trkpt>
      <trkpt lat="42.77633" lon="-0.4422">
        <ele>2224.1474609375</ele>
        <time>2015-08-11T09:57:57Z</time>
      </trkpt>
      <trkpt lat="42.77636" lon="-0.44238">
        <ele>2224.1474609375</ele>
        <time>2015-08-11T09:58:09Z</time>
      </trkpt>
      <trkpt lat="42.77648" lon="-0.44268">
        <ele>2224.6281738281</ele>
        <time>2015-08-11T09:58:33Z</time>
      </trkpt>
      <trkpt lat="42.7766" lon="-0.44277">
        <ele>2224.6281738281</ele>
        <time>2015-08-11T09:58:51Z</time>
      </trkpt>
      <trkpt lat="42.77662" lon="-0.44281">
        <ele>2225.5893554688</ele>
        <time>2015-08-11T09:59:16Z</time>
      </trkpt>
      <trkpt lat="42.77663" lon="-0.44282">
        <ele>2226.0700683594</ele>
        <time>2015-08-11T09:59:44Z</time>
      </trkpt>
      <trkpt lat="42.77663" lon="-0.44289">
        <ele>2226.0700683594</ele>
        <time>2015-08-11T10:00:01Z</time>
      </trkpt>
      <trkpt lat="42.77657" lon="-0.44307">
        <ele>2224.6281738281</ele>
        <time>2015-08-11T10:00:18Z</time>
      </trkpt>
      <trkpt lat="42.7765" lon="-0.44325">
        <ele>2223.1862792969</ele>
        <time>2015-08-11T10:00:37Z</time>
      </trkpt>
      <trkpt lat="42.77657" lon="-0.44343">
        <ele>2220.7829589844</ele>
        <time>2015-08-11T10:00:54Z</time>
      </trkpt>
      <trkpt lat="42.77661" lon="-0.44364">
        <ele>2220.3022460938</ele>
        <time>2015-08-11T10:01:13Z</time>
      </trkpt>
      <trkpt lat="42.77661" lon="-0.44367">
        <ele>2219.8212890625</ele>
        <time>2015-08-11T10:01:15Z</time>
      </trkpt>
      <trkpt lat="42.77661" lon="-0.44371">
        <ele>2220.3022460938</ele>
        <time>2015-08-11T10:01:18Z</time>
      </trkpt>
      <trkpt lat="42.77665" lon="-0.44383">
        <ele>2220.7829589844</ele>
        <time>2015-08-11T10:01:28Z</time>
      </trkpt>
      <trkpt lat="42.77672" lon="-0.44404">
        <ele>2221.744140625</ele>
        <time>2015-08-11T10:01:47Z</time>
      </trkpt>
      <trkpt lat="42.77673" lon="-0.44409">
        <ele>2221.2634277344</ele>
        <time>2015-08-11T10:01:51Z</time>
      </trkpt>
      <trkpt lat="42.7767" lon="-0.44418">
        <ele>2221.744140625</ele>
        <time>2015-08-11T10:02:06Z</time>
      </trkpt>
      <trkpt lat="42.77669" lon="-0.44434">
        <ele>2222.7055664062</ele>
        <time>2015-08-11T10:02:26Z</time>
      </trkpt>
      <trkpt lat="42.77665" lon="-0.44465">
        <ele>2223.6667480469</ele>
        <time>2015-08-11T10:02:47Z</time>
      </trkpt>
      <trkpt lat="42.77663" lon="-0.44484">
        <ele>2225.1086425781</ele>
        <time>2015-08-11T10:03:05Z</time>
      </trkpt>
      <trkpt lat="42.77662" lon="-0.44498">
        <ele>2225.1086425781</ele>
        <time>2015-08-11T10:03:20Z</time>
      </trkpt>
      <trkpt lat="42.77663" lon="-0.44502">
        <ele>2225.5893554688</ele>
        <time>2015-08-11T10:03:36Z</time>
      </trkpt>
      <trkpt lat="42.77663" lon="-0.44505">
        <ele>2226.0700683594</ele>
        <time>2015-08-11T10:03:51Z</time>
      </trkpt>
      <trkpt lat="42.77659" lon="-0.44517">
        <ele>2227.5119628906</ele>
        <time>2015-08-11T10:04:05Z</time>
      </trkpt>
      <trkpt lat="42.77656" lon="-0.44533">
        <ele>2228.4733886719</ele>
        <time>2015-08-11T10:04:20Z</time>
      </trkpt>
      <trkpt lat="42.77666" lon="-0.44546">
        <ele>2229.4345703125</ele>
        <time>2015-08-11T10:04:35Z</time>
      </trkpt>
      <trkpt lat="42.77667" lon="-0.44556">
        <ele>2229.4345703125</ele>
        <time>2015-08-11T10:04:43Z</time>
      </trkpt>
      <trkpt lat="42.77668" lon="-0.44571">
        <ele>2229.4345703125</ele>
        <time>2015-08-11T10:04:54Z</time>
      </trkpt>
      <trkpt lat="42.77668" lon="-0.44597">
        <ele>2230.8767089844</ele>
        <time>2015-08-11T10:05:14Z</time>
      </trkpt>
      <trkpt lat="42.77666" lon="-0.44613">
        <ele>2229.9152832031</ele>
        <time>2015-08-11T10:05:28Z</time>
      </trkpt>
      <trkpt lat="42.77665" lon="-0.44628">
        <ele>2229.9152832031</ele>
        <time>2015-08-11T10:05:42Z</time>
      </trkpt>
      <trkpt lat="42.77664" lon="-0.44631">
        <ele>2230.3959960938</ele>
        <time>2015-08-11T10:05:45Z</time>
      </trkpt>
      <trkpt lat="42.77661" lon="-0.44661">
        <ele>2231.3571777344</ele>
        <time>2015-08-11T10:06:07Z</time>
      </trkpt>
      <trkpt lat="42.77666" lon="-0.44683">
        <ele>2230.8767089844</ele>
        <time>2015-08-11T10:06:26Z</time>
      </trkpt>
      <trkpt lat="42.77667" lon="-0.447">
        <ele>2231.837890625</ele>
        <time>2015-08-11T10:06:42Z</time>
      </trkpt>
      <trkpt lat="42.7767" lon="-0.44713">
        <ele>2230.8767089844</ele>
        <time>2015-08-11T10:06:56Z</time>
      </trkpt>
      <trkpt lat="42.77678" lon="-0.44738">
        <ele>2231.3571777344</ele>
        <time>2015-08-11T10:07:15Z</time>
      </trkpt>
      <trkpt lat="42.77683" lon="-0.44752">
        <ele>2233.2797851562</ele>
        <time>2015-08-11T10:07:26Z</time>
      </trkpt>
      <trkpt lat="42.77679" lon="-0.44777">
        <ele>2235.2023925781</ele>
        <time>2015-08-11T10:07:44Z</time>
      </trkpt>
      <trkpt lat="42.77686" lon="-0.44783">
        <ele>2235.2023925781</ele>
        <time>2015-08-11T10:07:50Z</time>
      </trkpt>
      <trkpt lat="42.77688" lon="-0.44793">
        <ele>2236.1640625</ele>
        <time>2015-08-11T10:08:04Z</time>
      </trkpt>
      <trkpt lat="42.77689" lon="-0.4481">
        <ele>2239.0478515625</ele>
        <time>2015-08-11T10:08:24Z</time>
      </trkpt>
      <trkpt lat="42.77688" lon="-0.44829">
        <ele>2240.0092773438</ele>
        <time>2015-08-11T10:08:43Z</time>
      </trkpt>
      <trkpt lat="42.77688" lon="-0.44841">
        <ele>2241.9318847656</ele>
        <time>2015-08-11T10:08:54Z</time>
      </trkpt>
      <trkpt lat="42.77686" lon="-0.44856">
        <ele>2244.3349609375</ele>
        <time>2015-08-11T10:09:09Z</time>
      </trkpt>
      <trkpt lat="42.7768" lon="-0.44873">
        <ele>2244.8156738281</ele>
        <time>2015-08-11T10:09:26Z</time>
      </trkpt>
      <trkpt lat="42.77678" lon="-0.44875">
        <ele>2245.2963867188</ele>
        <time>2015-08-11T10:09:28Z</time>
      </trkpt>
      <trkpt lat="42.77672" lon="-0.4489">
        <ele>2245.2963867188</ele>
        <time>2015-08-11T10:09:45Z</time>
      </trkpt>
      <trkpt lat="42.77675" lon="-0.44898">
        <ele>2245.7770996094</ele>
        <time>2015-08-11T10:10:00Z</time>
      </trkpt>
      <trkpt lat="42.77679" lon="-0.44919">
        <ele>2246.73828125</ele>
        <time>2015-08-11T10:10:19Z</time>
      </trkpt>
      <trkpt lat="42.77685" lon="-0.44929">
        <ele>2247.6997070312</ele>
        <time>2015-08-11T10:10:29Z</time>
      </trkpt>
      <trkpt lat="42.77686" lon="-0.44934">
        <ele>2247.6997070312</ele>
        <time>2015-08-11T10:10:33Z</time>
      </trkpt>
      <trkpt lat="42.77691" lon="-0.44942">
        <ele>2248.6608886719</ele>
        <time>2015-08-11T10:10:44Z</time>
      </trkpt>
      <trkpt lat="42.77698" lon="-0.44962">
        <ele>2251.0642089844</ele>
        <time>2015-08-11T10:11:01Z</time>
      </trkpt>
      <trkpt lat="42.77703" lon="-0.4498">
        <ele>2252.9870605469</ele>
        <time>2015-08-11T10:11:17Z</time>
      </trkpt>
      <trkpt lat="42.77709" lon="-0.44991">
        <ele>2254.9096679688</ele>
        <time>2015-08-11T10:11:28Z</time>
      </trkpt>
      <trkpt lat="42.7772" lon="-0.44997">
        <ele>2258.2741699219</ele>
        <time>2015-08-11T10:11:43Z</time>
      </trkpt>
      <trkpt lat="42.77734" lon="-0.45001">
        <ele>2260.1967773438</ele>
        <time>2015-08-11T10:12:00Z</time>
      </trkpt>
      <trkpt lat="42.77735" lon="-0.45001">
        <ele>2259.7160644531</ele>
        <time>2015-08-11T10:12:01Z</time>
      </trkpt>
      <trkpt lat="42.77749" lon="-0.45007">
        <ele>2262.6000976562</ele>
        <time>2015-08-11T10:12:19Z</time>
      </trkpt>
      <trkpt lat="42.77751" lon="-0.45005">
        <ele>2264.5227050781</ele>
        <time>2015-08-11T10:12:22Z</time>
      </trkpt>
      <trkpt lat="42.77759" lon="-0.44995">
        <ele>2265.4841308594</ele>
        <time>2015-08-11T10:12:38Z</time>
      </trkpt>
      <trkpt lat="42.77761" lon="-0.44985">
        <ele>2265.4841308594</ele>
        <time>2015-08-11T10:12:52Z</time>
      </trkpt>
      <trkpt lat="42.77765" lon="-0.44969">
        <ele>2266.4453125</ele>
        <time>2015-08-11T10:13:09Z</time>
      </trkpt>
      <trkpt lat="42.77768" lon="-0.44965">
        <ele>2265.0034179688</ele>
        <time>2015-08-11T10:13:27Z</time>
      </trkpt>
      <trkpt lat="42.77772" lon="-0.44963">
        <ele>2264.0419921875</ele>
        <time>2015-08-11T10:13:33Z</time>
      </trkpt>
      <trkpt lat="42.77782" lon="-0.44959">
        <ele>2263.5612792969</ele>
        <time>2015-08-11T10:13:45Z</time>
      </trkpt>
      <trkpt lat="42.77793" lon="-0.44953">
        <ele>2267.4064941406</ele>
        <time>2015-08-11T10:14:01Z</time>
      </trkpt>
      <trkpt lat="42.77801" lon="-0.44953">
        <ele>2269.8100585938</ele>
        <time>2015-08-11T10:14:16Z</time>
      </trkpt>
      <trkpt lat="42.77808" lon="-0.44951">
        <ele>2271.251953125</ele>
        <time>2015-08-11T10:14:31Z</time>
      </trkpt>
      <trkpt lat="42.77812" lon="-0.44948">
        <ele>2271.251953125</ele>
        <time>2015-08-11T10:14:46Z</time>
      </trkpt>
      <trkpt lat="42.77813" lon="-0.44946">
        <ele>2270.771484375</ele>
        <time>2015-08-11T10:14:55Z</time>
      </trkpt>
      <trkpt lat="42.77813" lon="-0.44946">
        <ele>2270.771484375</ele>
        <time>2015-08-11T10:15:35Z</time>
      </trkpt>
      <trkpt lat="42.77814" lon="-0.44944">
        <ele>2269.8100585938</ele>
        <time>2015-08-11T10:16:34Z</time>
      </trkpt>
      <trkpt lat="42.77814" lon="-0.44946">
        <ele>2270.2907714844</ele>
        <time>2015-08-11T10:17:07Z</time>
      </trkpt>
      <trkpt lat="42.77813" lon="-0.44945">
        <ele>2270.771484375</ele>
        <time>2015-08-11T10:17:31Z</time>
      </trkpt>
      <trkpt lat="42.77814" lon="-0.44945">
        <ele>2270.2907714844</ele>
        <time>2015-08-11T10:17:40Z</time>
      </trkpt>
      <trkpt lat="42.77814" lon="-0.44945">
        <ele>2272.2133789062</ele>
        <time>2015-08-11T10:17:42Z</time>
      </trkpt>
      <trkpt lat="42.77813" lon="-0.44945">
        <ele>2271.251953125</ele>
        <time>2015-08-11T10:18:03Z</time>
      </trkpt>
      <trkpt lat="42.77812" lon="-0.44944">
        <ele>2272.2133789062</ele>
        <time>2015-08-11T10:19:00Z</time>
      </trkpt>
      <trkpt lat="42.77814" lon="-0.44944">
        <ele>2273.1748046875</ele>
        <time>2015-08-11T10:22:05Z</time>
      </trkpt>
      <trkpt lat="42.77814" lon="-0.44945">
        <ele>2273.6552734375</ele>
        <time>2015-08-11T10:26:38Z</time>
      </trkpt>
      <trkpt lat="42.77814" lon="-0.44945">
        <ele>2275.0971679688</ele>
        <time>2015-08-11T10:32:06Z</time>
      </trkpt>
      <trkpt lat="42.77814" lon="-0.44945">
        <ele>2277.9812011719</ele>
        <time>2015-08-11T10:37:52Z</time>
      </trkpt>
      <trkpt lat="42.77814" lon="-0.44946">
        <ele>2276.5393066406</ele>
        <time>2015-08-11T10:41:14Z</time>
      </trkpt>
      <trkpt lat="42.77814" lon="-0.44944">
        <ele>2277.5004882812</ele>
        <time>2015-08-11T10:44:38Z</time>
      </trkpt>
      <trkpt lat="42.77813" lon="-0.44943">
        <ele>2277.9812011719</ele>
        <time>2015-08-11T10:45:23Z</time>
      </trkpt>
      <trkpt lat="42.77814" lon="-0.44944">
        <ele>2277.0200195312</ele>
        <time>2015-08-11T10:47:07Z</time>
      </trkpt>
      <trkpt lat="42.77813" lon="-0.44944">
        <ele>2279.4230957031</ele>
        <time>2015-08-11T10:47:24Z</time>
      </trkpt>
      <trkpt lat="42.77813" lon="-0.44945">
        <ele>2277.9812011719</ele>
        <time>2015-08-11T10:47:26Z</time>
      </trkpt>
      <trkpt lat="42.77815" lon="-0.44942">
        <ele>2277.9812011719</ele>
        <time>2015-08-11T10:47:55Z</time>
      </trkpt>
      <trkpt lat="42.77813" lon="-0.44944">
        <ele>2278.4619140625</ele>
        <time>2015-08-11T10:48:51Z</time>
      </trkpt>
      <trkpt lat="42.77814" lon="-0.44944">
        <ele>2278.4619140625</ele>
        <time>2015-08-11T10:50:55Z</time>
      </trkpt>
      <trkpt lat="42.77811" lon="-0.44945">
        <ele>2278.9423828125</ele>
        <time>2015-08-11T10:54:31Z</time>
      </trkpt>
      <trkpt lat="42.77814" lon="-0.44945">
        <ele>2277.9812011719</ele>
        <time>2015-08-11T10:55:12Z</time>
      </trkpt>
      <trkpt lat="42.77818" lon="-0.44943">
        <ele>2277.9812011719</ele>
        <time>2015-08-11T10:58:06Z</time>
      </trkpt>
      <trkpt lat="42.77808" lon="-0.44947">
        <ele>2277.9812011719</ele>
        <time>2015-08-11T10:58:26Z</time>
      </trkpt>
      <trkpt lat="42.77817" lon="-0.44946">
        <ele>2277.9812011719</ele>
        <time>2015-08-11T10:59:07Z</time>
      </trkpt>
      <trkpt lat="42.77816" lon="-0.44947">
        <ele>2276.5393066406</ele>
        <time>2015-08-11T10:59:24Z</time>
      </trkpt>
      <trkpt lat="42.77813" lon="-0.44948">
        <ele>2277.5004882812</ele>
        <time>2015-08-11T10:59:59Z</time>
      </trkpt>
      <trkpt lat="42.77813" lon="-0.44946">
        <ele>2277.0200195312</ele>
        <time>2015-08-11T11:00:44Z</time>
      </trkpt>
      <trkpt lat="42.77814" lon="-0.44944">
        <ele>2277.9812011719</ele>
        <time>2015-08-11T11:01:24Z</time>
      </trkpt>
      <trkpt lat="42.77813" lon="-0.44943">
        <ele>2279.9038085938</ele>
        <time>2015-08-11T11:01:45Z</time>
      </trkpt>
      <trkpt lat="42.77813" lon="-0.44943">
        <ele>2278.4619140625</ele>
        <time>2015-08-11T11:02:24Z</time>
      </trkpt>
      <trkpt lat="42.77814" lon="-0.44944">
        <ele>2278.9423828125</ele>
        <time>2015-08-11T11:02:52Z</time>
      </trkpt>
      <trkpt lat="42.77812" lon="-0.44952">
        <ele>2278.9423828125</ele>
        <time>2015-08-11T11:03:13Z</time>
      </trkpt>
      <trkpt lat="42.7781" lon="-0.44969">
        <ele>2281.345703125</ele>
        <time>2015-08-11T11:03:33Z</time>
      </trkpt>
      <trkpt lat="42.77808" lon="-0.4499">
        <ele>2283.2683105469</ele>
        <time>2015-08-11T11:03:56Z</time>
      </trkpt>
      <trkpt lat="42.77808" lon="-0.45011">
        <ele>2283.7490234375</ele>
        <time>2015-08-11T11:04:17Z</time>
      </trkpt>
      <trkpt lat="42.77806" lon="-0.4503">
        <ele>2285.1911621094</ele>
        <time>2015-08-11T11:04:36Z</time>
      </trkpt>
      <trkpt lat="42.77805" lon="-0.45038">
        <ele>2284.7106933594</ele>
        <time>2015-08-11T11:04:50Z</time>
      </trkpt>
      <trkpt lat="42.778" lon="-0.45053">
        <ele>2286.6330566406</ele>
        <time>2015-08-11T11:05:08Z</time>
      </trkpt>
      <trkpt lat="42.77802" lon="-0.45074">
        <ele>2286.6330566406</ele>
        <time>2015-08-11T11:05:28Z</time>
      </trkpt>
      <trkpt lat="42.77798" lon="-0.45097">
        <ele>2288.0751953125</ele>
        <time>2015-08-11T11:05:49Z</time>
      </trkpt>
      <trkpt lat="42.77789" lon="-0.45115">
        <ele>2288.5559082031</ele>
        <time>2015-08-11T11:06:09Z</time>
      </trkpt>
      <trkpt lat="42.7778" lon="-0.45143">
        <ele>2288.5559082031</ele>
        <time>2015-08-11T11:06:33Z</time>
      </trkpt>
      <trkpt lat="42.77782" lon="-0.45157">
        <ele>2291.9204101562</ele>
        <time>2015-08-11T11:06:48Z</time>
      </trkpt>
      <trkpt lat="42.77786" lon="-0.45168">
        <ele>2293.8430175781</ele>
        <time>2015-08-11T11:07:04Z</time>
      </trkpt>
      <trkpt lat="42.77791" lon="-0.45183">
        <ele>2295.765625</ele>
        <time>2015-08-11T11:07:21Z</time>
      </trkpt>
      <trkpt lat="42.77792" lon="-0.45204">
        <ele>2297.2075195312</ele>
        <time>2015-08-11T11:07:40Z</time>
      </trkpt>
      <trkpt lat="42.7779" lon="-0.45224">
        <ele>2298.1687011719</ele>
        <time>2015-08-11T11:07:58Z</time>
      </trkpt>
      <trkpt lat="42.77788" lon="-0.45244">
        <ele>2299.1301269531</ele>
        <time>2015-08-11T11:08:16Z</time>
      </trkpt>
      <trkpt lat="42.77787" lon="-0.45261">
        <ele>2298.6494140625</ele>
        <time>2015-08-11T11:08:34Z</time>
      </trkpt>
      <trkpt lat="42.77787" lon="-0.45274">
        <ele>2299.1301269531</ele>
        <time>2015-08-11T11:08:47Z</time>
      </trkpt>
      <trkpt lat="42.77781" lon="-0.45292">
        <ele>2299.6108398438</ele>
        <time>2015-08-11T11:09:05Z</time>
      </trkpt>
      <trkpt lat="42.77777" lon="-0.45308">
        <ele>2301.5336914062</ele>
        <time>2015-08-11T11:09:22Z</time>
      </trkpt>
      <trkpt lat="42.77776" lon="-0.45324">
        <ele>2303.4562988281</ele>
        <time>2015-08-11T11:09:38Z</time>
      </trkpt>
      <trkpt lat="42.77778" lon="-0.45346">
        <ele>2304.8981933594</ele>
        <time>2015-08-11T11:09:57Z</time>
      </trkpt>
      <trkpt lat="42.77785" lon="-0.4536">
        <ele>2307.3015136719</ele>
        <time>2015-08-11T11:10:14Z</time>
      </trkpt>
      <trkpt lat="42.77795" lon="-0.45372">
        <ele>2308.7434082031</ele>
        <time>2015-08-11T11:10:31Z</time>
      </trkpt>
      <trkpt lat="42.77803" lon="-0.45383">
        <ele>2309.7045898438</ele>
        <time>2015-08-11T11:10:48Z</time>
      </trkpt>
      <trkpt lat="42.77816" lon="-0.45391">
        <ele>2309.7045898438</ele>
        <time>2015-08-11T11:11:08Z</time>
      </trkpt>
      <trkpt lat="42.77824" lon="-0.45404">
        <ele>2313.0693359375</ele>
        <time>2015-08-11T11:11:26Z</time>
      </trkpt>
      <trkpt lat="42.77827" lon="-0.45407">
        <ele>2315.953125</ele>
        <time>2015-08-11T11:11:40Z</time>
      </trkpt>
      <trkpt lat="42.77833" lon="-0.45415">
        <ele>2317.3952636719</ele>
        <time>2015-08-11T11:11:56Z</time>
      </trkpt>
      <trkpt lat="42.77835" lon="-0.45425">
        <ele>2320.7600097656</ele>
        <time>2015-08-11T11:12:11Z</time>
      </trkpt>
      <trkpt lat="42.77839" lon="-0.4544">
        <ele>2321.7211914062</ele>
        <time>2015-08-11T11:12:31Z</time>
      </trkpt>
      <trkpt lat="42.77841" lon="-0.45451">
        <ele>2322.2019042969</ele>
        <time>2015-08-11T11:12:48Z</time>
      </trkpt>
      <trkpt lat="42.77846" lon="-0.45466">
        <ele>2323.6437988281</ele>
        <time>2015-08-11T11:13:08Z</time>
      </trkpt>
      <trkpt lat="42.77846" lon="-0.45488">
        <ele>2325.56640625</ele>
        <time>2015-08-11T11:13:29Z</time>
      </trkpt>
      <trkpt lat="42.77845" lon="-0.45506">
        <ele>2328.4504394531</ele>
        <time>2015-08-11T11:13:49Z</time>
      </trkpt>
      <trkpt lat="42.77845" lon="-0.45526">
        <ele>2329.8923339844</ele>
        <time>2015-08-11T11:14:09Z</time>
      </trkpt>
      <trkpt lat="42.77836" lon="-0.4554">
        <ele>2332.2958984375</ele>
        <time>2015-08-11T11:14:29Z</time>
      </trkpt>
      <trkpt lat="42.77838" lon="-0.4556">
        <ele>2333.2570800781</ele>
        <time>2015-08-11T11:14:49Z</time>
      </trkpt>
      <trkpt lat="42.77838" lon="-0.45576">
        <ele>2334.2185058594</ele>
        <time>2015-08-11T11:15:09Z</time>
      </trkpt>
      <trkpt lat="42.77838" lon="-0.45593">
        <ele>2336.1411132812</ele>
        <time>2015-08-11T11:15:26Z</time>
      </trkpt>
      <trkpt lat="42.77838" lon="-0.45595">
        <ele>2335.1796875</ele>
        <time>2015-08-11T11:15:28Z</time>
      </trkpt>
      <trkpt lat="42.77824" lon="-0.45611">
        <ele>2337.5830078125</ele>
        <time>2015-08-11T11:15:49Z</time>
      </trkpt>
      <trkpt lat="42.77822" lon="-0.45629">
        <ele>2339.5056152344</ele>
        <time>2015-08-11T11:16:08Z</time>
      </trkpt>
      <trkpt lat="42.77817" lon="-0.45642">
        <ele>2340.466796875</ele>
        <time>2015-08-11T11:16:21Z</time>
      </trkpt>
      <trkpt lat="42.7782" lon="-0.45667">
        <ele>2341.9089355469</ele>
        <time>2015-08-11T11:16:41Z</time>
      </trkpt>
      <trkpt lat="42.77828" lon="-0.45681">
        <ele>2343.8315429688</ele>
        <time>2015-08-11T11:16:57Z</time>
      </trkpt>
      <trkpt lat="42.77834" lon="-0.45689">
        <ele>2346.2348632812</ele>
        <time>2015-08-11T11:17:12Z</time>
      </trkpt>
      <trkpt lat="42.77843" lon="-0.45698">
        <ele>2347.1960449219</ele>
        <time>2015-08-11T11:17:29Z</time>
      </trkpt>
      <trkpt lat="42.77851" lon="-0.45703">
        <ele>2347.1960449219</ele>
        <time>2015-08-11T11:17:46Z</time>
      </trkpt>
      <trkpt lat="42.77856" lon="-0.45702">
        <ele>2350.0803222656</ele>
        <time>2015-08-11T11:17:58Z</time>
      </trkpt>
      <trkpt lat="42.77861" lon="-0.45708">
        <ele>2351.5222167969</ele>
        <time>2015-08-11T11:18:13Z</time>
      </trkpt>
      <trkpt lat="42.77865" lon="-0.45711">
        <ele>2354.4060058594</ele>
        <time>2015-08-11T11:18:23Z</time>
      </trkpt>
      <trkpt lat="42.77873" lon="-0.45712">
        <ele>2355.3674316406</ele>
        <time>2015-08-11T11:18:39Z</time>
      </trkpt>
      <trkpt lat="42.77875" lon="-0.45713">
        <ele>2356.3286132812</ele>
        <time>2015-08-11T11:18:55Z</time>
      </trkpt>
      <trkpt lat="42.7788" lon="-0.45715">
        <ele>2358.7319335938</ele>
        <time>2015-08-11T11:19:09Z</time>
      </trkpt>
      <trkpt lat="42.77881" lon="-0.45715">
        <ele>2358.7319335938</ele>
        <time>2015-08-11T11:19:10Z</time>
      </trkpt>
      <trkpt lat="42.77883" lon="-0.45713">
        <ele>2358.7319335938</ele>
        <time>2015-08-11T11:19:24Z</time>
      </trkpt>
      <trkpt lat="42.77888" lon="-0.45714">
        <ele>2360.6545410156</ele>
        <time>2015-08-11T11:19:41Z</time>
      </trkpt>
      <trkpt lat="42.7789" lon="-0.4572">
        <ele>2364.0192871094</ele>
        <time>2015-08-11T11:19:53Z</time>
      </trkpt>
      <trkpt lat="42.77897" lon="-0.45721">
        <ele>2365.9418945312</ele>
        <time>2015-08-11T11:20:08Z</time>
      </trkpt>
      <trkpt lat="42.77897" lon="-0.45727">
        <ele>2368.3452148438</ele>
        <time>2015-08-11T11:20:22Z</time>
      </trkpt>
      <trkpt lat="42.77904" lon="-0.45729">
        <ele>2369.787109375</ele>
        <time>2015-08-11T11:20:39Z</time>
      </trkpt>
      <trkpt lat="42.77909" lon="-0.45732">
        <ele>2371.7097167969</ele>
        <time>2015-08-11T11:20:53Z</time>
      </trkpt>
      <trkpt lat="42.77911" lon="-0.45735">
        <ele>2372.6711425781</ele>
        <time>2015-08-11T11:21:09Z</time>
      </trkpt>
      <trkpt lat="42.77909" lon="-0.45742">
        <ele>2376.0356445312</ele>
        <time>2015-08-11T11:21:26Z</time>
      </trkpt>
      <trkpt lat="42.77909" lon="-0.45742">
        <ele>2376.0356445312</ele>
        <time>2015-08-11T11:21:27Z</time>
      </trkpt>
      <trkpt lat="42.77908" lon="-0.45744">
        <ele>2377.4775390625</ele>
        <time>2015-08-11T11:21:32Z</time>
      </trkpt>
      <trkpt lat="42.77903" lon="-0.45748">
        <ele>2380.3618164062</ele>
        <time>2015-08-11T11:21:49Z</time>
      </trkpt>
      <trkpt lat="42.77903" lon="-0.45752">
        <ele>2381.3229980469</ele>
        <time>2015-08-11T11:22:03Z</time>
      </trkpt>
      <trkpt lat="42.77905" lon="-0.45755">
        <ele>2382.2844238281</ele>
        <time>2015-08-11T11:22:19Z</time>
      </trkpt>
      <trkpt lat="42.77903" lon="-0.45758">
        <ele>2383.7263183594</ele>
        <time>2015-08-11T11:22:35Z</time>
      </trkpt>
      <trkpt lat="42.77902" lon="-0.4576">
        <ele>2384.6877441406</ele>
        <time>2015-08-11T11:22:54Z</time>
      </trkpt>
      <trkpt lat="42.77899" lon="-0.45764">
        <ele>2387.0908203125</ele>
        <time>2015-08-11T11:23:09Z</time>
      </trkpt>
      <trkpt lat="42.77904" lon="-0.45766">
        <ele>2389.0134277344</ele>
        <time>2015-08-11T11:23:23Z</time>
      </trkpt>
      <trkpt lat="42.77908" lon="-0.45765">
        <ele>2389.9748535156</ele>
        <time>2015-08-11T11:23:38Z</time>
      </trkpt>
      <trkpt lat="42.77913" lon="-0.45764">
        <ele>2392.3781738281</ele>
        <time>2015-08-11T11:23:58Z</time>
      </trkpt>
      <trkpt lat="42.7791" lon="-0.45769">
        <ele>2392.3781738281</ele>
        <time>2015-08-11T11:24:16Z</time>
      </trkpt>
      <trkpt lat="42.77909" lon="-0.45771">
        <ele>2393.3393554688</ele>
        <time>2015-08-11T11:24:38Z</time>
      </trkpt>
      <trkpt lat="42.77909" lon="-0.45777">
        <ele>2394.78125</ele>
        <time>2015-08-11T11:24:59Z</time>
      </trkpt>
      <trkpt lat="42.77913" lon="-0.45777">
        <ele>2397.6655273438</ele>
        <time>2015-08-11T11:25:26Z</time>
      </trkpt>
      <trkpt lat="42.77915" lon="-0.45776">
        <ele>2399.5881347656</ele>
        <time>2015-08-11T11:25:42Z</time>
      </trkpt>
      <trkpt lat="42.77916" lon="-0.45779">
        <ele>2401.9912109375</ele>
        <time>2015-08-11T11:26:06Z</time>
      </trkpt>
      <trkpt lat="42.77915" lon="-0.45783">
        <ele>2402.9526367188</ele>
        <time>2015-08-11T11:26:40Z</time>
      </trkpt>
      <trkpt lat="42.77915" lon="-0.45787">
        <ele>2403.9140625</ele>
        <time>2015-08-11T11:26:58Z</time>
      </trkpt>
      <trkpt lat="42.77915" lon="-0.4579">
        <ele>2405.3559570312</ele>
        <time>2015-08-11T11:27:16Z</time>
      </trkpt>
      <trkpt lat="42.77921" lon="-0.45784">
        <ele>2408.7204589844</ele>
        <time>2015-08-11T11:27:31Z</time>
      </trkpt>
      <trkpt lat="42.77923" lon="-0.45786">
        <ele>2408.7204589844</ele>
        <time>2015-08-11T11:27:50Z</time>
      </trkpt>
      <trkpt lat="42.77924" lon="-0.4579">
        <ele>2410.6430664062</ele>
        <time>2015-08-11T11:28:03Z</time>
      </trkpt>
      <trkpt lat="42.77926" lon="-0.45793">
        <ele>2412.5659179688</ele>
        <time>2015-08-11T11:28:25Z</time>
      </trkpt>
      <trkpt lat="42.77923" lon="-0.45797">
        <ele>2413.0466308594</ele>
        <time>2015-08-11T11:28:50Z</time>
      </trkpt>
      <trkpt lat="42.77919" lon="-0.45802">
        <ele>2414.9692382812</ele>
        <time>2015-08-11T11:29:06Z</time>
      </trkpt>
      <trkpt lat="42.77914" lon="-0.45806">
        <ele>2417.8530273438</ele>
        <time>2015-08-11T11:29:28Z</time>
      </trkpt>
      <trkpt lat="42.77908" lon="-0.45816">
        <ele>2420.2563476562</ele>
        <time>2015-08-11T11:29:48Z</time>
      </trkpt>
      <trkpt lat="42.77903" lon="-0.4582">
        <ele>2422.6596679688</ele>
        <time>2015-08-11T11:30:02Z</time>
      </trkpt>
      <trkpt lat="42.77895" lon="-0.45817">
        <ele>2425.0627441406</ele>
        <time>2015-08-11T11:30:20Z</time>
      </trkpt>
      <trkpt lat="42.77895" lon="-0.45817">
        <ele>2425.0627441406</ele>
        <time>2015-08-11T11:30:38Z</time>
      </trkpt>
      <trkpt lat="42.77894" lon="-0.4582">
        <ele>2424.5822753906</ele>
        <time>2015-08-11T11:30:59Z</time>
      </trkpt>
      <trkpt lat="42.7789" lon="-0.45815">
        <ele>2424.5822753906</ele>
        <time>2015-08-11T11:31:15Z</time>
      </trkpt>
      <trkpt lat="42.7788" lon="-0.45814">
        <ele>2422.6596679688</ele>
        <time>2015-08-11T11:31:32Z</time>
      </trkpt>
      <trkpt lat="42.77872" lon="-0.45814">
        <ele>2422.1789550781</ele>
        <time>2015-08-11T11:31:53Z</time>
      </trkpt>
      <trkpt lat="42.77872" lon="-0.45812">
        <ele>2422.1789550781</ele>
        <time>2015-08-11T11:32:14Z</time>
      </trkpt>
      <trkpt lat="42.77862" lon="-0.45813">
        <ele>2423.1403808594</ele>
        <time>2015-08-11T11:32:58Z</time>
      </trkpt>
      <trkpt lat="42.77854" lon="-0.45814">
        <ele>2424.1015625</ele>
        <time>2015-08-11T11:33:11Z</time>
      </trkpt>
      <trkpt lat="42.7784" lon="-0.45816">
        <ele>2425.5434570312</ele>
        <time>2015-08-11T11:33:30Z</time>
      </trkpt>
      <trkpt lat="42.77834" lon="-0.45816">
        <ele>2426.9855957031</ele>
        <time>2015-08-11T11:33:54Z</time>
      </trkpt>
      <trkpt lat="42.77829" lon="-0.45816">
        <ele>2428.427734375</ele>
        <time>2015-08-11T11:34:12Z</time>
      </trkpt>
      <trkpt lat="42.7782" lon="-0.45817">
        <ele>2430.3503417969</ele>
        <time>2015-08-11T11:34:31Z</time>
      </trkpt>
      <trkpt lat="42.77811" lon="-0.45817">
        <ele>2431.7922363281</ele>
        <time>2015-08-11T11:34:47Z</time>
      </trkpt>
      <trkpt lat="42.77796" lon="-0.45822">
        <ele>2434.1955566406</ele>
        <time>2015-08-11T11:35:08Z</time>
      </trkpt>
      <trkpt lat="42.77779" lon="-0.45828">
        <ele>2435.6374511719</ele>
        <time>2015-08-11T11:35:31Z</time>
      </trkpt>
      <trkpt lat="42.77766" lon="-0.45839">
        <ele>2437.0793457031</ele>
        <time>2015-08-11T11:35:52Z</time>
      </trkpt>
      <trkpt lat="42.77762" lon="-0.45844">
        <ele>2438.521484375</ele>
        <time>2015-08-11T11:36:10Z</time>
      </trkpt>
      <trkpt lat="42.77752" lon="-0.45854">
        <ele>2439.4826660156</ele>
        <time>2015-08-11T11:36:27Z</time>
      </trkpt>
      <trkpt lat="42.77741" lon="-0.45865">
        <ele>2439.9633789062</ele>
        <time>2015-08-11T11:36:47Z</time>
      </trkpt>
      <trkpt lat="42.77739" lon="-0.45865">
        <ele>2439.9633789062</ele>
        <time>2015-08-11T11:37:11Z</time>
      </trkpt>
      <trkpt lat="42.77736" lon="-0.45867">
        <ele>2440.4438476562</ele>
        <time>2015-08-11T11:37:38Z</time>
      </trkpt>
      <trkpt lat="42.77733" lon="-0.45868">
        <ele>2441.8859863281</ele>
        <time>2015-08-11T11:38:07Z</time>
      </trkpt>
      <trkpt lat="42.77725" lon="-0.45874">
        <ele>2444.7700195312</ele>
        <time>2015-08-11T11:38:24Z</time>
      </trkpt>
      <trkpt lat="42.77719" lon="-0.45881">
        <ele>2448.1345214844</ele>
        <time>2015-08-11T11:38:41Z</time>
      </trkpt>
      <trkpt lat="42.77715" lon="-0.45887">
        <ele>2450.0573730469</ele>
        <time>2015-08-11T11:38:53Z</time>
      </trkpt>
      <trkpt lat="42.7771" lon="-0.45892">
        <ele>2451.9797363281</ele>
        <time>2015-08-11T11:39:09Z</time>
      </trkpt>
      <trkpt lat="42.7771" lon="-0.45893">
        <ele>2452.9411621094</ele>
        <time>2015-08-11T11:39:32Z</time>
      </trkpt>
      <trkpt lat="42.77706" lon="-0.45897">
        <ele>2455.3444824219</ele>
        <time>2015-08-11T11:39:49Z</time>
      </trkpt>
      <trkpt lat="42.77703" lon="-0.45897">
        <ele>2456.3056640625</ele>
        <time>2015-08-11T11:40:06Z</time>
      </trkpt>
      <trkpt lat="42.777" lon="-0.45889">
        <ele>2457.7478027344</ele>
        <time>2015-08-11T11:40:24Z</time>
      </trkpt>
      <trkpt lat="42.77697" lon="-0.45892">
        <ele>2460.6318359375</ele>
        <time>2015-08-11T11:40:39Z</time>
      </trkpt>
      <trkpt lat="42.77697" lon="-0.45892">
        <ele>2461.1125488281</ele>
        <time>2015-08-11T11:40:40Z</time>
      </trkpt>
      <trkpt lat="42.77691" lon="-0.45897">
        <ele>2463.9963378906</ele>
        <time>2015-08-11T11:40:55Z</time>
      </trkpt>
      <trkpt lat="42.77685" lon="-0.45902">
        <ele>2465.9189453125</ele>
        <time>2015-08-11T11:41:13Z</time>
      </trkpt>
      <trkpt lat="42.77678" lon="-0.45908">
        <ele>2467.8415527344</ele>
        <time>2015-08-11T11:41:32Z</time>
      </trkpt>
      <trkpt lat="42.77679" lon="-0.45907">
        <ele>2468.322265625</ele>
        <time>2015-08-11T11:41:47Z</time>
      </trkpt>
      <trkpt lat="42.77674" lon="-0.45916">
        <ele>2468.8029785156</ele>
        <time>2015-08-11T11:42:02Z</time>
      </trkpt>
      <trkpt lat="42.77671" lon="-0.45924">
        <ele>2469.2836914062</ele>
        <time>2015-08-11T11:42:23Z</time>
      </trkpt>
      <trkpt lat="42.77666" lon="-0.45927">
        <ele>2470.7255859375</ele>
        <time>2015-08-11T11:42:37Z</time>
      </trkpt>
      <trkpt lat="42.77667" lon="-0.45927">
        <ele>2470.7255859375</ele>
        <time>2015-08-11T11:42:54Z</time>
      </trkpt>
      <trkpt lat="42.77665" lon="-0.4593">
        <ele>2472.1674804688</ele>
        <time>2015-08-11T11:43:12Z</time>
      </trkpt>
      <trkpt lat="42.77664" lon="-0.45932">
        <ele>2473.12890625</ele>
        <time>2015-08-11T11:43:30Z</time>
      </trkpt>
      <trkpt lat="42.77661" lon="-0.45937">
        <ele>2473.609375</ele>
        <time>2015-08-11T11:43:46Z</time>
      </trkpt>
      <trkpt lat="42.77654" lon="-0.45946">
        <ele>2475.5319824219</ele>
        <time>2015-08-11T11:44:04Z</time>
      </trkpt>
      <trkpt lat="42.77651" lon="-0.45949">
        <ele>2476.0129394531</ele>
        <time>2015-08-11T11:44:19Z</time>
      </trkpt>
      <trkpt lat="42.77651" lon="-0.45949">
        <ele>2476.4936523438</ele>
        <time>2015-08-11T11:44:21Z</time>
      </trkpt>
      <trkpt lat="42.77647" lon="-0.45956">
        <ele>2476.4936523438</ele>
        <time>2015-08-11T11:44:48Z</time>
      </trkpt>
      <trkpt lat="42.77646" lon="-0.45955">
        <ele>2477.935546875</ele>
        <time>2015-08-11T11:45:03Z</time>
      </trkpt>
      <trkpt lat="42.77641" lon="-0.45962">
        <ele>2479.3774414062</ele>
        <time>2015-08-11T11:45:18Z</time>
      </trkpt>
      <trkpt lat="42.77635" lon="-0.45967">
        <ele>2481.3000488281</ele>
        <time>2015-08-11T11:45:34Z</time>
      </trkpt>
      <trkpt lat="42.77634" lon="-0.45964">
        <ele>2483.22265625</ele>
        <time>2015-08-11T11:45:50Z</time>
      </trkpt>
      <trkpt lat="42.77635" lon="-0.45957">
        <ele>2484.1840820312</ele>
        <time>2015-08-11T11:46:06Z</time>
      </trkpt>
      <trkpt lat="42.77631" lon="-0.45958">
        <ele>2485.6259765625</ele>
        <time>2015-08-11T11:46:33Z</time>
      </trkpt>
      <trkpt lat="42.77624" lon="-0.45962">
        <ele>2487.5485839844</ele>
        <time>2015-08-11T11:46:51Z</time>
      </trkpt>
      <trkpt lat="42.77622" lon="-0.45962">
        <ele>2489.9519042969</ele>
        <time>2015-08-11T11:47:09Z</time>
      </trkpt>
      <trkpt lat="42.77619" lon="-0.45964">
        <ele>2492.35546875</ele>
        <time>2015-08-11T11:47:23Z</time>
      </trkpt>
      <trkpt lat="42.77616" lon="-0.45967">
        <ele>2495.2392578125</ele>
        <time>2015-08-11T11:47:35Z</time>
      </trkpt>
      <trkpt lat="42.77616" lon="-0.45967">
        <ele>2494.2778320312</ele>
        <time>2015-08-11T11:48:02Z</time>
      </trkpt>
      <trkpt lat="42.77614" lon="-0.45971">
        <ele>2494.2778320312</ele>
        <time>2015-08-11T11:48:16Z</time>
      </trkpt>
      <trkpt lat="42.77614" lon="-0.4597">
        <ele>2492.35546875</ele>
        <time>2015-08-11T11:48:26Z</time>
      </trkpt>
      <trkpt lat="42.77614" lon="-0.4597">
        <ele>2494.2778320312</ele>
        <time>2015-08-11T11:48:28Z</time>
      </trkpt>
      <trkpt lat="42.77614" lon="-0.4597">
        <ele>2494.2778320312</ele>
        <time>2015-08-11T11:48:46Z</time>
      </trkpt>
      <trkpt lat="42.77613" lon="-0.4597">
        <ele>2494.7585449219</ele>
        <time>2015-08-11T11:49:13Z</time>
      </trkpt>
      <trkpt lat="42.77613" lon="-0.4597">
        <ele>2494.2778320312</ele>
        <time>2015-08-11T11:49:39Z</time>
      </trkpt>
      <trkpt lat="42.77612" lon="-0.45972">
        <ele>2495.2392578125</ele>
        <time>2015-08-11T11:49:58Z</time>
      </trkpt>
      <trkpt lat="42.77609" lon="-0.45974">
        <ele>2497.1618652344</ele>
        <time>2015-08-11T11:50:02Z</time>
      </trkpt>
      <trkpt lat="42.77596" lon="-0.45987">
        <ele>2500.5263671875</ele>
        <time>2015-08-11T11:50:20Z</time>
      </trkpt>
      <trkpt lat="42.77595" lon="-0.45988">
        <ele>2501.0070800781</ele>
        <time>2015-08-11T11:50:42Z</time>
      </trkpt>
      <trkpt lat="42.77592" lon="-0.45994">
        <ele>2503.4104003906</ele>
        <time>2015-08-11T11:51:00Z</time>
      </trkpt>
      <trkpt lat="42.77591" lon="-0.45997">
        <ele>2504.3715820312</ele>
        <time>2015-08-11T11:51:04Z</time>
      </trkpt>
      <trkpt lat="42.77586" lon="-0.46007">
        <ele>2507.2556152344</ele>
        <time>2015-08-11T11:51:19Z</time>
      </trkpt>
      <trkpt lat="42.77584" lon="-0.46007">
        <ele>2508.2170410156</ele>
        <time>2015-08-11T11:51:25Z</time>
      </trkpt>
      <trkpt lat="42.77579" lon="-0.46012">
        <ele>2510.1396484375</ele>
        <time>2015-08-11T11:51:33Z</time>
      </trkpt>
      <trkpt lat="42.77573" lon="-0.46021">
        <ele>2513.5041503906</ele>
        <time>2015-08-11T11:51:47Z</time>
      </trkpt>
      <trkpt lat="42.77573" lon="-0.46021">
        <ele>2513.0236816406</ele>
        <time>2015-08-11T11:51:48Z</time>
      </trkpt>
      <trkpt lat="42.77569" lon="-0.46024">
        <ele>2514.4655761719</ele>
        <time>2015-08-11T11:51:55Z</time>
      </trkpt>
      <trkpt lat="42.77564" lon="-0.46028">
        <ele>2516.3881835938</ele>
        <time>2015-08-11T11:52:09Z</time>
      </trkpt>
      <trkpt lat="42.77563" lon="-0.4603">
        <ele>2517.830078125</ele>
        <time>2015-08-11T11:52:12Z</time>
      </trkpt>
      <trkpt lat="42.77557" lon="-0.46036">
        <ele>2521.1945800781</ele>
        <time>2015-08-11T11:52:23Z</time>
      </trkpt>
      <trkpt lat="42.77551" lon="-0.46041">
        <ele>2524.0788574219</ele>
        <time>2015-08-11T11:52:37Z</time>
      </trkpt>
      <trkpt lat="42.77543" lon="-0.46049">
        <ele>2526.4821777344</ele>
        <time>2015-08-11T11:52:54Z</time>
      </trkpt>
      <trkpt lat="42.7754" lon="-0.46046">
        <ele>2528.8852539062</ele>
        <time>2015-08-11T11:53:10Z</time>
      </trkpt>
      <trkpt lat="42.77539" lon="-0.46041">
        <ele>2532.25</ele>
        <time>2015-08-11T11:53:22Z</time>
      </trkpt>
      <trkpt lat="42.77538" lon="-0.46035">
        <ele>2533.6918945312</ele>
        <time>2015-08-11T11:53:41Z</time>
      </trkpt>
      <trkpt lat="42.77534" lon="-0.46042">
        <ele>2537.0563964844</ele>
        <time>2015-08-11T11:53:54Z</time>
      </trkpt>
      <trkpt lat="42.77527" lon="-0.46046">
        <ele>2539.9404296875</ele>
        <time>2015-08-11T11:54:06Z</time>
      </trkpt>
      <trkpt lat="42.77521" lon="-0.46052">
        <ele>2542.8244628906</ele>
        <time>2015-08-11T11:54:17Z</time>
      </trkpt>
      <trkpt lat="42.77517" lon="-0.46054">
        <ele>2545.7084960938</ele>
        <time>2015-08-11T11:54:24Z</time>
      </trkpt>
      <trkpt lat="42.77511" lon="-0.46062">
        <ele>2547.150390625</ele>
        <time>2015-08-11T11:54:40Z</time>
      </trkpt>
      <trkpt lat="42.77504" lon="-0.46072">
        <ele>2550.5148925781</ele>
        <time>2015-08-11T11:54:56Z</time>
      </trkpt>
      <trkpt lat="42.77499" lon="-0.46079">
        <ele>2551.4763183594</ele>
        <time>2015-08-11T11:55:11Z</time>
      </trkpt>
      <trkpt lat="42.77497" lon="-0.46081">
        <ele>2551.4763183594</ele>
        <time>2015-08-11T11:55:29Z</time>
      </trkpt>
      <trkpt lat="42.77497" lon="-0.46082">
        <ele>2550.9956054688</ele>
        <time>2015-08-11T11:55:48Z</time>
      </trkpt>
      <trkpt lat="42.77498" lon="-0.46081">
        <ele>2551.9567871094</ele>
        <time>2015-08-11T11:56:39Z</time>
      </trkpt>
      <trkpt lat="42.77496" lon="-0.46081">
        <ele>2551.9567871094</ele>
        <time>2015-08-11T11:57:13Z</time>
      </trkpt>
      <trkpt lat="42.77497" lon="-0.4608">
        <ele>2551.4763183594</ele>
        <time>2015-08-11T11:57:29Z</time>
      </trkpt>
      <trkpt lat="42.77499" lon="-0.46077">
        <ele>2551.9567871094</ele>
        <time>2015-08-11T11:57:45Z</time>
      </trkpt>
      <trkpt lat="42.77501" lon="-0.46076">
        <ele>2552.4375</ele>
        <time>2015-08-11T11:58:17Z</time>
      </trkpt>
      <trkpt lat="42.77504" lon="-0.46073">
        <ele>2550.9956054688</ele>
        <time>2015-08-11T11:58:46Z</time>
      </trkpt>
      <trkpt lat="42.77507" lon="-0.46067">
        <ele>2549.5537109375</ele>
        <time>2015-08-11T11:58:57Z</time>
      </trkpt>
      <trkpt lat="42.77514" lon="-0.46058">
        <ele>2547.6311035156</ele>
        <time>2015-08-11T11:59:15Z</time>
      </trkpt>
      <trkpt lat="42.77518" lon="-0.46051">
        <ele>2545.2277832031</ele>
        <time>2015-08-11T11:59:31Z</time>
      </trkpt>
      <trkpt lat="42.77524" lon="-0.46046">
        <ele>2541.86328125</ele>
        <time>2015-08-11T11:59:47Z</time>
      </trkpt>
      <trkpt lat="42.77531" lon="-0.46043">
        <ele>2539.4597167969</ele>
        <time>2015-08-11T12:00:02Z</time>
      </trkpt>
      <trkpt lat="42.77535" lon="-0.46036">
        <ele>2538.9790039062</ele>
        <time>2015-08-11T12:00:17Z</time>
      </trkpt>
      <trkpt lat="42.77538" lon="-0.46036">
        <ele>2536.5756835938</ele>
        <time>2015-08-11T12:00:31Z</time>
      </trkpt>
      <trkpt lat="42.77539" lon="-0.46041">
        <ele>2534.1726074219</ele>
        <time>2015-08-11T12:00:51Z</time>
      </trkpt>
      <trkpt lat="42.77542" lon="-0.46049">
        <ele>2531.2885742188</ele>
        <time>2015-08-11T12:01:07Z</time>
      </trkpt>
      <trkpt lat="42.77546" lon="-0.46046">
        <ele>2528.4047851562</ele>
        <time>2015-08-11T12:01:19Z</time>
      </trkpt>
      <trkpt lat="42.77552" lon="-0.46039">
        <ele>2524.5595703125</ele>
        <time>2015-08-11T12:01:33Z</time>
      </trkpt>
      <trkpt lat="42.77556" lon="-0.46036">
        <ele>2523.1174316406</ele>
        <time>2015-08-11T12:01:48Z</time>
      </trkpt>
      <trkpt lat="42.7756" lon="-0.46032">
        <ele>2519.7526855469</ele>
        <time>2015-08-11T12:02:01Z</time>
      </trkpt>
      <trkpt lat="42.7756" lon="-0.46032">
        <ele>2519.7526855469</ele>
        <time>2015-08-11T12:02:02Z</time>
      </trkpt>
      <trkpt lat="42.77564" lon="-0.46027">
        <ele>2517.830078125</ele>
        <time>2015-08-11T12:02:21Z</time>
      </trkpt>
      <trkpt lat="42.77571" lon="-0.46013">
        <ele>2514.9462890625</ele>
        <time>2015-08-11T12:02:40Z</time>
      </trkpt>
      <trkpt lat="42.77576" lon="-0.46008">
        <ele>2513.0236816406</ele>
        <time>2015-08-11T12:02:54Z</time>
      </trkpt>
      <trkpt lat="42.77582" lon="-0.46004">
        <ele>2509.6589355469</ele>
        <time>2015-08-11T12:03:08Z</time>
      </trkpt>
      <trkpt lat="42.77586" lon="-0.46009">
        <ele>2507.2556152344</ele>
        <time>2015-08-11T12:03:23Z</time>
      </trkpt>
      <trkpt lat="42.77588" lon="-0.46">
        <ele>2506.2941894531</ele>
        <time>2015-08-11T12:03:37Z</time>
      </trkpt>
      <trkpt lat="42.77595" lon="-0.45988">
        <ele>2502.9296875</ele>
        <time>2015-08-11T12:03:55Z</time>
      </trkpt>
      <trkpt lat="42.77602" lon="-0.45983">
        <ele>2499.5651855469</ele>
        <time>2015-08-11T12:04:08Z</time>
      </trkpt>
      <trkpt lat="42.7761" lon="-0.45973">
        <ele>2497.1618652344</ele>
        <time>2015-08-11T12:04:24Z</time>
      </trkpt>
      <trkpt lat="42.77611" lon="-0.45971">
        <ele>2496.6811523438</ele>
        <time>2015-08-11T12:04:45Z</time>
      </trkpt>
      <trkpt lat="42.77611" lon="-0.4597">
        <ele>2498.123046875</ele>
        <time>2015-08-11T12:05:07Z</time>
      </trkpt>
      <trkpt lat="42.77611" lon="-0.4597">
        <ele>2496.6811523438</ele>
        <time>2015-08-11T12:06:15Z</time>
      </trkpt>
      <trkpt lat="42.77611" lon="-0.45971">
        <ele>2498.6037597656</ele>
        <time>2015-08-11T12:09:12Z</time>
      </trkpt>
      <trkpt lat="42.7761" lon="-0.45973">
        <ele>2499.0844726562</ele>
        <time>2015-08-11T12:09:28Z</time>
      </trkpt>
      <trkpt lat="42.77614" lon="-0.45972">
        <ele>2498.123046875</ele>
        <time>2015-08-11T12:09:45Z</time>
      </trkpt>
      <trkpt lat="42.77618" lon="-0.45968">
        <ele>2496.6811523438</ele>
        <time>2015-08-11T12:10:04Z</time>
      </trkpt>
      <trkpt lat="42.77621" lon="-0.45963">
        <ele>2494.7585449219</ele>
        <time>2015-08-11T12:10:23Z</time>
      </trkpt>
      <trkpt lat="42.77625" lon="-0.45964">
        <ele>2492.8359375</ele>
        <time>2015-08-11T12:10:44Z</time>
      </trkpt>
      <trkpt lat="42.77626" lon="-0.45964">
        <ele>2491.8745117188</ele>
        <time>2015-08-11T12:11:03Z</time>
      </trkpt>
      <trkpt lat="42.77634" lon="-0.45957">
        <ele>2489.4711914062</ele>
        <time>2015-08-11T12:11:22Z</time>
      </trkpt>
      <trkpt lat="42.77638" lon="-0.4595">
        <ele>2488.5100097656</ele>
        <time>2015-08-11T12:11:38Z</time>
      </trkpt>
      <trkpt lat="42.77646" lon="-0.45944">
        <ele>2486.5871582031</ele>
        <time>2015-08-11T12:11:55Z</time>
      </trkpt>
      <trkpt lat="42.7765" lon="-0.45941">
        <ele>2484.1840820312</ele>
        <time>2015-08-11T12:12:15Z</time>
      </trkpt>
      <trkpt lat="42.77654" lon="-0.45937">
        <ele>2482.7419433594</ele>
        <time>2015-08-11T12:12:32Z</time>
      </trkpt>
      <trkpt lat="42.77655" lon="-0.45941">
        <ele>2481.3000488281</ele>
        <time>2015-08-11T12:12:51Z</time>
      </trkpt>
      <trkpt lat="42.77655" lon="-0.45943">
        <ele>2479.3774414062</ele>
        <time>2015-08-11T12:12:56Z</time>
      </trkpt>
      <trkpt lat="42.7766" lon="-0.4594">
        <ele>2478.8967285156</ele>
        <time>2015-08-11T12:13:13Z</time>
      </trkpt>
      <trkpt lat="42.77665" lon="-0.45932">
        <ele>2477.4548339844</ele>
        <time>2015-08-11T12:13:29Z</time>
      </trkpt>
      <trkpt lat="42.77666" lon="-0.4593">
        <ele>2476.4936523438</ele>
        <time>2015-08-11T12:13:46Z</time>
      </trkpt>
      <trkpt lat="42.77669" lon="-0.45925">
        <ele>2475.5319824219</ele>
        <time>2015-08-11T12:14:04Z</time>
      </trkpt>
      <trkpt lat="42.77673" lon="-0.4592">
        <ele>2474.5708007812</ele>
        <time>2015-08-11T12:14:22Z</time>
      </trkpt>
      <trkpt lat="42.7768" lon="-0.45908">
        <ele>2473.12890625</ele>
        <time>2015-08-11T12:14:40Z</time>
      </trkpt>
      <trkpt lat="42.77683" lon="-0.45907">
        <ele>2472.1674804688</ele>
        <time>2015-08-11T12:14:55Z</time>
      </trkpt>
      <trkpt lat="42.77688" lon="-0.45902">
        <ele>2470.2448730469</ele>
        <time>2015-08-11T12:15:13Z</time>
      </trkpt>
      <trkpt lat="42.77689" lon="-0.459">
        <ele>2469.7641601562</ele>
        <time>2015-08-11T12:15:34Z</time>
      </trkpt>
      <trkpt lat="42.77689" lon="-0.459">
        <ele>2469.2836914062</ele>
        <time>2015-08-11T12:15:35Z</time>
      </trkpt>
      <trkpt lat="42.77691" lon="-0.459">
        <ele>2468.8029785156</ele>
        <time>2015-08-11T12:16:02Z</time>
      </trkpt>
      <trkpt lat="42.77696" lon="-0.45895">
        <ele>2467.8415527344</ele>
        <time>2015-08-11T12:16:19Z</time>
      </trkpt>
      <trkpt lat="42.777" lon="-0.45892">
        <ele>2463.9963378906</ele>
        <time>2015-08-11T12:16:34Z</time>
      </trkpt>
      <trkpt lat="42.77704" lon="-0.45891">
        <ele>2462.0737304688</ele>
        <time>2015-08-11T12:16:54Z</time>
      </trkpt>
      <trkpt lat="42.77707" lon="-0.45896">
        <ele>2460.6318359375</ele>
        <time>2015-08-11T12:17:14Z</time>
      </trkpt>
      <trkpt lat="42.77711" lon="-0.45892">
        <ele>2459.6701660156</ele>
        <time>2015-08-11T12:17:34Z</time>
      </trkpt>
      <trkpt lat="42.77716" lon="-0.45886">
        <ele>2458.2282714844</ele>
        <time>2015-08-11T12:17:50Z</time>
      </trkpt>
      <trkpt lat="42.77717" lon="-0.45884">
        <ele>2456.7863769531</ele>
        <time>2015-08-11T12:17:53Z</time>
      </trkpt>
      <trkpt lat="42.77719" lon="-0.45882">
        <ele>2454.8637695312</ele>
        <time>2015-08-11T12:17:58Z</time>
      </trkpt>
      <trkpt lat="42.77725" lon="-0.45876">
        <ele>2452.9411621094</ele>
        <time>2015-08-11T12:18:16Z</time>
      </trkpt>
      <trkpt lat="42.77732" lon="-0.45871">
        <ele>2450.0573730469</ele>
        <time>2015-08-11T12:18:32Z</time>
      </trkpt>
      <trkpt lat="42.77744" lon="-0.45863">
        <ele>2447.6540527344</ele>
        <time>2015-08-11T12:18:51Z</time>
      </trkpt>
      <trkpt lat="42.77763" lon="-0.45842">
        <ele>2445.7314453125</ele>
        <time>2015-08-11T12:19:16Z</time>
      </trkpt>
      <trkpt lat="42.77771" lon="-0.45833">
        <ele>2444.7700195312</ele>
        <time>2015-08-11T12:19:32Z</time>
      </trkpt>
      <trkpt lat="42.7779" lon="-0.45822">
        <ele>2441.8859863281</ele>
        <time>2015-08-11T12:19:52Z</time>
      </trkpt>
      <trkpt lat="42.77811" lon="-0.45817">
        <ele>2439.4826660156</ele>
        <time>2015-08-11T12:20:14Z</time>
      </trkpt>
      <trkpt lat="42.77824" lon="-0.45815">
        <ele>2437.0793457031</ele>
        <time>2015-08-11T12:20:31Z</time>
      </trkpt>
      <trkpt lat="42.77835" lon="-0.45815">
        <ele>2435.1567382812</ele>
        <time>2015-08-11T12:20:49Z</time>
      </trkpt>
      <trkpt lat="42.77849" lon="-0.45812">
        <ele>2431.7922363281</ele>
        <time>2015-08-11T12:21:07Z</time>
      </trkpt>
      <trkpt lat="42.77873" lon="-0.45813">
        <ele>2430.3503417969</ele>
        <time>2015-08-11T12:21:30Z</time>
      </trkpt>
      <trkpt lat="42.77893" lon="-0.45818">
        <ele>2432.7534179688</ele>
        <time>2015-08-11T12:21:51Z</time>
      </trkpt>
      <trkpt lat="42.77894" lon="-0.45819">
        <ele>2433.71484375</ele>
        <time>2015-08-11T12:21:53Z</time>
      </trkpt>
      <trkpt lat="42.77903" lon="-0.45818">
        <ele>2431.3115234375</ele>
        <time>2015-08-11T12:22:12Z</time>
      </trkpt>
      <trkpt lat="42.77905" lon="-0.45818">
        <ele>2429.8696289062</ele>
        <time>2015-08-11T12:22:20Z</time>
      </trkpt>
      <trkpt lat="42.77911" lon="-0.45812">
        <ele>2427.9467773438</ele>
        <time>2015-08-11T12:22:39Z</time>
      </trkpt>
      <trkpt lat="42.77916" lon="-0.45803">
        <ele>2424.5822753906</ele>
        <time>2015-08-11T12:22:58Z</time>
      </trkpt>
      <trkpt lat="42.77925" lon="-0.45796">
        <ele>2422.1789550781</ele>
        <time>2015-08-11T12:23:20Z</time>
      </trkpt>
      <trkpt lat="42.77925" lon="-0.45791">
        <ele>2421.2175292969</ele>
        <time>2015-08-11T12:23:44Z</time>
      </trkpt>
      <trkpt lat="42.77924" lon="-0.45787">
        <ele>2418.3337402344</ele>
        <time>2015-08-11T12:23:59Z</time>
      </trkpt>
      <trkpt lat="42.7792" lon="-0.45786">
        <ele>2415.9304199219</ele>
        <time>2015-08-11T12:24:21Z</time>
      </trkpt>
      <trkpt lat="42.77915" lon="-0.45791">
        <ele>2414.9692382812</ele>
        <time>2015-08-11T12:24:41Z</time>
      </trkpt>
      <trkpt lat="42.77914" lon="-0.4579">
        <ele>2413.0466308594</ele>
        <time>2015-08-11T12:25:00Z</time>
      </trkpt>
      <trkpt lat="42.77916" lon="-0.45785">
        <ele>2412.5659179688</ele>
        <time>2015-08-11T12:25:27Z</time>
      </trkpt>
      <trkpt lat="42.77918" lon="-0.4578">
        <ele>2411.1237792969</ele>
        <time>2015-08-11T12:25:42Z</time>
      </trkpt>
      <trkpt lat="42.77916" lon="-0.45781">
        <ele>2409.201171875</ele>
        <time>2015-08-11T12:25:52Z</time>
      </trkpt>
      <trkpt lat="42.77914" lon="-0.45779">
        <ele>2409.201171875</ele>
        <time>2015-08-11T12:26:17Z</time>
      </trkpt>
      <trkpt lat="42.7791" lon="-0.45779">
        <ele>2407.2785644531</ele>
        <time>2015-08-11T12:26:34Z</time>
      </trkpt>
      <trkpt lat="42.77911" lon="-0.45776">
        <ele>2404.39453125</ele>
        <time>2015-08-11T12:26:49Z</time>
      </trkpt>
      <trkpt lat="42.77909" lon="-0.45776">
        <ele>2403.4333496094</ele>
        <time>2015-08-11T12:27:09Z</time>
      </trkpt>
      <trkpt lat="42.77908" lon="-0.45775">
        <ele>2401.9912109375</ele>
        <time>2015-08-11T12:27:28Z</time>
      </trkpt>
      <trkpt lat="42.77905" lon="-0.45771">
        <ele>2399.5881347656</ele>
        <time>2015-08-11T12:27:45Z</time>
      </trkpt>
      <trkpt lat="42.77902" lon="-0.45766">
        <ele>2398.1459960938</ele>
        <time>2015-08-11T12:28:01Z</time>
      </trkpt>
      <trkpt lat="42.77904" lon="-0.45762">
        <ele>2396.7041015625</ele>
        <time>2015-08-11T12:28:14Z</time>
      </trkpt>
      <trkpt lat="42.77905" lon="-0.45758">
        <ele>2393.3393554688</ele>
        <time>2015-08-11T12:28:26Z</time>
      </trkpt>
      <trkpt lat="42.77908" lon="-0.45754">
        <ele>2391.4167480469</ele>
        <time>2015-08-11T12:28:40Z</time>
      </trkpt>
      <trkpt lat="42.77905" lon="-0.4575">
        <ele>2388.5329589844</ele>
        <time>2015-08-11T12:28:58Z</time>
      </trkpt>
      <trkpt lat="42.7791" lon="-0.45744">
        <ele>2385.6489257812</ele>
        <time>2015-08-11T12:29:14Z</time>
      </trkpt>
      <trkpt lat="42.77912" lon="-0.45739">
        <ele>2382.2844238281</ele>
        <time>2015-08-11T12:29:24Z</time>
      </trkpt>
      <trkpt lat="42.77909" lon="-0.45731">
        <ele>2379.880859375</ele>
        <time>2015-08-11T12:29:42Z</time>
      </trkpt>
      <trkpt lat="42.77903" lon="-0.45725">
        <ele>2378.4389648438</ele>
        <time>2015-08-11T12:29:58Z</time>
      </trkpt>
      <trkpt lat="42.77899" lon="-0.45722">
        <ele>2376.9970703125</ele>
        <time>2015-08-11T12:30:14Z</time>
      </trkpt>
      <trkpt lat="42.77891" lon="-0.45723">
        <ele>2375.07421875</ele>
        <time>2015-08-11T12:30:30Z</time>
      </trkpt>
      <trkpt lat="42.77888" lon="-0.4572">
        <ele>2373.1518554688</ele>
        <time>2015-08-11T12:30:49Z</time>
      </trkpt>
      <trkpt lat="42.77882" lon="-0.45717">
        <ele>2370.2678222656</ele>
        <time>2015-08-11T12:31:07Z</time>
      </trkpt>
      <trkpt lat="42.77872" lon="-0.45717">
        <ele>2367.8645019531</ele>
        <time>2015-08-11T12:31:26Z</time>
      </trkpt>
      <trkpt lat="42.77863" lon="-0.45715">
        <ele>2365.4614257812</ele>
        <time>2015-08-11T12:31:41Z</time>
      </trkpt>
      <trkpt lat="42.77857" lon="-0.45708">
        <ele>2362.5771484375</ele>
        <time>2015-08-11T12:31:55Z</time>
      </trkpt>
      <trkpt lat="42.77852" lon="-0.45705">
        <ele>2359.2126464844</ele>
        <time>2015-08-11T12:32:11Z</time>
      </trkpt>
      <trkpt lat="42.77844" lon="-0.45702">
        <ele>2358.2512207031</ele>
        <time>2015-08-11T12:32:37Z</time>
      </trkpt>
      <trkpt lat="42.77838" lon="-0.45696">
        <ele>2356.3286132812</ele>
        <time>2015-08-11T12:32:49Z</time>
      </trkpt>
      <trkpt lat="42.77828" lon="-0.45683">
        <ele>2354.88671875</ele>
        <time>2015-08-11T12:33:07Z</time>
      </trkpt>
      <trkpt lat="42.7782" lon="-0.45666">
        <ele>2353.4448242188</ele>
        <time>2015-08-11T12:33:24Z</time>
      </trkpt>
      <trkpt lat="42.77819" lon="-0.45648">
        <ele>2352.4833984375</ele>
        <time>2015-08-11T12:33:38Z</time>
      </trkpt>
      <trkpt lat="42.77824" lon="-0.45628">
        <ele>2351.0415039062</ele>
        <time>2015-08-11T12:33:56Z</time>
      </trkpt>
      <trkpt lat="42.77832" lon="-0.45605">
        <ele>2348.6381835938</ele>
        <time>2015-08-11T12:34:16Z</time>
      </trkpt>
      <trkpt lat="42.77841" lon="-0.45589">
        <ele>2347.6767578125</ele>
        <time>2015-08-11T12:34:37Z</time>
      </trkpt>
      <trkpt lat="42.7784" lon="-0.45577">
        <ele>2346.7153320312</ele>
        <time>2015-08-11T12:34:51Z</time>
      </trkpt>
      <trkpt lat="42.7784" lon="-0.45566">
        <ele>2345.2734375</ele>
        <time>2015-08-11T12:35:01Z</time>
      </trkpt>
      <trkpt lat="42.77839" lon="-0.4554">
        <ele>2343.3508300781</ele>
        <time>2015-08-11T12:35:20Z</time>
      </trkpt>
      <trkpt lat="42.77842" lon="-0.45532">
        <ele>2343.3508300781</ele>
        <time>2015-08-11T12:35:27Z</time>
      </trkpt>
      <trkpt lat="42.77848" lon="-0.45525">
        <ele>2342.3896484375</ele>
        <time>2015-08-11T12:35:35Z</time>
      </trkpt>
      <trkpt lat="42.77849" lon="-0.45521">
        <ele>2340.9475097656</ele>
        <time>2015-08-11T12:35:38Z</time>
      </trkpt>
      <trkpt lat="42.77848" lon="-0.45501">
        <ele>2338.5444335938</ele>
        <time>2015-08-11T12:35:55Z</time>
      </trkpt>
      <trkpt lat="42.77849" lon="-0.455">
        <ele>2338.0637207031</ele>
        <time>2015-08-11T12:35:56Z</time>
      </trkpt>
      <trkpt lat="42.77849" lon="-0.45479">
        <ele>2335.1796875</ele>
        <time>2015-08-11T12:36:12Z</time>
      </trkpt>
      <trkpt lat="42.77846" lon="-0.45462">
        <ele>2334.69921875</ele>
        <time>2015-08-11T12:36:26Z</time>
      </trkpt>
      <trkpt lat="42.77841" lon="-0.45439">
        <ele>2332.2958984375</ele>
        <time>2015-08-11T12:36:45Z</time>
      </trkpt>
      <trkpt lat="42.77835" lon="-0.45419">
        <ele>2331.8149414062</ele>
        <time>2015-08-11T12:37:01Z</time>
      </trkpt>
      <trkpt lat="42.77829" lon="-0.4541">
        <ele>2328.9309082031</ele>
        <time>2015-08-11T12:37:12Z</time>
      </trkpt>
      <trkpt lat="42.77825" lon="-0.45407">
        <ele>2325.56640625</ele>
        <time>2015-08-11T12:37:22Z</time>
      </trkpt>
      <trkpt lat="42.77822" lon="-0.45402">
        <ele>2323.6437988281</ele>
        <time>2015-08-11T12:37:28Z</time>
      </trkpt>
      <trkpt lat="42.77813" lon="-0.45391">
        <ele>2321.2404785156</ele>
        <time>2015-08-11T12:37:42Z</time>
      </trkpt>
      <trkpt lat="42.77799" lon="-0.45382">
        <ele>2319.3181152344</ele>
        <time>2015-08-11T12:37:59Z</time>
      </trkpt>
      <trkpt lat="42.77798" lon="-0.4538">
        <ele>2319.7985839844</ele>
        <time>2015-08-11T12:38:03Z</time>
      </trkpt>
      <trkpt lat="42.7779" lon="-0.45365">
        <ele>2317.8759765625</ele>
        <time>2015-08-11T12:38:18Z</time>
      </trkpt>
      <trkpt lat="42.77779" lon="-0.45354">
        <ele>2316.9147949219</ele>
        <time>2015-08-11T12:38:31Z</time>
      </trkpt>
      <trkpt lat="42.77778" lon="-0.45336">
        <ele>2315.47265625</ele>
        <time>2015-08-11T12:38:48Z</time>
      </trkpt>
      <trkpt lat="42.77778" lon="-0.45335">
        <ele>2315.47265625</ele>
        <time>2015-08-11T12:38:49Z</time>
      </trkpt>
      <trkpt lat="42.77777" lon="-0.45312">
        <ele>2312.1079101562</ele>
        <time>2015-08-11T12:39:06Z</time>
      </trkpt>
      <trkpt lat="42.77778" lon="-0.45284">
        <ele>2309.7045898438</ele>
        <time>2015-08-11T12:39:24Z</time>
      </trkpt>
      <trkpt lat="42.77774" lon="-0.45251">
        <ele>2308.2626953125</ele>
        <time>2015-08-11T12:39:44Z</time>
      </trkpt>
      <trkpt lat="42.77771" lon="-0.4522">
        <ele>2309.2241210938</ele>
        <time>2015-08-11T12:40:03Z</time>
      </trkpt>
      <trkpt lat="42.77773" lon="-0.45195">
        <ele>2306.3400878906</ele>
        <time>2015-08-11T12:40:22Z</time>
      </trkpt>
      <trkpt lat="42.77775" lon="-0.45189">
        <ele>2303.4562988281</ele>
        <time>2015-08-11T12:40:28Z</time>
      </trkpt>
      <trkpt lat="42.77777" lon="-0.45167">
        <ele>2300.572265625</ele>
        <time>2015-08-11T12:40:47Z</time>
      </trkpt>
      <trkpt lat="42.7778" lon="-0.45151">
        <ele>2299.6108398438</ele>
        <time>2015-08-11T12:41:02Z</time>
      </trkpt>
      <trkpt lat="42.77782" lon="-0.45144">
        <ele>2298.1687011719</ele>
        <time>2015-08-11T12:41:10Z</time>
      </trkpt>
      <trkpt lat="42.77778" lon="-0.45136">
        <ele>2298.1687011719</ele>
        <time>2015-08-11T12:41:17Z</time>
      </trkpt>
      <trkpt lat="42.77765" lon="-0.45111">
        <ele>2296.7268066406</ele>
        <time>2015-08-11T12:41:37Z</time>
      </trkpt>
      <trkpt lat="42.77764" lon="-0.45078">
        <ele>2295.765625</ele>
        <time>2015-08-11T12:41:59Z</time>
      </trkpt>
      <trkpt lat="42.77765" lon="-0.45071">
        <ele>2294.8041992188</ele>
        <time>2015-08-11T12:42:04Z</time>
      </trkpt>
      <trkpt lat="42.77761" lon="-0.45049">
        <ele>2290.4782714844</ele>
        <time>2015-08-11T12:42:22Z</time>
      </trkpt>
      <trkpt lat="42.7776" lon="-0.45047">
        <ele>2290.4782714844</ele>
        <time>2015-08-11T12:42:24Z</time>
      </trkpt>
      <trkpt lat="42.77758" lon="-0.45024">
        <ele>2287.1137695312</ele>
        <time>2015-08-11T12:42:43Z</time>
      </trkpt>
      <trkpt lat="42.77754" lon="-0.45016">
        <ele>2283.7490234375</ele>
        <time>2015-08-11T12:42:52Z</time>
      </trkpt>
      <trkpt lat="42.77747" lon="-0.4501">
        <ele>2280.865234375</ele>
        <time>2015-08-11T12:43:02Z</time>
      </trkpt>
      <trkpt lat="42.77738" lon="-0.45006">
        <ele>2280.3845214844</ele>
        <time>2015-08-11T12:43:17Z</time>
      </trkpt>
      <trkpt lat="42.77728" lon="-0.45002">
        <ele>2278.9423828125</ele>
        <time>2015-08-11T12:43:32Z</time>
      </trkpt>
      <trkpt lat="42.7772" lon="-0.44999">
        <ele>2276.05859375</ele>
        <time>2015-08-11T12:43:43Z</time>
      </trkpt>
      <trkpt lat="42.77716" lon="-0.44999">
        <ele>2274.6166992188</ele>
        <time>2015-08-11T12:43:48Z</time>
      </trkpt>
      <trkpt lat="42.77711" lon="-0.44998">
        <ele>2273.6552734375</ele>
        <time>2015-08-11T12:43:55Z</time>
      </trkpt>
      <trkpt lat="42.77703" lon="-0.44976">
        <ele>2270.2907714844</ele>
        <time>2015-08-11T12:44:15Z</time>
      </trkpt>
      <trkpt lat="42.77701" lon="-0.44966">
        <ele>2269.3295898438</ele>
        <time>2015-08-11T12:44:23Z</time>
      </trkpt>
      <trkpt lat="42.77692" lon="-0.44942">
        <ele>2265.9645996094</ele>
        <time>2015-08-11T12:44:40Z</time>
      </trkpt>
      <trkpt lat="42.77689" lon="-0.4494">
        <ele>2265.4841308594</ele>
        <time>2015-08-11T12:44:53Z</time>
      </trkpt>
      <trkpt lat="42.7768" lon="-0.44918">
        <ele>2265.0034179688</ele>
        <time>2015-08-11T12:45:10Z</time>
      </trkpt>
      <trkpt lat="42.77674" lon="-0.44889">
        <ele>2264.0419921875</ele>
        <time>2015-08-11T12:45:30Z</time>
      </trkpt>
      <trkpt lat="42.77675" lon="-0.44885">
        <ele>2263.5612792969</ele>
        <time>2015-08-11T12:45:33Z</time>
      </trkpt>
      <trkpt lat="42.77688" lon="-0.44859">
        <ele>2262.1193847656</ele>
        <time>2015-08-11T12:45:54Z</time>
      </trkpt>
      <trkpt lat="42.77691" lon="-0.44845">
        <ele>2261.158203125</ele>
        <time>2015-08-11T12:46:04Z</time>
      </trkpt>
      <trkpt lat="42.77692" lon="-0.44819">
        <ele>2257.3129882812</ele>
        <time>2015-08-11T12:46:24Z</time>
      </trkpt>
      <trkpt lat="42.7769" lon="-0.44797">
        <ele>2255.8708496094</ele>
        <time>2015-08-11T12:46:42Z</time>
      </trkpt>
      <trkpt lat="42.77687" lon="-0.44781">
        <ele>2254.9096679688</ele>
        <time>2015-08-11T12:46:57Z</time>
      </trkpt>
      <trkpt lat="42.77684" lon="-0.44756">
        <ele>2252.0256347656</ele>
        <time>2015-08-11T12:47:15Z</time>
      </trkpt>
      <trkpt lat="42.77678" lon="-0.44722">
        <ele>2250.5834960938</ele>
        <time>2015-08-11T12:47:36Z</time>
      </trkpt>
      <trkpt lat="42.77671" lon="-0.44698">
        <ele>2250.1030273438</ele>
        <time>2015-08-11T12:47:53Z</time>
      </trkpt>
      <trkpt lat="42.77669" lon="-0.44679">
        <ele>2250.5834960938</ele>
        <time>2015-08-11T12:48:06Z</time>
      </trkpt>
      <trkpt lat="42.77665" lon="-0.44651">
        <ele>2249.6223144531</ele>
        <time>2015-08-11T12:48:25Z</time>
      </trkpt>
      <trkpt lat="42.77672" lon="-0.44624">
        <ele>2248.1801757812</ele>
        <time>2015-08-11T12:48:43Z</time>
      </trkpt>
      <trkpt lat="42.77672" lon="-0.44603">
        <ele>2250.1030273438</ele>
        <time>2015-08-11T12:48:57Z</time>
      </trkpt>
      <trkpt lat="42.77672" lon="-0.44575">
        <ele>2248.6608886719</ele>
        <time>2015-08-11T12:49:16Z</time>
      </trkpt>
      <trkpt lat="42.77669" lon="-0.44548">
        <ele>2249.1416015625</ele>
        <time>2015-08-11T12:49:34Z</time>
      </trkpt>
      <trkpt lat="42.77668" lon="-0.44547">
        <ele>2248.6608886719</ele>
        <time>2015-08-11T12:49:35Z</time>
      </trkpt>
      <trkpt lat="42.77661" lon="-0.44536">
        <ele>2247.6997070312</ele>
        <time>2015-08-11T12:49:45Z</time>
      </trkpt>
      <trkpt lat="42.77659" lon="-0.44532">
        <ele>2247.2189941406</ele>
        <time>2015-08-11T12:49:49Z</time>
      </trkpt>
      <trkpt lat="42.77664" lon="-0.44511">
        <ele>2245.7770996094</ele>
        <time>2015-08-11T12:50:06Z</time>
      </trkpt>
      <trkpt lat="42.77666" lon="-0.44505">
        <ele>2244.8156738281</ele>
        <time>2015-08-11T12:50:11Z</time>
      </trkpt>
      <trkpt lat="42.77666" lon="-0.44489">
        <ele>2244.8156738281</ele>
        <time>2015-08-11T12:50:23Z</time>
      </trkpt>
      <trkpt lat="42.77667" lon="-0.44472">
        <ele>2243.8544921875</ele>
        <time>2015-08-11T12:50:37Z</time>
      </trkpt>
      <trkpt lat="42.77669" lon="-0.44457">
        <ele>2242.8930664062</ele>
        <time>2015-08-11T12:50:47Z</time>
      </trkpt>
      <trkpt lat="42.77671" lon="-0.44428">
        <ele>2242.8930664062</ele>
        <time>2015-08-11T12:51:07Z</time>
      </trkpt>
      <trkpt lat="42.77674" lon="-0.44415">
        <ele>2241.9318847656</ele>
        <time>2015-08-11T12:51:16Z</time>
      </trkpt>
      <trkpt lat="42.77676" lon="-0.44409">
        <ele>2241.9318847656</ele>
        <time>2015-08-11T12:51:21Z</time>
      </trkpt>
      <trkpt lat="42.77674" lon="-0.44402">
        <ele>2241.451171875</ele>
        <time>2015-08-11T12:51:26Z</time>
      </trkpt>
      <trkpt lat="42.77663" lon="-0.44374">
        <ele>2240.4897460938</ele>
        <time>2015-08-11T12:51:45Z</time>
      </trkpt>
      <trkpt lat="42.77662" lon="-0.44349">
        <ele>2240.9704589844</ele>
        <time>2015-08-11T12:52:02Z</time>
      </trkpt>
      <trkpt lat="42.7765" lon="-0.44326">
        <ele>2242.8930664062</ele>
        <time>2015-08-11T12:52:21Z</time>
      </trkpt>
      <trkpt lat="42.77639" lon="-0.44302">
        <ele>2243.8544921875</ele>
        <time>2015-08-11T12:52:40Z</time>
      </trkpt>
      <trkpt lat="42.77637" lon="-0.44299">
        <ele>2243.8544921875</ele>
        <time>2015-08-11T12:52:42Z</time>
      </trkpt>
      <trkpt lat="42.77636" lon="-0.44267">
        <ele>2243.3737792969</ele>
        <time>2015-08-11T12:53:03Z</time>
      </trkpt>
      <trkpt lat="42.77635" lon="-0.44228">
        <ele>2243.8544921875</ele>
        <time>2015-08-11T12:53:27Z</time>
      </trkpt>
      <trkpt lat="42.77624" lon="-0.44191">
        <ele>2243.8544921875</ele>
        <time>2015-08-11T12:53:50Z</time>
      </trkpt>
      <trkpt lat="42.7762" lon="-0.44179">
        <ele>2243.8544921875</ele>
        <time>2015-08-11T12:53:58Z</time>
      </trkpt>
      <trkpt lat="42.77613" lon="-0.44169">
        <ele>2242.4125976562</ele>
        <time>2015-08-11T12:54:07Z</time>
      </trkpt>
      <trkpt lat="42.77615" lon="-0.4416">
        <ele>2241.451171875</ele>
        <time>2015-08-11T12:54:13Z</time>
      </trkpt>
      <trkpt lat="42.77618" lon="-0.44125">
        <ele>2240.9704589844</ele>
        <time>2015-08-11T12:54:34Z</time>
      </trkpt>
      <trkpt lat="42.7762" lon="-0.44099">
        <ele>2239.0478515625</ele>
        <time>2015-08-11T12:54:50Z</time>
      </trkpt>
      <trkpt lat="42.7762" lon="-0.44098">
        <ele>2239.0478515625</ele>
        <time>2015-08-11T12:54:51Z</time>
      </trkpt>
      <trkpt lat="42.77621" lon="-0.4407">
        <ele>2238.5673828125</ele>
        <time>2015-08-11T12:55:08Z</time>
      </trkpt>
      <trkpt lat="42.77621" lon="-0.44065">
        <ele>2237.6059570312</ele>
        <time>2015-08-11T12:55:11Z</time>
      </trkpt>
      <trkpt lat="42.77621" lon="-0.44062">
        <ele>2238.0866699219</ele>
        <time>2015-08-11T12:55:13Z</time>
      </trkpt>
      <trkpt lat="42.77621" lon="-0.44056">
        <ele>2238.0866699219</ele>
        <time>2015-08-11T12:55:17Z</time>
      </trkpt>
      <trkpt lat="42.77621" lon="-0.44044">
        <ele>2237.1252441406</ele>
        <time>2015-08-11T12:55:30Z</time>
      </trkpt>
      <trkpt lat="42.77615" lon="-0.44046">
        <ele>2236.64453125</ele>
        <time>2015-08-11T12:55:36Z</time>
      </trkpt>
      <trkpt lat="42.77612" lon="-0.44047">
        <ele>2236.64453125</ele>
        <time>2015-08-11T12:55:39Z</time>
      </trkpt>
      <trkpt lat="42.77595" lon="-0.44043">
        <ele>2234.7219238281</ele>
        <time>2015-08-11T12:55:59Z</time>
      </trkpt>
      <trkpt lat="42.77589" lon="-0.44042">
        <ele>2230.8767089844</ele>
        <time>2015-08-11T12:56:07Z</time>
      </trkpt>
      <trkpt lat="42.77586" lon="-0.44039">
        <ele>2228.9538574219</ele>
        <time>2015-08-11T12:56:15Z</time>
      </trkpt>
      <trkpt lat="42.77585" lon="-0.44028">
        <ele>2225.5893554688</ele>
        <time>2015-08-11T12:56:27Z</time>
      </trkpt>
      <trkpt lat="42.77584" lon="-0.44026">
        <ele>2224.6281738281</ele>
        <time>2015-08-11T12:56:29Z</time>
      </trkpt>
      <trkpt lat="42.77582" lon="-0.44021">
        <ele>2224.1474609375</ele>
        <time>2015-08-11T12:56:36Z</time>
      </trkpt>
      <trkpt lat="42.77584" lon="-0.44015">
        <ele>2222.7055664062</ele>
        <time>2015-08-11T12:56:44Z</time>
      </trkpt>
      <trkpt lat="42.77588" lon="-0.44004">
        <ele>2219.3408203125</ele>
        <time>2015-08-11T12:56:55Z</time>
      </trkpt>
      <trkpt lat="42.77589" lon="-0.44003">
        <ele>2219.3408203125</ele>
        <time>2015-08-11T12:56:56Z</time>
      </trkpt>
      <trkpt lat="42.7759" lon="-0.44001">
        <ele>2219.3408203125</ele>
        <time>2015-08-11T12:56:59Z</time>
      </trkpt>
      <trkpt lat="42.77597" lon="-0.43992">
        <ele>2216.4567871094</ele>
        <time>2015-08-11T12:57:12Z</time>
      </trkpt>
      <trkpt lat="42.77596" lon="-0.43978">
        <ele>2212.6115722656</ele>
        <time>2015-08-11T12:57:27Z</time>
      </trkpt>
      <trkpt lat="42.77592" lon="-0.43977">
        <ele>2211.650390625</ele>
        <time>2015-08-11T12:57:39Z</time>
      </trkpt>
      <trkpt lat="42.77591" lon="-0.43977">
        <ele>2209.7275390625</ele>
        <time>2015-08-11T12:57:44Z</time>
      </trkpt>
      <trkpt lat="42.7759" lon="-0.43973">
        <ele>2209.2470703125</ele>
        <time>2015-08-11T12:57:58Z</time>
      </trkpt>
      <trkpt lat="42.77593" lon="-0.43963">
        <ele>2207.3244628906</ele>
        <time>2015-08-11T12:58:13Z</time>
      </trkpt>
      <trkpt lat="42.77596" lon="-0.43953">
        <ele>2206.3630371094</ele>
        <time>2015-08-11T12:58:27Z</time>
      </trkpt>
      <trkpt lat="42.77596" lon="-0.43947">
        <ele>2202.9982910156</ele>
        <time>2015-08-11T12:58:36Z</time>
      </trkpt>
      <trkpt lat="42.77595" lon="-0.43938">
        <ele>2201.0756835938</ele>
        <time>2015-08-11T12:58:51Z</time>
      </trkpt>
      <trkpt lat="42.7759" lon="-0.43933">
        <ele>2198.1916503906</ele>
        <time>2015-08-11T12:59:07Z</time>
      </trkpt>
      <trkpt lat="42.77588" lon="-0.43924">
        <ele>2197.23046875</ele>
        <time>2015-08-11T12:59:21Z</time>
      </trkpt>
      <trkpt lat="42.77587" lon="-0.43916">
        <ele>2193.3852539062</ele>
        <time>2015-08-11T12:59:33Z</time>
      </trkpt>
      <trkpt lat="42.77583" lon="-0.4391">
        <ele>2190.9819335938</ele>
        <time>2015-08-11T12:59:47Z</time>
      </trkpt>
      <trkpt lat="42.77581" lon="-0.43905">
        <ele>2188.5788574219</ele>
        <time>2015-08-11T13:00:03Z</time>
      </trkpt>
      <trkpt lat="42.77579" lon="-0.43905">
        <ele>2188.0981445312</ele>
        <time>2015-08-11T13:00:13Z</time>
      </trkpt>
      <trkpt lat="42.77574" lon="-0.43901">
        <ele>2186.1752929688</ele>
        <time>2015-08-11T13:00:31Z</time>
      </trkpt>
      <trkpt lat="42.77571" lon="-0.43901">
        <ele>2185.6945800781</ele>
        <time>2015-08-11T13:00:35Z</time>
      </trkpt>
      <trkpt lat="42.77569" lon="-0.43903">
        <ele>2182.810546875</ele>
        <time>2015-08-11T13:00:40Z</time>
      </trkpt>
      <trkpt lat="42.77564" lon="-0.43898">
        <ele>2181.3686523438</ele>
        <time>2015-08-11T13:00:56Z</time>
      </trkpt>
      <trkpt lat="42.77559" lon="-0.43887">
        <ele>2177.5234375</ele>
        <time>2015-08-11T13:01:11Z</time>
      </trkpt>
      <trkpt lat="42.77556" lon="-0.43875">
        <ele>2174.6396484375</ele>
        <time>2015-08-11T13:01:25Z</time>
      </trkpt>
      <trkpt lat="42.7755" lon="-0.43866">
        <ele>2171.7553710938</ele>
        <time>2015-08-11T13:01:40Z</time>
      </trkpt>
      <trkpt lat="42.77547" lon="-0.43851">
        <ele>2168.8715820312</ele>
        <time>2015-08-11T13:01:55Z</time>
      </trkpt>
      <trkpt lat="42.77547" lon="-0.4385">
        <ele>2168.8715820312</ele>
        <time>2015-08-11T13:01:56Z</time>
      </trkpt>
      <trkpt lat="42.77545" lon="-0.43839">
        <ele>2165.5070800781</ele>
        <time>2015-08-11T13:02:09Z</time>
      </trkpt>
      <trkpt lat="42.77541" lon="-0.43818">
        <ele>2162.1423339844</ele>
        <time>2015-08-11T13:02:30Z</time>
      </trkpt>
      <trkpt lat="42.77542" lon="-0.43811">
        <ele>2161.1811523438</ele>
        <time>2015-08-11T13:02:36Z</time>
      </trkpt>
      <trkpt lat="42.77533" lon="-0.4381">
        <ele>2158.2971191406</ele>
        <time>2015-08-11T13:02:52Z</time>
      </trkpt>
      <trkpt lat="42.77529" lon="-0.438">
        <ele>2156.3745117188</ele>
        <time>2015-08-11T13:03:07Z</time>
      </trkpt>
      <trkpt lat="42.77523" lon="-0.43802">
        <ele>2153.009765625</ele>
        <time>2015-08-11T13:03:21Z</time>
      </trkpt>
      <trkpt lat="42.77516" lon="-0.43801">
        <ele>2151.0871582031</ele>
        <time>2015-08-11T13:03:34Z</time>
      </trkpt>
      <trkpt lat="42.77508" lon="-0.43794">
        <ele>2149.1645507812</ele>
        <time>2015-08-11T13:03:48Z</time>
      </trkpt>
      <trkpt lat="42.77499" lon="-0.43791">
        <ele>2145.8000488281</ele>
        <time>2015-08-11T13:04:02Z</time>
      </trkpt>
      <trkpt lat="42.77499" lon="-0.4379">
        <ele>2145.8000488281</ele>
        <time>2015-08-11T13:04:03Z</time>
      </trkpt>
      <trkpt lat="42.77496" lon="-0.43788">
        <ele>2144.3579101562</ele>
        <time>2015-08-11T13:04:08Z</time>
      </trkpt>
      <trkpt lat="42.77493" lon="-0.43774">
        <ele>2142.435546875</ele>
        <time>2015-08-11T13:04:23Z</time>
      </trkpt>
      <trkpt lat="42.7749" lon="-0.43751">
        <ele>2138.5900878906</ele>
        <time>2015-08-11T13:04:40Z</time>
      </trkpt>
      <trkpt lat="42.7749" lon="-0.43746">
        <ele>2139.0705566406</ele>
        <time>2015-08-11T13:04:47Z</time>
      </trkpt>
      <trkpt lat="42.77487" lon="-0.43753">
        <ele>2137.6286621094</ele>
        <time>2015-08-11T13:04:52Z</time>
      </trkpt>
      <trkpt lat="42.7748" lon="-0.43755">
        <ele>2136.1867675781</ele>
        <time>2015-08-11T13:05:04Z</time>
      </trkpt>
      <trkpt lat="42.77479" lon="-0.43753">
        <ele>2134.7448730469</ele>
        <time>2015-08-11T13:05:08Z</time>
      </trkpt>
      <trkpt lat="42.77479" lon="-0.43743">
        <ele>2131.3801269531</ele>
        <time>2015-08-11T13:05:25Z</time>
      </trkpt>
      <trkpt lat="42.77478" lon="-0.43738">
        <ele>2130.4189453125</ele>
        <time>2015-08-11T13:05:39Z</time>
      </trkpt>
      <trkpt lat="42.77479" lon="-0.43732">
        <ele>2127.5349121094</ele>
        <time>2015-08-11T13:05:46Z</time>
      </trkpt>
      <trkpt lat="42.77479" lon="-0.43725">
        <ele>2126.5737304688</ele>
        <time>2015-08-11T13:05:53Z</time>
      </trkpt>
      <trkpt lat="42.77476" lon="-0.43696">
        <ele>2124.6511230469</ele>
        <time>2015-08-11T13:06:13Z</time>
      </trkpt>
      <trkpt lat="42.77471" lon="-0.43674">
        <ele>2121.2861328125</ele>
        <time>2015-08-11T13:06:29Z</time>
      </trkpt>
      <trkpt lat="42.77471" lon="-0.43673">
        <ele>2121.7668457031</ele>
        <time>2015-08-11T13:06:30Z</time>
      </trkpt>
      <trkpt lat="42.7747" lon="-0.43665">
        <ele>2117.9216308594</ele>
        <time>2015-08-11T13:06:41Z</time>
      </trkpt>
      <trkpt lat="42.7747" lon="-0.43665">
        <ele>2117.4409179688</ele>
        <time>2015-08-11T13:06:42Z</time>
      </trkpt>
      <trkpt lat="42.77472" lon="-0.43654">
        <ele>2115.9990234375</ele>
        <time>2015-08-11T13:06:57Z</time>
      </trkpt>
      <trkpt lat="42.77468" lon="-0.43647">
        <ele>2113.595703125</ele>
        <time>2015-08-11T13:07:10Z</time>
      </trkpt>
      <trkpt lat="42.77465" lon="-0.43638">
        <ele>2110.7119140625</ele>
        <time>2015-08-11T13:07:24Z</time>
      </trkpt>
      <trkpt lat="42.77466" lon="-0.43634">
        <ele>2109.2700195312</ele>
        <time>2015-08-11T13:07:28Z</time>
      </trkpt>
      <trkpt lat="42.77467" lon="-0.43628">
        <ele>2105.9050292969</ele>
        <time>2015-08-11T13:07:35Z</time>
      </trkpt>
      <trkpt lat="42.77467" lon="-0.43615">
        <ele>2103.9826660156</ele>
        <time>2015-08-11T13:07:50Z</time>
      </trkpt>
      <trkpt lat="42.77467" lon="-0.43611">
        <ele>2103.0212402344</ele>
        <time>2015-08-11T13:07:54Z</time>
      </trkpt>
      <trkpt lat="42.77471" lon="-0.43599">
        <ele>2099.1760253906</ele>
        <time>2015-08-11T13:08:06Z</time>
      </trkpt>
      <trkpt lat="42.77471" lon="-0.43598">
        <ele>2099.1760253906</ele>
        <time>2015-08-11T13:08:07Z</time>
      </trkpt>
      <trkpt lat="42.77472" lon="-0.43596">
        <ele>2098.6953125</ele>
        <time>2015-08-11T13:08:10Z</time>
      </trkpt>
      <trkpt lat="42.77478" lon="-0.43583">
        <ele>2094.8500976562</ele>
        <time>2015-08-11T13:08:22Z</time>
      </trkpt>
      <trkpt lat="42.77481" lon="-0.43573">
        <ele>2092.9274902344</ele>
        <time>2015-08-11T13:08:32Z</time>
      </trkpt>
      <trkpt lat="42.77485" lon="-0.43565">
        <ele>2091.0046386719</ele>
        <time>2015-08-11T13:08:44Z</time>
      </trkpt>
      <trkpt lat="42.77483" lon="-0.43564">
        <ele>2089.08203125</ele>
        <time>2015-08-11T13:08:50Z</time>
      </trkpt>
      <trkpt lat="42.77484" lon="-0.43554">
        <ele>2085.7175292969</ele>
        <time>2015-08-11T13:09:03Z</time>
      </trkpt>
      <trkpt lat="42.77483" lon="-0.43549">
        <ele>2083.794921875</ele>
        <time>2015-08-11T13:09:11Z</time>
      </trkpt>
      <trkpt lat="42.77482" lon="-0.43544">
        <ele>2083.3142089844</ele>
        <time>2015-08-11T13:09:15Z</time>
      </trkpt>
      <trkpt lat="42.77482" lon="-0.43532">
        <ele>2079.9497070312</ele>
        <time>2015-08-11T13:09:26Z</time>
      </trkpt>
      <trkpt lat="42.77482" lon="-0.43531">
        <ele>2079.9497070312</ele>
        <time>2015-08-11T13:09:27Z</time>
      </trkpt>
      <trkpt lat="42.77479" lon="-0.43525">
        <ele>2080.4304199219</ele>
        <time>2015-08-11T13:09:33Z</time>
      </trkpt>
      <trkpt lat="42.7748" lon="-0.43521">
        <ele>2080.4304199219</ele>
        <time>2015-08-11T13:09:36Z</time>
      </trkpt>
      <trkpt lat="42.77484" lon="-0.43511">
        <ele>2078.98828125</ele>
        <time>2015-08-11T13:09:44Z</time>
      </trkpt>
      <trkpt lat="42.77482" lon="-0.43508">
        <ele>2078.98828125</ele>
        <time>2015-08-11T13:09:59Z</time>
      </trkpt>
      <trkpt lat="42.77482" lon="-0.43508">
        <ele>2078.5078125</ele>
        <time>2015-08-11T13:10:29Z</time>
      </trkpt>
      <trkpt lat="42.77484" lon="-0.43508">
        <ele>2078.98828125</ele>
        <time>2015-08-11T13:10:59Z</time>
      </trkpt>
      <trkpt lat="42.77483" lon="-0.435">
        <ele>2078.0270996094</ele>
        <time>2015-08-11T13:11:22Z</time>
      </trkpt>
      <trkpt lat="42.77479" lon="-0.43496">
        <ele>2078.0270996094</ele>
        <time>2015-08-11T13:11:37Z</time>
      </trkpt>
      <trkpt lat="42.77478" lon="-0.43489">
        <ele>2075.1428222656</ele>
        <time>2015-08-11T13:11:51Z</time>
      </trkpt>
      <trkpt lat="42.77473" lon="-0.43482">
        <ele>2073.7009277344</ele>
        <time>2015-08-11T13:12:00Z</time>
      </trkpt>
      <trkpt lat="42.77469" lon="-0.43479">
        <ele>2073.7009277344</ele>
        <time>2015-08-11T13:12:04Z</time>
      </trkpt>
      <trkpt lat="42.77472" lon="-0.43465">
        <ele>2072.2590332031</ele>
        <time>2015-08-11T13:12:20Z</time>
      </trkpt>
      <trkpt lat="42.77474" lon="-0.43452">
        <ele>2070.8171386719</ele>
        <time>2015-08-11T13:12:35Z</time>
      </trkpt>
      <trkpt lat="42.77476" lon="-0.43443">
        <ele>2067.4523925781</ele>
        <time>2015-08-11T13:12:45Z</time>
      </trkpt>
      <trkpt lat="42.77475" lon="-0.43421">
        <ele>2067.4523925781</ele>
        <time>2015-08-11T13:13:00Z</time>
      </trkpt>
      <trkpt lat="42.77483" lon="-0.43402">
        <ele>2066.4912109375</ele>
        <time>2015-08-11T13:13:16Z</time>
      </trkpt>
      <trkpt lat="42.77483" lon="-0.43394">
        <ele>2064.5686035156</ele>
        <time>2015-08-11T13:13:32Z</time>
      </trkpt>
      <trkpt lat="42.77481" lon="-0.43388">
        <ele>2062.1652832031</ele>
        <time>2015-08-11T13:13:40Z</time>
      </trkpt>
      <trkpt lat="42.77482" lon="-0.43382">
        <ele>2060.2426757812</ele>
        <time>2015-08-11T13:13:45Z</time>
      </trkpt>
      <trkpt lat="42.77481" lon="-0.43375">
        <ele>2058.3198242188</ele>
        <time>2015-08-11T13:13:58Z</time>
      </trkpt>
      <trkpt lat="42.77477" lon="-0.43366">
        <ele>2056.8779296875</ele>
        <time>2015-08-11T13:14:13Z</time>
      </trkpt>
      <trkpt lat="42.77477" lon="-0.43364">
        <ele>2054.9553222656</ele>
        <time>2015-08-11T13:14:16Z</time>
      </trkpt>
      <trkpt lat="42.7748" lon="-0.43353">
        <ele>2053.0327148438</ele>
        <time>2015-08-11T13:14:32Z</time>
      </trkpt>
      <trkpt lat="42.77482" lon="-0.43349">
        <ele>2051.5908203125</ele>
        <time>2015-08-11T13:14:37Z</time>
      </trkpt>
      <trkpt lat="42.77478" lon="-0.43329">
        <ele>2049.1875</ele>
        <time>2015-08-11T13:14:57Z</time>
      </trkpt>
      <trkpt lat="42.77484" lon="-0.43314">
        <ele>2046.3037109375</ele>
        <time>2015-08-11T13:15:15Z</time>
      </trkpt>
      <trkpt lat="42.77484" lon="-0.43302">
        <ele>2042.4582519531</ele>
        <time>2015-08-11T13:15:27Z</time>
      </trkpt>
      <trkpt lat="42.77491" lon="-0.43293">
        <ele>2039.57421875</ele>
        <time>2015-08-11T13:15:43Z</time>
      </trkpt>
      <trkpt lat="42.77492" lon="-0.43286">
        <ele>2038.1323242188</ele>
        <time>2015-08-11T13:15:51Z</time>
      </trkpt>
      <trkpt lat="42.77495" lon="-0.43269">
        <ele>2036.6901855469</ele>
        <time>2015-08-11T13:16:05Z</time>
      </trkpt>
      <trkpt lat="42.77497" lon="-0.43261">
        <ele>2034.7678222656</ele>
        <time>2015-08-11T13:16:16Z</time>
      </trkpt>
      <trkpt lat="42.77497" lon="-0.43248">
        <ele>2031.4030761719</ele>
        <time>2015-08-11T13:16:28Z</time>
      </trkpt>
      <trkpt lat="42.77496" lon="-0.43243">
        <ele>2030.9226074219</ele>
        <time>2015-08-11T13:16:48Z</time>
      </trkpt>
      <trkpt lat="42.77495" lon="-0.43244">
        <ele>2030.4418945312</ele>
        <time>2015-08-11T13:16:58Z</time>
      </trkpt>
      <trkpt lat="42.77497" lon="-0.43234">
        <ele>2028.5192871094</ele>
        <time>2015-08-11T13:17:11Z</time>
      </trkpt>
      <trkpt lat="42.77498" lon="-0.43232">
        <ele>2027.5576171875</ele>
        <time>2015-08-11T13:17:13Z</time>
      </trkpt>
      <trkpt lat="42.77503" lon="-0.43212">
        <ele>2025.154296875</ele>
        <time>2015-08-11T13:17:31Z</time>
      </trkpt>
      <trkpt lat="42.77503" lon="-0.43195">
        <ele>2021.3090820312</ele>
        <time>2015-08-11T13:17:44Z</time>
      </trkpt>
      <trkpt lat="42.77505" lon="-0.43167">
        <ele>2019.38671875</ele>
        <time>2015-08-11T13:18:03Z</time>
      </trkpt>
      <trkpt lat="42.77504" lon="-0.43136">
        <ele>2016.0219726562</ele>
        <time>2015-08-11T13:18:23Z</time>
      </trkpt>
      <trkpt lat="42.77508" lon="-0.4312">
        <ele>2013.6186523438</ele>
        <time>2015-08-11T13:18:35Z</time>
      </trkpt>
      <trkpt lat="42.77509" lon="-0.43108">
        <ele>2011.2153320312</ele>
        <time>2015-08-11T13:18:49Z</time>
      </trkpt>
      <trkpt lat="42.77509" lon="-0.43103">
        <ele>2011.6960449219</ele>
        <time>2015-08-11T13:18:54Z</time>
      </trkpt>
      <trkpt lat="42.77501" lon="-0.43088">
        <ele>2010.25390625</ele>
        <time>2015-08-11T13:19:07Z</time>
      </trkpt>
      <trkpt lat="42.77494" lon="-0.43085">
        <ele>2008.3312988281</ele>
        <time>2015-08-11T13:19:15Z</time>
      </trkpt>
      <trkpt lat="42.77496" lon="-0.43081">
        <ele>2007.8508300781</ele>
        <time>2015-08-11T13:19:20Z</time>
      </trkpt>
      <trkpt lat="42.77494" lon="-0.43074">
        <ele>2008.8120117188</ele>
        <time>2015-08-11T13:19:27Z</time>
      </trkpt>
      <trkpt lat="42.77483" lon="-0.43057">
        <ele>2006.4086914062</ele>
        <time>2015-08-11T13:19:44Z</time>
      </trkpt>
      <trkpt lat="42.77479" lon="-0.43048">
        <ele>2005.4475097656</ele>
        <time>2015-08-11T13:19:52Z</time>
      </trkpt>
      <trkpt lat="42.77474" lon="-0.4302">
        <ele>2003.5249023438</ele>
        <time>2015-08-11T13:20:14Z</time>
      </trkpt>
      <trkpt lat="42.77473" lon="-0.43006">
        <ele>2001.6022949219</ele>
        <time>2015-08-11T13:20:28Z</time>
      </trkpt>
      <trkpt lat="42.77474" lon="-0.42989">
        <ele>1999.1989746094</ele>
        <time>2015-08-11T13:20:45Z</time>
      </trkpt>
      <trkpt lat="42.77472" lon="-0.42981">
        <ele>1997.7570800781</ele>
        <time>2015-08-11T13:20:52Z</time>
      </trkpt>
      <trkpt lat="42.77465" lon="-0.42956">
        <ele>1994.8728027344</ele>
        <time>2015-08-11T13:21:10Z</time>
      </trkpt>
      <trkpt lat="42.77461" lon="-0.42932">
        <ele>1993.9116210938</ele>
        <time>2015-08-11T13:21:26Z</time>
      </trkpt>
      <trkpt lat="42.77457" lon="-0.4291">
        <ele>1992.4697265625</ele>
        <time>2015-08-11T13:21:43Z</time>
      </trkpt>
      <trkpt lat="42.77452" lon="-0.42897">
        <ele>1990.546875</ele>
        <time>2015-08-11T13:21:59Z</time>
      </trkpt>
      <trkpt lat="42.77447" lon="-0.42884">
        <ele>1987.6630859375</ele>
        <time>2015-08-11T13:22:14Z</time>
      </trkpt>
      <trkpt lat="42.77439" lon="-0.42875">
        <ele>1984.2985839844</ele>
        <time>2015-08-11T13:22:28Z</time>
      </trkpt>
      <trkpt lat="42.77435" lon="-0.42864">
        <ele>1981.8952636719</ele>
        <time>2015-08-11T13:22:38Z</time>
      </trkpt>
      <trkpt lat="42.7743" lon="-0.42849">
        <ele>1978.5305175781</ele>
        <time>2015-08-11T13:22:54Z</time>
      </trkpt>
      <trkpt lat="42.7743" lon="-0.42848">
        <ele>1978.5305175781</ele>
        <time>2015-08-11T13:22:55Z</time>
      </trkpt>
      <trkpt lat="42.77429" lon="-0.42843">
        <ele>1976.6079101562</ele>
        <time>2015-08-11T13:23:01Z</time>
      </trkpt>
      <trkpt lat="42.77427" lon="-0.4284">
        <ele>1976.1271972656</ele>
        <time>2015-08-11T13:23:05Z</time>
      </trkpt>
      <trkpt lat="42.77426" lon="-0.42837">
        <ele>1974.6853027344</ele>
        <time>2015-08-11T13:23:08Z</time>
      </trkpt>
      <trkpt lat="42.77424" lon="-0.4283">
        <ele>1971.3205566406</ele>
        <time>2015-08-11T13:23:18Z</time>
      </trkpt>
      <trkpt lat="42.77416" lon="-0.4282">
        <ele>1968.4367675781</ele>
        <time>2015-08-11T13:23:33Z</time>
      </trkpt>
      <trkpt lat="42.77411" lon="-0.4281">
        <ele>1966.0334472656</ele>
        <time>2015-08-11T13:23:44Z</time>
      </trkpt>
      <trkpt lat="42.77408" lon="-0.42795">
        <ele>1964.5915527344</ele>
        <time>2015-08-11T13:24:01Z</time>
      </trkpt>
      <trkpt lat="42.77404" lon="-0.42784">
        <ele>1961.7075195312</ele>
        <time>2015-08-11T13:24:15Z</time>
      </trkpt>
      <trkpt lat="42.77402" lon="-0.42776">
        <ele>1960.2653808594</ele>
        <time>2015-08-11T13:24:23Z</time>
      </trkpt>
      <trkpt lat="42.77399" lon="-0.42766">
        <ele>1958.3427734375</ele>
        <time>2015-08-11T13:24:37Z</time>
      </trkpt>
      <trkpt lat="42.77398" lon="-0.42754">
        <ele>1956.4201660156</ele>
        <time>2015-08-11T13:24:52Z</time>
      </trkpt>
      <trkpt lat="42.77392" lon="-0.42752">
        <ele>1954.4975585938</ele>
        <time>2015-08-11T13:25:03Z</time>
      </trkpt>
      <trkpt lat="42.77391" lon="-0.42737">
        <ele>1951.1330566406</ele>
        <time>2015-08-11T13:25:15Z</time>
      </trkpt>
      <trkpt lat="42.7739" lon="-0.42728">
        <ele>1948.7297363281</ele>
        <time>2015-08-11T13:25:22Z</time>
      </trkpt>
      <trkpt lat="42.77388" lon="-0.42717">
        <ele>1947.2875976562</ele>
        <time>2015-08-11T13:25:37Z</time>
      </trkpt>
      <trkpt lat="42.77387" lon="-0.42708">
        <ele>1944.8842773438</ele>
        <time>2015-08-11T13:25:47Z</time>
      </trkpt>
      <trkpt lat="42.77386" lon="-0.42697">
        <ele>1942.4812011719</ele>
        <time>2015-08-11T13:26:00Z</time>
      </trkpt>
      <trkpt lat="42.77381" lon="-0.4269">
        <ele>1940.0778808594</ele>
        <time>2015-08-11T13:26:14Z</time>
      </trkpt>
      <trkpt lat="42.7738" lon="-0.42684">
        <ele>1937.6745605469</ele>
        <time>2015-08-11T13:26:27Z</time>
      </trkpt>
      <trkpt lat="42.77379" lon="-0.42674">
        <ele>1934.7907714844</ele>
        <time>2015-08-11T13:26:41Z</time>
      </trkpt>
      <trkpt lat="42.77376" lon="-0.42662">
        <ele>1931.42578125</ele>
        <time>2015-08-11T13:26:59Z</time>
      </trkpt>
      <trkpt lat="42.77376" lon="-0.42656">
        <ele>1930.9453125</ele>
        <time>2015-08-11T13:27:17Z</time>
      </trkpt>
      <trkpt lat="42.77375" lon="-0.42648">
        <ele>1930.9453125</ele>
        <time>2015-08-11T13:27:27Z</time>
      </trkpt>
      <trkpt lat="42.77374" lon="-0.42646">
        <ele>1929.9838867188</ele>
        <time>2015-08-11T13:27:29Z</time>
      </trkpt>
      <trkpt lat="42.77374" lon="-0.42629">
        <ele>1928.5419921875</ele>
        <time>2015-08-11T13:27:44Z</time>
      </trkpt>
      <trkpt lat="42.77369" lon="-0.42597">
        <ele>1926.6193847656</ele>
        <time>2015-08-11T13:28:06Z</time>
      </trkpt>
      <trkpt lat="42.77371" lon="-0.4257">
        <ele>1925.6579589844</ele>
        <time>2015-08-11T13:28:25Z</time>
      </trkpt>
      <trkpt lat="42.77377" lon="-0.42536">
        <ele>1924.2160644531</ele>
        <time>2015-08-11T13:28:47Z</time>
      </trkpt>
      <trkpt lat="42.77376" lon="-0.42505">
        <ele>1923.7353515625</ele>
        <time>2015-08-11T13:29:08Z</time>
      </trkpt>
      <trkpt lat="42.77372" lon="-0.42484">
        <ele>1923.2548828125</ele>
        <time>2015-08-11T13:29:24Z</time>
      </trkpt>
      <trkpt lat="42.7737" lon="-0.4248">
        <ele>1921.8127441406</ele>
        <time>2015-08-11T13:29:27Z</time>
      </trkpt>
      <trkpt lat="42.77361" lon="-0.42463">
        <ele>1919.4096679688</ele>
        <time>2015-08-11T13:29:43Z</time>
      </trkpt>
      <trkpt lat="42.77352" lon="-0.42444">
        <ele>1918.9289550781</ele>
        <time>2015-08-11T13:30:02Z</time>
      </trkpt>
      <trkpt lat="42.77352" lon="-0.42441">
        <ele>1918.9289550781</ele>
        <time>2015-08-11T13:30:05Z</time>
      </trkpt>
      <trkpt lat="42.77354" lon="-0.42429">
        <ele>1917.9675292969</ele>
        <time>2015-08-11T13:30:16Z</time>
      </trkpt>
      <trkpt lat="42.77357" lon="-0.42422">
        <ele>1916.5256347656</ele>
        <time>2015-08-11T13:30:22Z</time>
      </trkpt>
      <trkpt lat="42.7736" lon="-0.42413">
        <ele>1917.4868164062</ele>
        <time>2015-08-11T13:30:29Z</time>
      </trkpt>
      <trkpt lat="42.7736" lon="-0.42405">
        <ele>1917.0063476562</ele>
        <time>2015-08-11T13:30:36Z</time>
      </trkpt>
      <trkpt lat="42.77357" lon="-0.424">
        <ele>1917.4868164062</ele>
        <time>2015-08-11T13:30:48Z</time>
      </trkpt>
      <trkpt lat="42.77357" lon="-0.42398">
        <ele>1917.0063476562</ele>
        <time>2015-08-11T13:30:50Z</time>
      </trkpt>
      <trkpt lat="42.77358" lon="-0.42388">
        <ele>1915.5642089844</ele>
        <time>2015-08-11T13:30:57Z</time>
      </trkpt>
      <trkpt lat="42.77353" lon="-0.42365">
        <ele>1914.6027832031</ele>
        <time>2015-08-11T13:31:13Z</time>
      </trkpt>
      <trkpt lat="42.77353" lon="-0.42363">
        <ele>1914.6027832031</ele>
        <time>2015-08-11T13:31:14Z</time>
      </trkpt>
      <trkpt lat="42.77351" lon="-0.42336">
        <ele>1912.1994628906</ele>
        <time>2015-08-11T13:31:31Z</time>
      </trkpt>
      <trkpt lat="42.77356" lon="-0.42304">
        <ele>1912.6801757812</ele>
        <time>2015-08-11T13:31:51Z</time>
      </trkpt>
      <trkpt lat="42.77357" lon="-0.42287">
        <ele>1910.7575683594</ele>
        <time>2015-08-11T13:32:05Z</time>
      </trkpt>
      <trkpt lat="42.77361" lon="-0.42265">
        <ele>1909.3156738281</ele>
        <time>2015-08-11T13:32:20Z</time>
      </trkpt>
      <trkpt lat="42.77363" lon="-0.42248">
        <ele>1907.8737792969</ele>
        <time>2015-08-11T13:32:35Z</time>
      </trkpt>
      <trkpt lat="42.77366" lon="-0.42237">
        <ele>1905.9509277344</ele>
        <time>2015-08-11T13:32:51Z</time>
      </trkpt>
      <trkpt lat="42.77365" lon="-0.42227">
        <ele>1904.9897460938</ele>
        <time>2015-08-11T13:33:01Z</time>
      </trkpt>
      <trkpt lat="42.77364" lon="-0.4222">
        <ele>1902.1057128906</ele>
        <time>2015-08-11T13:33:10Z</time>
      </trkpt>
      <trkpt lat="42.77361" lon="-0.42209">
        <ele>1899.7023925781</ele>
        <time>2015-08-11T13:33:24Z</time>
      </trkpt>
      <trkpt lat="42.77361" lon="-0.42201">
        <ele>1897.2990722656</ele>
        <time>2015-08-11T13:33:39Z</time>
      </trkpt>
      <trkpt lat="42.77361" lon="-0.42197">
        <ele>1895.8571777344</ele>
        <time>2015-08-11T13:33:44Z</time>
      </trkpt>
      <trkpt lat="42.77356" lon="-0.42188">
        <ele>1892.9731445312</ele>
        <time>2015-08-11T13:33:58Z</time>
      </trkpt>
      <trkpt lat="42.77356" lon="-0.42188">
        <ele>1892.4926757812</ele>
        <time>2015-08-11T13:33:59Z</time>
      </trkpt>
      <trkpt lat="42.77353" lon="-0.42179">
        <ele>1890.5698242188</ele>
        <time>2015-08-11T13:34:13Z</time>
      </trkpt>
      <trkpt lat="42.77351" lon="-0.42166">
        <ele>1887.6860351562</ele>
        <time>2015-08-11T13:34:26Z</time>
      </trkpt>
      <trkpt lat="42.77347" lon="-0.42156">
        <ele>1884.3215332031</ele>
        <time>2015-08-11T13:34:36Z</time>
      </trkpt>
      <trkpt lat="42.77339" lon="-0.42144">
        <ele>1883.3598632812</ele>
        <time>2015-08-11T13:34:51Z</time>
      </trkpt>
      <trkpt lat="42.77336" lon="-0.42129">
        <ele>1879.5146484375</ele>
        <time>2015-08-11T13:35:05Z</time>
      </trkpt>
      <trkpt lat="42.77335" lon="-0.42114">
        <ele>1877.5920410156</ele>
        <time>2015-08-11T13:35:21Z</time>
      </trkpt>
      <trkpt lat="42.77334" lon="-0.42102">
        <ele>1875.6694335938</ele>
        <time>2015-08-11T13:35:36Z</time>
      </trkpt>
      <trkpt lat="42.77333" lon="-0.42092">
        <ele>1873.7468261719</ele>
        <time>2015-08-11T13:35:53Z</time>
      </trkpt>
      <trkpt lat="42.77332" lon="-0.42081">
        <ele>1873.2663574219</ele>
        <time>2015-08-11T13:36:08Z</time>
      </trkpt>
      <trkpt lat="42.77331" lon="-0.42067">
        <ele>1871.3435058594</ele>
        <time>2015-08-11T13:36:24Z</time>
      </trkpt>
      <trkpt lat="42.7733" lon="-0.42053">
        <ele>1868.9404296875</ele>
        <time>2015-08-11T13:36:39Z</time>
      </trkpt>
      <trkpt lat="42.77329" lon="-0.42044">
        <ele>1866.5368652344</ele>
        <time>2015-08-11T13:36:53Z</time>
      </trkpt>
      <trkpt lat="42.7733" lon="-0.42031">
        <ele>1863.1723632812</ele>
        <time>2015-08-11T13:37:07Z</time>
      </trkpt>
      <trkpt lat="42.77329" lon="-0.42012">
        <ele>1860.2883300781</ele>
        <time>2015-08-11T13:37:25Z</time>
      </trkpt>
      <trkpt lat="42.77329" lon="-0.41991">
        <ele>1856.923828125</ele>
        <time>2015-08-11T13:37:44Z</time>
      </trkpt>
      <trkpt lat="42.77326" lon="-0.41978">
        <ele>1855.4819335938</ele>
        <time>2015-08-11T13:38:00Z</time>
      </trkpt>
      <trkpt lat="42.77324" lon="-0.41976">
        <ele>1855.0012207031</ele>
        <time>2015-08-11T13:38:03Z</time>
      </trkpt>
      <trkpt lat="42.77323" lon="-0.41966">
        <ele>1853.0786132812</ele>
        <time>2015-08-11T13:38:11Z</time>
      </trkpt>
      <trkpt lat="42.77323" lon="-0.41965">
        <ele>1853.0786132812</ele>
        <time>2015-08-11T13:38:12Z</time>
      </trkpt>
      <trkpt lat="42.77317" lon="-0.41952">
        <ele>1849.7138671875</ele>
        <time>2015-08-11T13:38:29Z</time>
      </trkpt>
      <trkpt lat="42.77318" lon="-0.41938">
        <ele>1847.310546875</ele>
        <time>2015-08-11T13:38:44Z</time>
      </trkpt>
      <trkpt lat="42.77313" lon="-0.4193">
        <ele>1844.4265136719</ele>
        <time>2015-08-11T13:39:00Z</time>
      </trkpt>
      <trkpt lat="42.77309" lon="-0.41922">
        <ele>1841.5427246094</ele>
        <time>2015-08-11T13:39:12Z</time>
      </trkpt>
      <trkpt lat="42.77309" lon="-0.41906">
        <ele>1840.1008300781</ele>
        <time>2015-08-11T13:39:29Z</time>
      </trkpt>
      <trkpt lat="42.77307" lon="-0.41903">
        <ele>1840.1008300781</ele>
        <time>2015-08-11T13:39:32Z</time>
      </trkpt>
      <trkpt lat="42.77309" lon="-0.4188">
        <ele>1837.6975097656</ele>
        <time>2015-08-11T13:39:49Z</time>
      </trkpt>
      <trkpt lat="42.77309" lon="-0.41875">
        <ele>1837.6975097656</ele>
        <time>2015-08-11T13:39:53Z</time>
      </trkpt>
      <trkpt lat="42.77311" lon="-0.41859">
        <ele>1837.216796875</ele>
        <time>2015-08-11T13:40:09Z</time>
      </trkpt>
      <trkpt lat="42.77314" lon="-0.41847">
        <ele>1836.7360839844</ele>
        <time>2015-08-11T13:40:23Z</time>
      </trkpt>
      <trkpt lat="42.77317" lon="-0.41838">
        <ele>1836.7360839844</ele>
        <time>2015-08-11T13:40:35Z</time>
      </trkpt>
      <trkpt lat="42.7732" lon="-0.41829">
        <ele>1836.2556152344</ele>
        <time>2015-08-11T13:40:48Z</time>
      </trkpt>
      <trkpt lat="42.77328" lon="-0.41827">
        <ele>1834.8134765625</ele>
        <time>2015-08-11T13:41:01Z</time>
      </trkpt>
      <trkpt lat="42.7733" lon="-0.41823">
        <ele>1834.8134765625</ele>
        <time>2015-08-11T13:41:16Z</time>
      </trkpt>
      <trkpt lat="42.77331" lon="-0.41812">
        <ele>1834.3327636719</ele>
        <time>2015-08-11T13:41:42Z</time>
      </trkpt>
      <trkpt lat="42.77335" lon="-0.41803">
        <ele>1833.3713378906</ele>
        <time>2015-08-11T13:41:52Z</time>
      </trkpt>
      <trkpt lat="42.77336" lon="-0.41792">
        <ele>1833.8520507812</ele>
        <time>2015-08-11T13:42:00Z</time>
      </trkpt>
      <trkpt lat="42.77345" lon="-0.41778">
        <ele>1832.890625</ele>
        <time>2015-08-11T13:42:16Z</time>
      </trkpt>
      <trkpt lat="42.77357" lon="-0.41766">
        <ele>1832.41015625</ele>
        <time>2015-08-11T13:42:32Z</time>
      </trkpt>
      <trkpt lat="42.77369" lon="-0.4176">
        <ele>1832.890625</ele>
        <time>2015-08-11T13:42:46Z</time>
      </trkpt>
      <trkpt lat="42.7737" lon="-0.4176">
        <ele>1833.8520507812</ele>
        <time>2015-08-11T13:42:47Z</time>
      </trkpt>
      <trkpt lat="42.77376" lon="-0.41753">
        <ele>1833.8520507812</ele>
        <time>2015-08-11T13:42:55Z</time>
      </trkpt>
      <trkpt lat="42.77385" lon="-0.41738">
        <ele>1830.9682617188</ele>
        <time>2015-08-11T13:43:14Z</time>
      </trkpt>
      <trkpt lat="42.77388" lon="-0.41738">
        <ele>1830.9682617188</ele>
        <time>2015-08-11T13:43:18Z</time>
      </trkpt>
      <trkpt lat="42.7739" lon="-0.41735">
        <ele>1830.9682617188</ele>
        <time>2015-08-11T13:43:22Z</time>
      </trkpt>
      <trkpt lat="42.77395" lon="-0.41733">
        <ele>1831.9294433594</ele>
        <time>2015-08-11T13:43:28Z</time>
      </trkpt>
      <trkpt lat="42.77403" lon="-0.4174">
        <ele>1830.4875488281</ele>
        <time>2015-08-11T13:43:42Z</time>
      </trkpt>
      <trkpt lat="42.7741" lon="-0.41741">
        <ele>1830.4875488281</ele>
        <time>2015-08-11T13:43:51Z</time>
      </trkpt>
      <trkpt lat="42.77413" lon="-0.41742">
        <ele>1830.4875488281</ele>
        <time>2015-08-11T13:43:54Z</time>
      </trkpt>
      <trkpt lat="42.77429" lon="-0.41737">
        <ele>1830.0068359375</ele>
        <time>2015-08-11T13:44:12Z</time>
      </trkpt>
      <trkpt lat="42.77439" lon="-0.41734">
        <ele>1828.5649414062</ele>
        <time>2015-08-11T13:44:25Z</time>
      </trkpt>
      <trkpt lat="42.77451" lon="-0.41728">
        <ele>1827.123046875</ele>
        <time>2015-08-11T13:44:41Z</time>
      </trkpt>
      <trkpt lat="42.77453" lon="-0.41729">
        <ele>1826.6423339844</ele>
        <time>2015-08-11T13:44:44Z</time>
      </trkpt>
      <trkpt lat="42.77457" lon="-0.41728">
        <ele>1828.0842285156</ele>
        <time>2015-08-11T13:44:49Z</time>
      </trkpt>
      <trkpt lat="42.77465" lon="-0.41717">
        <ele>1825.2001953125</ele>
        <time>2015-08-11T13:45:06Z</time>
      </trkpt>
      <trkpt lat="42.77466" lon="-0.41717">
        <ele>1825.2001953125</ele>
        <time>2015-08-11T13:45:07Z</time>
      </trkpt>
      <trkpt lat="42.77471" lon="-0.41711">
        <ele>1825.2001953125</ele>
        <time>2015-08-11T13:45:15Z</time>
      </trkpt>
      <trkpt lat="42.77483" lon="-0.41707">
        <ele>1822.7971191406</ele>
        <time>2015-08-11T13:45:31Z</time>
      </trkpt>
      <trkpt lat="42.77489" lon="-0.41701">
        <ele>1821.3549804688</ele>
        <time>2015-08-11T13:45:42Z</time>
      </trkpt>
      <trkpt lat="42.77498" lon="-0.41698">
        <ele>1820.8745117188</ele>
        <time>2015-08-11T13:45:59Z</time>
      </trkpt>
      <trkpt lat="42.77512" lon="-0.41691">
        <ele>1817.990234375</ele>
        <time>2015-08-11T13:46:16Z</time>
      </trkpt>
      <trkpt lat="42.77532" lon="-0.41685">
        <ele>1819.4323730469</ele>
        <time>2015-08-11T13:46:35Z</time>
      </trkpt>
      <trkpt lat="42.7755" lon="-0.41681">
        <ele>1821.3549804688</ele>
        <time>2015-08-11T13:46:54Z</time>
      </trkpt>
      <trkpt lat="42.77565" lon="-0.41674">
        <ele>1819.9128417969</ele>
        <time>2015-08-11T13:47:12Z</time>
      </trkpt>
      <trkpt lat="42.77583" lon="-0.41675">
        <ele>1818.9516601562</ele>
        <time>2015-08-11T13:47:30Z</time>
      </trkpt>
      <trkpt lat="42.77593" lon="-0.41675">
        <ele>1818.9516601562</ele>
        <time>2015-08-11T13:47:41Z</time>
      </trkpt>
      <trkpt lat="42.77607" lon="-0.41673">
        <ele>1816.0676269531</ele>
        <time>2015-08-11T13:47:56Z</time>
      </trkpt>
      <trkpt lat="42.77621" lon="-0.41672">
        <ele>1816.5483398438</ele>
        <time>2015-08-11T13:48:11Z</time>
      </trkpt>
      <trkpt lat="42.77642" lon="-0.41666">
        <ele>1816.5483398438</ele>
        <time>2015-08-11T13:48:32Z</time>
      </trkpt>
      <trkpt lat="42.77644" lon="-0.41664">
        <ele>1815.5871582031</ele>
        <time>2015-08-11T13:48:46Z</time>
      </trkpt>
      <trkpt lat="42.77655" lon="-0.41653">
        <ele>1816.0676269531</ele>
        <time>2015-08-11T13:48:58Z</time>
      </trkpt>
      <trkpt lat="42.77672" lon="-0.4163">
        <ele>1815.1064453125</ele>
        <time>2015-08-11T13:49:19Z</time>
      </trkpt>
      <trkpt lat="42.7768" lon="-0.41619">
        <ele>1813.6643066406</ele>
        <time>2015-08-11T13:49:37Z</time>
      </trkpt>
      <trkpt lat="42.77687" lon="-0.41609">
        <ele>1813.1838378906</ele>
        <time>2015-08-11T13:49:56Z</time>
      </trkpt>
      <trkpt lat="42.77701" lon="-0.41585">
        <ele>1814.6257324219</ele>
        <time>2015-08-11T13:50:16Z</time>
      </trkpt>
      <trkpt lat="42.77713" lon="-0.4156">
        <ele>1811.7419433594</ele>
        <time>2015-08-11T13:50:36Z</time>
      </trkpt>
      <trkpt lat="42.77726" lon="-0.41549">
        <ele>1808.3771972656</ele>
        <time>2015-08-11T13:50:51Z</time>
      </trkpt>
      <trkpt lat="42.77727" lon="-0.41548">
        <ele>1807.416015625</ele>
        <time>2015-08-11T13:50:53Z</time>
      </trkpt>
      <trkpt lat="42.77743" lon="-0.41543">
        <ele>1803.5705566406</ele>
        <time>2015-08-11T13:51:12Z</time>
      </trkpt>
      <trkpt lat="42.77757" lon="-0.41537">
        <ele>1800.2060546875</ele>
        <time>2015-08-11T13:51:27Z</time>
      </trkpt>
      <trkpt lat="42.77762" lon="-0.41536">
        <ele>1800.2060546875</ele>
        <time>2015-08-11T13:51:32Z</time>
      </trkpt>
      <trkpt lat="42.77778" lon="-0.4153">
        <ele>1796.8413085938</ele>
        <time>2015-08-11T13:51:52Z</time>
      </trkpt>
      <trkpt lat="42.77788" lon="-0.41526">
        <ele>1793.4768066406</ele>
        <time>2015-08-11T13:52:06Z</time>
      </trkpt>
      <trkpt lat="42.77798" lon="-0.41519">
        <ele>1790.5927734375</ele>
        <time>2015-08-11T13:52:23Z</time>
      </trkpt>
      <trkpt lat="42.77808" lon="-0.4151">
        <ele>1787.7087402344</ele>
        <time>2015-08-11T13:52:38Z</time>
      </trkpt>
      <trkpt lat="42.77819" lon="-0.41502">
        <ele>1785.7861328125</ele>
        <time>2015-08-11T13:52:54Z</time>
      </trkpt>
      <trkpt lat="42.77827" lon="-0.41496">
        <ele>1783.3828125</ele>
        <time>2015-08-11T13:53:11Z</time>
      </trkpt>
      <trkpt lat="42.77839" lon="-0.4149">
        <ele>1780.0183105469</ele>
        <time>2015-08-11T13:53:32Z</time>
      </trkpt>
      <trkpt lat="42.77852" lon="-0.4148">
        <ele>1776.6538085938</ele>
        <time>2015-08-11T13:53:50Z</time>
      </trkpt>
      <trkpt lat="42.77853" lon="-0.41479">
        <ele>1776.6538085938</ele>
        <time>2015-08-11T13:53:51Z</time>
      </trkpt>
      <trkpt lat="42.77859" lon="-0.41475">
        <ele>1774.7312011719</ele>
        <time>2015-08-11T13:54:00Z</time>
      </trkpt>
      <trkpt lat="42.7787" lon="-0.41466">
        <ele>1770.8857421875</ele>
        <time>2015-08-11T13:54:15Z</time>
      </trkpt>
      <trkpt lat="42.77879" lon="-0.4146">
        <ele>1768.482421875</ele>
        <time>2015-08-11T13:54:27Z</time>
      </trkpt>
      <trkpt lat="42.77888" lon="-0.41457">
        <ele>1764.6372070312</ele>
        <time>2015-08-11T13:54:38Z</time>
      </trkpt>
      <trkpt lat="42.77903" lon="-0.41451">
        <ele>1762.7145996094</ele>
        <time>2015-08-11T13:54:58Z</time>
      </trkpt>
      <trkpt lat="42.77907" lon="-0.41438">
        <ele>1762.2338867188</ele>
        <time>2015-08-11T13:55:11Z</time>
      </trkpt>
      <trkpt lat="42.77908" lon="-0.41409">
        <ele>1761.2727050781</ele>
        <time>2015-08-11T13:55:33Z</time>
      </trkpt>
      <trkpt lat="42.77915" lon="-0.41384">
        <ele>1760.3112792969</ele>
        <time>2015-08-11T13:55:51Z</time>
      </trkpt>
      <trkpt lat="42.77927" lon="-0.41356">
        <ele>1760.3112792969</ele>
        <time>2015-08-11T13:56:12Z</time>
      </trkpt>
      <trkpt lat="42.7794" lon="-0.41331">
        <ele>1758.8693847656</ele>
        <time>2015-08-11T13:56:30Z</time>
      </trkpt>
      <trkpt lat="42.77958" lon="-0.41305">
        <ele>1758.8693847656</ele>
        <time>2015-08-11T13:56:52Z</time>
      </trkpt>
      <trkpt lat="42.77977" lon="-0.41282">
        <ele>1757.908203125</ele>
        <time>2015-08-11T13:57:13Z</time>
      </trkpt>
      <trkpt lat="42.77996" lon="-0.41257">
        <ele>1757.4274902344</ele>
        <time>2015-08-11T13:57:35Z</time>
      </trkpt>
      <trkpt lat="42.78009" lon="-0.41228">
        <ele>1755.9851074219</ele>
        <time>2015-08-11T13:57:56Z</time>
      </trkpt>
      <trkpt lat="42.78018" lon="-0.41193">
        <ele>1752.6206054688</ele>
        <time>2015-08-11T13:58:19Z</time>
      </trkpt>
      <trkpt lat="42.78023" lon="-0.41169">
        <ele>1749.7368164062</ele>
        <time>2015-08-11T13:58:34Z</time>
      </trkpt>
      <trkpt lat="42.7803" lon="-0.41134">
        <ele>1747.3334960938</ele>
        <time>2015-08-11T13:58:57Z</time>
      </trkpt>
      <trkpt lat="42.78042" lon="-0.41117">
        <ele>1744.4494628906</ele>
        <time>2015-08-11T13:59:12Z</time>
      </trkpt>
      <trkpt lat="42.78063" lon="-0.41102">
        <ele>1742.0463867188</ele>
        <time>2015-08-11T13:59:33Z</time>
      </trkpt>
      <trkpt lat="42.78089" lon="-0.41084">
        <ele>1739.6428222656</ele>
        <time>2015-08-11T13:59:58Z</time>
      </trkpt>
      <trkpt lat="42.78102" lon="-0.4106">
        <ele>1735.7976074219</ele>
        <time>2015-08-11T14:00:16Z</time>
      </trkpt>
      <trkpt lat="42.78112" lon="-0.41024">
        <ele>1733.3942871094</ele>
        <time>2015-08-11T14:00:39Z</time>
      </trkpt>
      <trkpt lat="42.78111" lon="-0.40994">
        <ele>1730.0297851562</ele>
        <time>2015-08-11T14:00:58Z</time>
      </trkpt>
      <trkpt lat="42.78108" lon="-0.40957">
        <ele>1727.6264648438</ele>
        <time>2015-08-11T14:01:21Z</time>
      </trkpt>
      <trkpt lat="42.78111" lon="-0.40936">
        <ele>1725.7038574219</ele>
        <time>2015-08-11T14:01:37Z</time>
      </trkpt>
      <trkpt lat="42.78126" lon="-0.4092">
        <ele>1725.2231445312</ele>
        <time>2015-08-11T14:01:46Z</time>
      </trkpt>
      <trkpt lat="42.78134" lon="-0.40906">
        <ele>1723.7810058594</ele>
        <time>2015-08-11T14:01:56Z</time>
      </trkpt>
      <trkpt lat="42.78135" lon="-0.40884">
        <ele>1720.8972167969</ele>
        <time>2015-08-11T14:02:08Z</time>
      </trkpt>
      <trkpt lat="42.78142" lon="-0.40855">
        <ele>1718.974609375</ele>
        <time>2015-08-11T14:02:28Z</time>
      </trkpt>
      <trkpt lat="42.78146" lon="-0.40823">
        <ele>1716.0905761719</ele>
        <time>2015-08-11T14:02:48Z</time>
      </trkpt>
      <trkpt lat="42.78146" lon="-0.40784">
        <ele>1713.2067871094</ele>
        <time>2015-08-11T14:03:12Z</time>
      </trkpt>
      <trkpt lat="42.78146" lon="-0.40746">
        <ele>1710.8034667969</ele>
        <time>2015-08-11T14:03:35Z</time>
      </trkpt>
      <trkpt lat="42.7815" lon="-0.40711">
        <ele>1708.880859375</ele>
        <time>2015-08-11T14:03:57Z</time>
      </trkpt>
      <trkpt lat="42.78165" lon="-0.40678">
        <ele>1706.9580078125</ele>
        <time>2015-08-11T14:04:21Z</time>
      </trkpt>
      <trkpt lat="42.78186" lon="-0.40652">
        <ele>1705.0354003906</ele>
        <time>2015-08-11T14:04:45Z</time>
      </trkpt>
      <trkpt lat="42.78207" lon="-0.40638">
        <ele>1702.6320800781</ele>
        <time>2015-08-11T14:05:05Z</time>
      </trkpt>
      <trkpt lat="42.78226" lon="-0.40632">
        <ele>1699.267578125</ele>
        <time>2015-08-11T14:05:22Z</time>
      </trkpt>
      <trkpt lat="42.78256" lon="-0.40632">
        <ele>1697.8256835938</ele>
        <time>2015-08-11T14:05:47Z</time>
      </trkpt>
      <trkpt lat="42.78275" lon="-0.40637">
        <ele>1694.9416503906</ele>
        <time>2015-08-11T14:06:04Z</time>
      </trkpt>
      <trkpt lat="42.78298" lon="-0.40647">
        <ele>1693.4997558594</ele>
        <time>2015-08-11T14:06:25Z</time>
      </trkpt>
      <trkpt lat="42.78323" lon="-0.40655">
        <ele>1690.1350097656</ele>
        <time>2015-08-11T14:06:46Z</time>
      </trkpt>
      <trkpt lat="42.78328" lon="-0.40654">
        <ele>1689.1735839844</ele>
        <time>2015-08-11T14:06:51Z</time>
      </trkpt>
      <trkpt lat="42.78331" lon="-0.40653">
        <ele>1690.6154785156</ele>
        <time>2015-08-11T14:06:53Z</time>
      </trkpt>
      <trkpt lat="42.78333" lon="-0.40653">
        <ele>1689.654296875</ele>
        <time>2015-08-11T14:06:55Z</time>
      </trkpt>
      <trkpt lat="42.78356" lon="-0.40633">
        <ele>1687.2509765625</ele>
        <time>2015-08-11T14:07:17Z</time>
      </trkpt>
      <trkpt lat="42.78374" lon="-0.40606">
        <ele>1684.8479003906</ele>
        <time>2015-08-11T14:07:39Z</time>
      </trkpt>
      <trkpt lat="42.78384" lon="-0.40574">
        <ele>1682.4445800781</ele>
        <time>2015-08-11T14:08:00Z</time>
      </trkpt>
      <trkpt lat="42.78383" lon="-0.40543">
        <ele>1680.5219726562</ele>
        <time>2015-08-11T14:08:19Z</time>
      </trkpt>
      <trkpt lat="42.78371" lon="-0.40511">
        <ele>1678.5993652344</ele>
        <time>2015-08-11T14:08:41Z</time>
      </trkpt>
      <trkpt lat="42.78359" lon="-0.4048">
        <ele>1675.7150878906</ele>
        <time>2015-08-11T14:09:03Z</time>
      </trkpt>
      <trkpt lat="42.78354" lon="-0.40452">
        <ele>1673.7924804688</ele>
        <time>2015-08-11T14:09:22Z</time>
      </trkpt>
      <trkpt lat="42.78354" lon="-0.40428">
        <ele>1672.3505859375</ele>
        <time>2015-08-11T14:09:37Z</time>
      </trkpt>
      <trkpt lat="42.78357" lon="-0.40407">
        <ele>1668.9860839844</ele>
        <time>2015-08-11T14:09:50Z</time>
      </trkpt>
      <trkpt lat="42.78368" lon="-0.40375">
        <ele>1667.5439453125</ele>
        <time>2015-08-11T14:10:12Z</time>
      </trkpt>
      <trkpt lat="42.78386" lon="-0.40349">
        <ele>1664.1794433594</ele>
        <time>2015-08-11T14:10:34Z</time>
      </trkpt>
      <trkpt lat="42.78393" lon="-0.40341">
        <ele>1661.7763671875</ele>
        <time>2015-08-11T14:10:42Z</time>
      </trkpt>
      <trkpt lat="42.78409" lon="-0.40323">
        <ele>1658.8920898438</ele>
        <time>2015-08-11T14:10:59Z</time>
      </trkpt>
      <trkpt lat="42.78424" lon="-0.40302">
        <ele>1655.5275878906</ele>
        <time>2015-08-11T14:11:17Z</time>
      </trkpt>
      <trkpt lat="42.78437" lon="-0.40273">
        <ele>1653.1242675781</ele>
        <time>2015-08-11T14:11:38Z</time>
      </trkpt>
      <trkpt lat="42.78443" lon="-0.40227">
        <ele>1650.2404785156</ele>
        <time>2015-08-11T14:12:07Z</time>
      </trkpt>
      <trkpt lat="42.78451" lon="-0.40196">
        <ele>1646.8757324219</ele>
        <time>2015-08-11T14:12:27Z</time>
      </trkpt>
      <trkpt lat="42.78466" lon="-0.40164">
        <ele>1643.9916992188</ele>
        <time>2015-08-11T14:12:50Z</time>
      </trkpt>
      <trkpt lat="42.7848" lon="-0.40132">
        <ele>1641.1076660156</ele>
        <time>2015-08-11T14:13:13Z</time>
      </trkpt>
      <trkpt lat="42.78494" lon="-0.40101">
        <ele>1639.6657714844</ele>
        <time>2015-08-11T14:13:35Z</time>
      </trkpt>
      <trkpt lat="42.78503" lon="-0.40073">
        <ele>1636.3012695312</ele>
        <time>2015-08-11T14:13:53Z</time>
      </trkpt>
      <trkpt lat="42.78503" lon="-0.40034">
        <ele>1634.859375</ele>
        <time>2015-08-11T14:14:16Z</time>
      </trkpt>
      <trkpt lat="42.78509" lon="-0.4">
        <ele>1631.9753417969</ele>
        <time>2015-08-11T14:14:37Z</time>
      </trkpt>
      <trkpt lat="42.78527" lon="-0.39975">
        <ele>1630.052734375</ele>
        <time>2015-08-11T14:14:59Z</time>
      </trkpt>
      <trkpt lat="42.78553" lon="-0.3996">
        <ele>1628.6108398438</ele>
        <time>2015-08-11T14:15:22Z</time>
      </trkpt>
      <trkpt lat="42.78578" lon="-0.3994">
        <ele>1627.1687011719</ele>
        <time>2015-08-11T14:15:45Z</time>
      </trkpt>
      <trkpt lat="42.78597" lon="-0.39917">
        <ele>1626.6879882812</ele>
        <time>2015-08-11T14:16:05Z</time>
      </trkpt>
      <trkpt lat="42.78618" lon="-0.39882">
        <ele>1625.7265625</ele>
        <time>2015-08-11T14:16:31Z</time>
      </trkpt>
      <trkpt lat="42.78637" lon="-0.39846">
        <ele>1624.2846679688</ele>
        <time>2015-08-11T14:16:56Z</time>
      </trkpt>
      <trkpt lat="42.78658" lon="-0.39815">
        <ele>1623.3234863281</ele>
        <time>2015-08-11T14:17:20Z</time>
      </trkpt>
      <trkpt lat="42.78686" lon="-0.39788">
        <ele>1621.8813476562</ele>
        <time>2015-08-11T14:17:46Z</time>
      </trkpt>
      <trkpt lat="42.78704" lon="-0.39759">
        <ele>1621.4006347656</ele>
        <time>2015-08-11T14:18:09Z</time>
      </trkpt>
      <trkpt lat="42.78706" lon="-0.39722">
        <ele>1620.9201660156</ele>
        <time>2015-08-11T14:18:30Z</time>
      </trkpt>
      <trkpt lat="42.787" lon="-0.39682">
        <ele>1620.9201660156</ele>
        <time>2015-08-11T14:18:54Z</time>
      </trkpt>
      <trkpt lat="42.78688" lon="-0.39655">
        <ele>1622.3620605469</ele>
        <time>2015-08-11T14:19:12Z</time>
      </trkpt>
      <trkpt lat="42.78664" lon="-0.3963">
        <ele>1623.3234863281</ele>
        <time>2015-08-11T14:19:36Z</time>
      </trkpt>
      <trkpt lat="42.78642" lon="-0.39612">
        <ele>1623.8039550781</ele>
        <time>2015-08-11T14:19:56Z</time>
      </trkpt>
      <trkpt lat="42.78619" lon="-0.39595">
        <ele>1626.2072753906</ele>
        <time>2015-08-11T14:20:17Z</time>
      </trkpt>
      <trkpt lat="42.78603" lon="-0.39564">
        <ele>1628.6108398438</ele>
        <time>2015-08-11T14:20:39Z</time>
      </trkpt>
      <trkpt lat="42.78596" lon="-0.39539">
        <ele>1629.0913085938</ele>
        <time>2015-08-11T14:20:56Z</time>
      </trkpt>
      <trkpt lat="42.78588" lon="-0.39509">
        <ele>1631.0141601562</ele>
        <time>2015-08-11T14:21:15Z</time>
      </trkpt>
      <trkpt lat="42.78582" lon="-0.39475">
        <ele>1632.9365234375</ele>
        <time>2015-08-11T14:21:37Z</time>
      </trkpt>
      <trkpt lat="42.7858" lon="-0.39446">
        <ele>1634.3786621094</ele>
        <time>2015-08-11T14:21:55Z</time>
      </trkpt>
      <trkpt lat="42.78577" lon="-0.39411">
        <ele>1635.8205566406</ele>
        <time>2015-08-11T14:22:16Z</time>
      </trkpt>
      <trkpt lat="42.78577" lon="-0.3938">
        <ele>1636.7817382812</ele>
        <time>2015-08-11T14:22:35Z</time>
      </trkpt>
      <trkpt lat="42.78578" lon="-0.39353">
        <ele>1638.2238769531</ele>
        <time>2015-08-11T14:22:51Z</time>
      </trkpt>
      <trkpt lat="42.78577" lon="-0.39345">
        <ele>1639.1850585938</ele>
        <time>2015-08-11T14:22:57Z</time>
      </trkpt>
      <trkpt lat="42.78581" lon="-0.39312">
        <ele>1641.1076660156</ele>
        <time>2015-08-11T14:23:18Z</time>
      </trkpt>
      <trkpt lat="42.78584" lon="-0.39292">
        <ele>1643.0302734375</ele>
        <time>2015-08-11T14:23:31Z</time>
      </trkpt>
      <trkpt lat="42.78587" lon="-0.39284">
        <ele>1643.5109863281</ele>
        <time>2015-08-11T14:23:40Z</time>
      </trkpt>
      <trkpt lat="42.78586" lon="-0.39278">
        <ele>1643.0302734375</ele>
        <time>2015-08-11T14:23:44Z</time>
      </trkpt>
      <trkpt lat="42.78584" lon="-0.39252">
        <ele>1643.0302734375</ele>
        <time>2015-08-11T14:24:04Z</time>
      </trkpt>
      <trkpt lat="42.78583" lon="-0.3925">
        <ele>1642.0690917969</ele>
        <time>2015-08-11T14:24:22Z</time>
      </trkpt>
    </trkseg>
  </trk>
</gpx>